﻿<?xml version="1.0" encoding="utf-8"?><gpx creator="Garmin Desktop App" version="1.1" xsi:schemaLocation="http://www.topografix.com/GPX/1/1 http://www.topografix.com/GPX/1/1/gpx.xsd http://www.garmin.com/xmlschemas/WaypointExtension/v1 http://www8.garmin.com/xmlschemas/WaypointExtensionv1.xsd http://www.garmin.com/xmlschemas/TrackPointExtension/v1 http://www.garmin.com/xmlschemas/TrackPointExtensionv1.xsd http://www.garmin.com/xmlschemas/GpxExtensions/v3 http://www8.garmin.com/xmlschemas/GpxExtensionsv3.xsd http://www.garmin.com/xmlschemas/ActivityExtension/v1 http://www8.garmin.com/xmlschemas/ActivityExtensionv1.xsd http://www.garmin.com/xmlschemas/AdventuresExtensions/v1 http://www8.garmin.com/xmlschemas/AdventuresExtensionv1.xsd http://www.garmin.com/xmlschemas/PressureExtension/v1 http://www.garmin.com/xmlschemas/PressureExtensionv1.xsd http://www.garmin.com/xmlschemas/TripExtensions/v1 http://www.garmin.com/xmlschemas/TripExtensionsv1.xsd http://www.garmin.com/xmlschemas/TripMetaDataExtensions/v1 http://www.garmin.com/xmlschemas/TripMetaDataExtensionsv1.xsd http://www.garmin.com/xmlschemas/ViaPointTransportationModeExtensions/v1 http://www.garmin.com/xmlschemas/ViaPointTransportationModeExtensionsv1.xsd http://www.garmin.com/xmlschemas/CreationTimeExtension/v1 http://www.garmin.com/xmlschemas/CreationTimeExtensionsv1.xsd http://www.garmin.com/xmlschemas/AccelerationExtension/v1 http://www.garmin.com/xmlschemas/AccelerationExtensionv1.xsd http://www.garmin.com/xmlschemas/PowerExtension/v1 http://www.garmin.com/xmlschemas/PowerExtensionv1.xsd http://www.garmin.com/xmlschemas/VideoExtension/v1 http://www.garmin.com/xmlschemas/VideoExtensionv1.xsd" xmlns="http://www.topografix.com/GPX/1/1" xmlns:xsi="http://www.w3.org/2001/XMLSchema-instance" xmlns:wptx1="http://www.garmin.com/xmlschemas/WaypointExtension/v1" xmlns:gpxtrx="http://www.garmin.com/xmlschemas/GpxExtensions/v3" xmlns:gpxtpx="http://www.garmin.com/xmlschemas/TrackPointExtension/v1" xmlns:gpxx="http://www.garmin.com/xmlschemas/GpxExtensions/v3" xmlns:trp="http://www.garmin.com/xmlschemas/TripExtensions/v1" xmlns:adv="http://www.garmin.com/xmlschemas/AdventuresExtensions/v1" xmlns:prs="http://www.garmin.com/xmlschemas/PressureExtension/v1" xmlns:tmd="http://www.garmin.com/xmlschemas/TripMetaDataExtensions/v1" xmlns:vptm="http://www.garmin.com/xmlschemas/ViaPointTransportationModeExtensions/v1" xmlns:ctx="http://www.garmin.com/xmlschemas/CreationTimeExtension/v1" xmlns:gpxacc="http://www.garmin.com/xmlschemas/AccelerationExtension/v1" xmlns:gpxpx="http://www.garmin.com/xmlschemas/PowerExtension/v1" xmlns:vidx1="http://www.garmin.com/xmlschemas/VideoExtension/v1">

  <metadata>
    <link href="http://www.garmin.com">
      <text>Garmin International</text>
    </link>
    <time>2023-03-13T09:40:55Z</time>
    <bounds maxlat="51.161763919517398" maxlon="5.105343461036682" minlat="51.134690791368484" minlon="5.034233154729009" />
  </metadata>

  <trk>
    <name>geel malosewaver 21km</name>
    <extensions>
      <gpxx:TrackExtension>
        <gpxx:DisplayColor>Blue</gpxx:DisplayColor>
      </gpxx:TrackExtension>
    </extensions>
    <trkseg>
      <trkpt lat="51.161527968943119" lon="5.047462480142713">
        <ele>25.129999999999999</ele>
        <time>2022-08-20T12:55:22Z</time>
      </trkpt>
      <trkpt lat="51.161528890952468" lon="5.047463905066252">
        <ele>25.129999999999999</ele>
        <time>2022-08-20T12:55:23Z</time>
      </trkpt>
      <trkpt lat="51.161529393866658" lon="5.047465078532696">
        <ele>25.129999999999999</ele>
        <time>2022-08-20T12:55:24Z</time>
      </trkpt>
      <trkpt lat="51.161535177379847" lon="5.04746574908495">
        <ele>17.920000000000002</ele>
        <time>2022-08-20T12:55:37Z</time>
      </trkpt>
      <trkpt lat="51.161539200693369" lon="5.047461222857237">
        <ele>24.649999999999999</ele>
        <time>2022-08-20T12:55:41Z</time>
      </trkpt>
      <trkpt lat="51.161540625616908" lon="5.047459714114666">
        <ele>24.649999999999999</ele>
        <time>2022-08-20T12:55:42Z</time>
      </trkpt>
      <trkpt lat="51.161515060812235" lon="5.047439346089959">
        <ele>25.129999999999999</ele>
        <time>2022-08-20T12:55:58Z</time>
      </trkpt>
      <trkpt lat="51.161503326147795" lon="5.047380337491632">
        <ele>25.129999999999999</ele>
        <time>2022-08-20T12:56:14Z</time>
      </trkpt>
      <trkpt lat="51.161481030285358" lon="5.04736265167594">
        <ele>25.129999999999999</ele>
        <time>2022-08-20T12:56:37Z</time>
      </trkpt>
      <trkpt lat="51.161452112719417" lon="5.047296015545726">
        <ele>25.129999999999999</ele>
        <time>2022-08-20T12:56:49Z</time>
      </trkpt>
      <trkpt lat="51.161410706117749" lon="5.047246897593141">
        <ele>25.129999999999999</ele>
        <time>2022-08-20T12:57:02Z</time>
      </trkpt>
      <trkpt lat="51.161356475204229" lon="5.047399364411831">
        <ele>26.57</ele>
        <time>2022-08-20T12:57:23Z</time>
      </trkpt>
      <trkpt lat="51.161347674205899" lon="5.047535235062242">
        <ele>26.57</ele>
        <time>2022-08-20T12:57:39Z</time>
      </trkpt>
      <trkpt lat="51.161285983398557" lon="5.047760875895619">
        <ele>25.609999999999999</ele>
        <time>2022-08-20T12:57:53Z</time>
      </trkpt>
      <trkpt lat="51.16127198562026" lon="5.047760708257556">
        <ele>26.09</ele>
        <time>2022-08-20T12:57:54Z</time>
      </trkpt>
      <trkpt lat="51.161258239299059" lon="5.047762971371412">
        <ele>26.57</ele>
        <time>2022-08-20T12:57:55Z</time>
      </trkpt>
      <trkpt lat="51.161138210445642" lon="5.047765988856554">
        <ele>27.050000000000001</ele>
        <time>2022-08-20T12:58:06Z</time>
      </trkpt>
      <trkpt lat="51.160935619845986" lon="5.047842767089605">
        <ele>26.09</ele>
        <time>2022-08-20T12:58:23Z</time>
      </trkpt>
      <trkpt lat="51.160761108621955" lon="5.047920299693942">
        <ele>24.649999999999999</ele>
        <time>2022-08-20T12:58:40Z</time>
      </trkpt>
      <trkpt lat="51.160652562975883" lon="5.047891046851873">
        <ele>24.649999999999999</ele>
        <time>2022-08-20T12:58:51Z</time>
      </trkpt>
      <trkpt lat="51.160491798073053" lon="5.047742519527674">
        <ele>24.649999999999999</ele>
        <time>2022-08-20T12:59:07Z</time>
      </trkpt>
      <trkpt lat="51.160413008183241" lon="5.047705303877592">
        <ele>24.649999999999999</ele>
        <time>2022-08-20T12:59:15Z</time>
      </trkpt>
      <trkpt lat="51.160400519147515" lon="5.047708321362734">
        <ele>24.170000000000002</ele>
        <time>2022-08-20T12:59:16Z</time>
      </trkpt>
      <trkpt lat="51.160327848047018" lon="5.047699185088277">
        <ele>24.649999999999999</ele>
        <time>2022-08-20T12:59:22Z</time>
      </trkpt>
      <trkpt lat="51.16031376644969" lon="5.047692563384771">
        <ele>24.649999999999999</ele>
        <time>2022-08-20T12:59:23Z</time>
      </trkpt>
      <trkpt lat="51.160125341266394" lon="5.047640344128013">
        <ele>24.170000000000002</ele>
        <time>2022-08-20T12:59:37Z</time>
      </trkpt>
      <trkpt lat="51.160136573016644" lon="5.047668423503637">
        <ele>24.649999999999999</ele>
        <time>2022-08-20T12:59:49Z</time>
      </trkpt>
      <trkpt lat="51.160125341266394" lon="5.047674290835857">
        <ele>24.170000000000002</ele>
        <time>2022-08-20T12:59:51Z</time>
      </trkpt>
      <trkpt lat="51.160090304911137" lon="5.047637494280934">
        <ele>24.649999999999999</ele>
        <time>2022-08-20T13:00:02Z</time>
      </trkpt>
      <trkpt lat="51.160087455064058" lon="5.047617042437196">
        <ele>25.129999999999999</ele>
        <time>2022-08-20T13:00:11Z</time>
      </trkpt>
      <trkpt lat="51.159997349604964" lon="5.047663729637861">
        <ele>19.84</ele>
        <time>2022-08-20T13:00:24Z</time>
      </trkpt>
      <trkpt lat="51.159985447302461" lon="5.047661298885942">
        <ele>28.02</ele>
        <time>2022-08-20T13:00:25Z</time>
      </trkpt>
      <trkpt lat="51.159974131733179" lon="5.047659622505307">
        <ele>24.649999999999999</ele>
        <time>2022-08-20T13:00:26Z</time>
      </trkpt>
      <trkpt lat="51.159953596070409" lon="5.04764755256474">
        <ele>24.649999999999999</ele>
        <time>2022-08-20T13:00:28Z</time>
      </trkpt>
      <trkpt lat="51.159933563321829" lon="5.047644702717662">
        <ele>24.649999999999999</ele>
        <time>2022-08-20T13:00:29Z</time>
      </trkpt>
      <trkpt lat="51.159745724871755" lon="5.047716787084937">
        <ele>24.649999999999999</ele>
        <time>2022-08-20T13:00:43Z</time>
      </trkpt>
      <trkpt lat="51.15971764549613" lon="5.047732209786773">
        <ele>25.129999999999999</ele>
        <time>2022-08-20T13:00:45Z</time>
      </trkpt>
      <trkpt lat="51.15970297716558" lon="5.047744950279594">
        <ele>25.129999999999999</ele>
        <time>2022-08-20T13:00:46Z</time>
      </trkpt>
      <trkpt lat="51.159685542806983" lon="5.047755176201463">
        <ele>25.129999999999999</ele>
        <time>2022-08-20T13:00:47Z</time>
      </trkpt>
      <trkpt lat="51.159535674378276" lon="5.047789122909308">
        <ele>25.129999999999999</ele>
        <time>2022-08-20T13:00:59Z</time>
      </trkpt>
      <trkpt lat="51.159523101523519" lon="5.047782752662897">
        <ele>25.129999999999999</ele>
        <time>2022-08-20T13:01:00Z</time>
      </trkpt>
      <trkpt lat="51.159328389912844" lon="5.04778191447258">
        <ele>25.609999999999999</ele>
        <time>2022-08-20T13:01:15Z</time>
      </trkpt>
      <trkpt lat="51.159278014674783" lon="5.047802198678255">
        <ele>26.09</ele>
        <time>2022-08-20T13:01:18Z</time>
      </trkpt>
      <trkpt lat="51.159176342189312" lon="5.048033455386758">
        <ele>26.57</ele>
        <time>2022-08-20T13:01:30Z</time>
      </trkpt>
      <trkpt lat="51.159089170396328" lon="5.048291115090251">
        <ele>27.050000000000001</ele>
        <time>2022-08-20T13:01:44Z</time>
      </trkpt>
      <trkpt lat="51.159083722159266" lon="5.048307459801436">
        <ele>27.050000000000001</ele>
        <time>2022-08-20T13:01:45Z</time>
      </trkpt>
      <trkpt lat="51.159075256437063" lon="5.048329588025808">
        <ele>27.050000000000001</ele>
        <time>2022-08-20T13:01:46Z</time>
      </trkpt>
      <trkpt lat="51.158991688862443" lon="5.048630833625794">
        <ele>27.050000000000001</ele>
        <time>2022-08-20T13:02:01Z</time>
      </trkpt>
      <trkpt lat="51.158887334167957" lon="5.048981951549649">
        <ele>27.050000000000001</ele>
        <time>2022-08-20T13:02:19Z</time>
      </trkpt>
      <trkpt lat="51.158809801563621" lon="5.049246065318584">
        <ele>27.050000000000001</ele>
        <time>2022-08-20T13:02:34Z</time>
      </trkpt>
      <trkpt lat="51.158699747174978" lon="5.049578407779336">
        <ele>27.050000000000001</ele>
        <time>2022-08-20T13:02:49Z</time>
      </trkpt>
      <trkpt lat="51.158493971452117" lon="5.049840426072478">
        <ele>27.530000000000001</ele>
        <time>2022-08-20T13:03:05Z</time>
      </trkpt>
      <trkpt lat="51.158329350873828" lon="5.049971183761954">
        <ele>28.02</ele>
        <time>2022-08-20T13:03:17Z</time>
      </trkpt>
      <trkpt lat="51.158306133002043" lon="5.049995994195342">
        <ele>28.5</ele>
        <time>2022-08-20T13:03:21Z</time>
      </trkpt>
      <trkpt lat="51.158293476328254" lon="5.049996916204691">
        <ele>28.5</ele>
        <time>2022-08-20T13:03:22Z</time>
      </trkpt>
      <trkpt lat="51.158065237104893" lon="5.050111077725887">
        <ele>29.460000000000001</ele>
        <time>2022-08-20T13:03:37Z</time>
      </trkpt>
      <trkpt lat="51.157943950966001" lon="5.050364546477795">
        <ele>29.460000000000001</ele>
        <time>2022-08-20T13:03:52Z</time>
      </trkpt>
      <trkpt lat="51.157825514674187" lon="5.050637377426028">
        <ele>29.460000000000001</ele>
        <time>2022-08-20T13:04:08Z</time>
      </trkpt>
      <trkpt lat="51.157668605446815" lon="5.050848936662078">
        <ele>28.98</ele>
        <time>2022-08-20T13:04:26Z</time>
      </trkpt>
      <trkpt lat="51.157530639320612" lon="5.051134508103132">
        <ele>28.98</ele>
        <time>2022-08-20T13:04:44Z</time>
      </trkpt>
      <trkpt lat="51.157346069812775" lon="5.051418235525489">
        <ele>28.98</ele>
        <time>2022-08-20T13:05:02Z</time>
      </trkpt>
      <trkpt lat="51.157160745933652" lon="5.051695089787245">
        <ele>29.940000000000001</ele>
        <time>2022-08-20T13:05:18Z</time>
      </trkpt>
      <trkpt lat="51.157057648524642" lon="5.051887538284063">
        <ele>30.420000000000002</ele>
        <time>2022-08-20T13:05:30Z</time>
      </trkpt>
      <trkpt lat="51.157048512250185" lon="5.05190153606236">
        <ele>29.940000000000001</ele>
        <time>2022-08-20T13:05:31Z</time>
      </trkpt>
      <trkpt lat="51.156896548345685" lon="5.052193813025951">
        <ele>30.420000000000002</ele>
        <time>2022-08-20T13:05:48Z</time>
      </trkpt>
      <trkpt lat="51.156767969951034" lon="5.052395481616259">
        <ele>30.420000000000002</ele>
        <time>2022-08-20T13:06:02Z</time>
      </trkpt>
      <trkpt lat="51.156603517010808" lon="5.052639814093709">
        <ele>30.899999999999999</ele>
        <time>2022-08-20T13:06:19Z</time>
      </trkpt>
      <trkpt lat="51.156522380188107" lon="5.052980035543442">
        <ele>30.899999999999999</ele>
        <time>2022-08-20T13:06:35Z</time>
      </trkpt>
      <trkpt lat="51.156468149274588" lon="5.053294189274311">
        <ele>30.899999999999999</ele>
        <time>2022-08-20T13:06:50Z</time>
      </trkpt>
      <trkpt lat="51.156441662460566" lon="5.053607672452927">
        <ele>30.899999999999999</ele>
        <time>2022-08-20T13:07:05Z</time>
      </trkpt>
      <trkpt lat="51.156384497880936" lon="5.053847143426538">
        <ele>31.379999999999999</ele>
        <time>2022-08-20T13:07:20Z</time>
      </trkpt>
      <trkpt lat="51.156237060204148" lon="5.053868601098657">
        <ele>30.899999999999999</ele>
        <time>2022-08-20T13:07:33Z</time>
      </trkpt>
      <trkpt lat="51.156169166788459" lon="5.053865499794483">
        <ele>30.420000000000002</ele>
        <time>2022-08-20T13:07:38Z</time>
      </trkpt>
      <trkpt lat="51.156155755743384" lon="5.05386047065258">
        <ele>30.420000000000002</ele>
        <time>2022-08-20T13:07:39Z</time>
      </trkpt>
      <trkpt lat="51.15614578127861" lon="5.053858207538724">
        <ele>30.420000000000002</ele>
        <time>2022-08-20T13:07:40Z</time>
      </trkpt>
      <trkpt lat="51.155944615602493" lon="5.053870361298323">
        <ele>30.899999999999999</ele>
        <time>2022-08-20T13:07:56Z</time>
      </trkpt>
      <trkpt lat="51.155770774930716" lon="5.053901709616184">
        <ele>29.940000000000001</ele>
        <time>2022-08-20T13:08:09Z</time>
      </trkpt>
      <trkpt lat="51.155595509335399" lon="5.053901374340057">
        <ele>29.460000000000001</ele>
        <time>2022-08-20T13:08:25Z</time>
      </trkpt>
      <trkpt lat="51.155586624518037" lon="5.053908415138722">
        <ele>29.460000000000001</ele>
        <time>2022-08-20T13:08:26Z</time>
      </trkpt>
      <trkpt lat="51.155574303120375" lon="5.053913779556751">
        <ele>28.98</ele>
        <time>2022-08-20T13:08:27Z</time>
      </trkpt>
      <trkpt lat="51.155562987551093" lon="5.053913360461593">
        <ele>29.460000000000001</ele>
        <time>2022-08-20T13:08:28Z</time>
      </trkpt>
      <trkpt lat="51.155439103022218" lon="5.053898943588138">
        <ele>28.5</ele>
        <time>2022-08-20T13:08:40Z</time>
      </trkpt>
      <trkpt lat="51.155428625643253" lon="5.053892154246569">
        <ele>28.5</ele>
        <time>2022-08-20T13:08:41Z</time>
      </trkpt>
      <trkpt lat="51.155394678935409" lon="5.053879413753748">
        <ele>28.5</ele>
        <time>2022-08-20T13:08:44Z</time>
      </trkpt>
      <trkpt lat="51.155312368646264" lon="5.053879581391811">
        <ele>27.530000000000001</ele>
        <time>2022-08-20T13:08:51Z</time>
      </trkpt>
      <trkpt lat="51.155301388353109" lon="5.053886119276285">
        <ele>27.530000000000001</ele>
        <time>2022-08-20T13:08:52Z</time>
      </trkpt>
      <trkpt lat="51.155270962044597" lon="5.053992904722691">
        <ele>27.530000000000001</ele>
        <time>2022-08-20T13:08:58Z</time>
      </trkpt>
      <trkpt lat="51.155268447473645" lon="5.054017379879952">
        <ele>27.530000000000001</ele>
        <time>2022-08-20T13:08:59Z</time>
      </trkpt>
      <trkpt lat="51.155264507979155" lon="5.054279649630189">
        <ele>27.530000000000001</ele>
        <time>2022-08-20T13:09:11Z</time>
      </trkpt>
      <trkpt lat="51.155272051692009" lon="5.054699247702956">
        <ele>28.5</ele>
        <time>2022-08-20T13:09:28Z</time>
      </trkpt>
      <trkpt lat="51.155287139117718" lon="5.055084899067879">
        <ele>27.050000000000001</ele>
        <time>2022-08-20T13:09:45Z</time>
      </trkpt>
      <trkpt lat="51.155311446636915" lon="5.055439872667193">
        <ele>26.57</ele>
        <time>2022-08-20T13:10:02Z</time>
      </trkpt>
      <trkpt lat="51.155312955379486" lon="5.055654533207417">
        <ele>26.09</ele>
        <time>2022-08-20T13:10:11Z</time>
      </trkpt>
      <trkpt lat="51.155314715579152" lon="5.055680852383375">
        <ele>26.57</ele>
        <time>2022-08-20T13:10:12Z</time>
      </trkpt>
      <trkpt lat="51.155304238200188" lon="5.056022414937615">
        <ele>25.609999999999999</ele>
        <time>2022-08-20T13:10:26Z</time>
      </trkpt>
      <trkpt lat="51.155301388353109" lon="5.056057618930936">
        <ele>26.09</ele>
        <time>2022-08-20T13:10:27Z</time>
      </trkpt>
      <trkpt lat="51.15527356043458" lon="5.056835375726223">
        <ele>26.09</ele>
        <time>2022-08-20T13:10:41Z</time>
      </trkpt>
      <trkpt lat="51.155316811054945" lon="5.057679768651724">
        <ele>26.57</ele>
        <time>2022-08-20T13:10:54Z</time>
      </trkpt>
      <trkpt lat="51.155322343111038" lon="5.058603622019291">
        <ele>26.57</ele>
        <time>2022-08-20T13:11:08Z</time>
      </trkpt>
      <trkpt lat="51.155321504920721" lon="5.059524960815907">
        <ele>26.09</ele>
        <time>2022-08-20T13:11:21Z</time>
      </trkpt>
      <trkpt lat="51.15532829426229" lon="5.059596039354801">
        <ele>26.57</ele>
        <time>2022-08-20T13:11:22Z</time>
      </trkpt>
      <trkpt lat="51.155328629538417" lon="5.06041101180017">
        <ele>25.609999999999999</ele>
        <time>2022-08-20T13:11:34Z</time>
      </trkpt>
      <trkpt lat="51.155329383909702" lon="5.06154022179544">
        <ele>26.09</ele>
        <time>2022-08-20T13:11:51Z</time>
      </trkpt>
      <trkpt lat="51.155328210443258" lon="5.061715571209788">
        <ele>26.09</ele>
        <time>2022-08-20T13:11:56Z</time>
      </trkpt>
      <trkpt lat="51.155338687822223" lon="5.061735101044178">
        <ele>26.09</ele>
        <time>2022-08-20T13:11:57Z</time>
      </trkpt>
      <trkpt lat="51.155352853238583" lon="5.061745410785079">
        <ele>26.09</ele>
        <time>2022-08-20T13:11:58Z</time>
      </trkpt>
      <trkpt lat="51.155367018654943" lon="5.061754211783409">
        <ele>26.09</ele>
        <time>2022-08-20T13:11:59Z</time>
      </trkpt>
      <trkpt lat="51.155381351709366" lon="5.061762845143676">
        <ele>26.57</ele>
        <time>2022-08-20T13:12:00Z</time>
      </trkpt>
      <trkpt lat="51.155570615082979" lon="5.06178455427289">
        <ele>27.050000000000001</ele>
        <time>2022-08-20T13:12:14Z</time>
      </trkpt>
      <trkpt lat="51.155770439654589" lon="5.061789751052856">
        <ele>27.050000000000001</ele>
        <time>2022-08-20T13:12:28Z</time>
      </trkpt>
      <trkpt lat="51.156015861779451" lon="5.061782961711288">
        <ele>28.02</ele>
        <time>2022-08-20T13:12:45Z</time>
      </trkpt>
      <trkpt lat="51.156250638887286" lon="5.061788409948349">
        <ele>28.5</ele>
        <time>2022-08-20T13:13:01Z</time>
      </trkpt>
      <trkpt lat="51.156465299427509" lon="5.061861500144005">
        <ele>28.98</ele>
        <time>2022-08-20T13:13:17Z</time>
      </trkpt>
      <trkpt lat="51.156636457890272" lon="5.061968369409442">
        <ele>29.460000000000001</ele>
        <time>2022-08-20T13:13:31Z</time>
      </trkpt>
      <trkpt lat="51.156879784539342" lon="5.06209728308022">
        <ele>29.460000000000001</ele>
        <time>2022-08-20T13:13:48Z</time>
      </trkpt>
      <trkpt lat="51.157101569697261" lon="5.062195351347327">
        <ele>29.940000000000001</ele>
        <time>2022-08-20T13:14:05Z</time>
      </trkpt>
      <trkpt lat="51.157259736210108" lon="5.062261149287224">
        <ele>30.420000000000002</ele>
        <time>2022-08-20T13:14:18Z</time>
      </trkpt>
      <trkpt lat="51.157304244115949" lon="5.06242853589356">
        <ele>29.940000000000001</ele>
        <time>2022-08-20T13:14:27Z</time>
      </trkpt>
      <trkpt lat="51.157304244115949" lon="5.06283606402576">
        <ele>30.420000000000002</ele>
        <time>2022-08-20T13:14:44Z</time>
      </trkpt>
      <trkpt lat="51.157324109226465" lon="5.063184164464474">
        <ele>30.420000000000002</ele>
        <time>2022-08-20T13:14:58Z</time>
      </trkpt>
      <trkpt lat="51.157319331541657" lon="5.063514746725559">
        <ele>30.899999999999999</ele>
        <time>2022-08-20T13:15:13Z</time>
      </trkpt>
      <trkpt lat="51.157235093414783" lon="5.063772574067116">
        <ele>32.340000000000003</ele>
        <time>2022-08-20T13:15:25Z</time>
      </trkpt>
      <trkpt lat="51.157221850007772" lon="5.063789086416364">
        <ele>32.340000000000003</ele>
        <time>2022-08-20T13:15:26Z</time>
      </trkpt>
      <trkpt lat="51.157103078439832" lon="5.063856393098831">
        <ele>32.340000000000003</ele>
        <time>2022-08-20T13:15:36Z</time>
      </trkpt>
      <trkpt lat="51.157062342390418" lon="5.063872737810016">
        <ele>32.340000000000003</ele>
        <time>2022-08-20T13:15:40Z</time>
      </trkpt>
      <trkpt lat="51.157064186409116" lon="5.063944654539228">
        <ele>30.899999999999999</ele>
        <time>2022-08-20T13:15:45Z</time>
      </trkpt>
      <trkpt lat="51.157070808112621" lon="5.063963681459427">
        <ele>30.899999999999999</ele>
        <time>2022-08-20T13:15:46Z</time>
      </trkpt>
      <trkpt lat="51.157078016549349" lon="5.063983798027039">
        <ele>30.899999999999999</ele>
        <time>2022-08-20T13:15:47Z</time>
      </trkpt>
      <trkpt lat="51.157113891094923" lon="5.064238188788295">
        <ele>30.420000000000002</ele>
        <time>2022-08-20T13:16:02Z</time>
      </trkpt>
      <trkpt lat="51.157012302428484" lon="5.064374729990959">
        <ele>30.420000000000002</ele>
        <time>2022-08-20T13:16:13Z</time>
      </trkpt>
      <trkpt lat="51.156998723745346" lon="5.064405156299472">
        <ele>29.940000000000001</ele>
        <time>2022-08-20T13:16:15Z</time>
      </trkpt>
      <trkpt lat="51.156989587470889" lon="5.064418902620673">
        <ele>29.940000000000001</ele>
        <time>2022-08-20T13:16:16Z</time>
      </trkpt>
      <trkpt lat="51.156978020444512" lon="5.064432648941875">
        <ele>30.420000000000002</ele>
        <time>2022-08-20T13:16:17Z</time>
      </trkpt>
      <trkpt lat="51.156965615227818" lon="5.06444807164371">
        <ele>30.420000000000002</ele>
        <time>2022-08-20T13:16:18Z</time>
      </trkpt>
      <trkpt lat="51.156953293830156" lon="5.064465254545212">
        <ele>30.420000000000002</ele>
        <time>2022-08-20T13:16:19Z</time>
      </trkpt>
      <trkpt lat="51.156791606917977" lon="5.064730793237686">
        <ele>29.940000000000001</ele>
        <time>2022-08-20T13:16:34Z</time>
      </trkpt>
      <trkpt lat="51.156646013259888" lon="5.06500898860395">
        <ele>28.98</ele>
        <time>2022-08-20T13:16:52Z</time>
      </trkpt>
      <trkpt lat="51.1564726755023" lon="5.065275197848678">
        <ele>28.5</ele>
        <time>2022-08-20T13:17:10Z</time>
      </trkpt>
      <trkpt lat="51.156244855374098" lon="5.06550787948072">
        <ele>28.5</ele>
        <time>2022-08-20T13:17:28Z</time>
      </trkpt>
      <trkpt lat="51.156222224235535" lon="5.065533947199583">
        <ele>28.5</ele>
        <time>2022-08-20T13:17:30Z</time>
      </trkpt>
      <trkpt lat="51.156206130981445" lon="5.065535372123122">
        <ele>28.5</ele>
        <time>2022-08-20T13:17:31Z</time>
      </trkpt>
      <trkpt lat="51.156165311113" lon="5.065539395436645">
        <ele>28.5</ele>
        <time>2022-08-20T13:17:33Z</time>
      </trkpt>
      <trkpt lat="51.156151480972767" lon="5.065560769289732">
        <ele>28.02</ele>
        <time>2022-08-20T13:17:34Z</time>
      </trkpt>
      <trkpt lat="51.156132873147726" lon="5.065603349357843">
        <ele>28.02</ele>
        <time>2022-08-20T13:17:36Z</time>
      </trkpt>
      <trkpt lat="51.156081072986126" lon="5.065711811184883">
        <ele>28.5</ele>
        <time>2022-08-20T13:17:41Z</time>
      </trkpt>
      <trkpt lat="51.156075373291969" lon="5.065733101218939">
        <ele>28.5</ele>
        <time>2022-08-20T13:17:42Z</time>
      </trkpt>
      <trkpt lat="51.156066488474607" lon="5.065753133967519">
        <ele>28.5</ele>
        <time>2022-08-20T13:17:43Z</time>
      </trkpt>
      <trkpt lat="51.156056933104992" lon="5.065771657973528">
        <ele>28.5</ele>
        <time>2022-08-20T13:17:44Z</time>
      </trkpt>
      <trkpt lat="51.156046623364091" lon="5.065790098160505">
        <ele>28.5</ele>
        <time>2022-08-20T13:17:45Z</time>
      </trkpt>
      <trkpt lat="51.155959032475948" lon="5.066108359023929">
        <ele>28.5</ele>
        <time>2022-08-20T13:18:00Z</time>
      </trkpt>
      <trkpt lat="51.155872028321028" lon="5.066408514976502">
        <ele>28.98</ele>
        <time>2022-08-20T13:18:15Z</time>
      </trkpt>
      <trkpt lat="51.155783515423536" lon="5.066701378673315">
        <ele>28.02</ele>
        <time>2022-08-20T13:18:30Z</time>
      </trkpt>
      <trkpt lat="51.155825760215521" lon="5.06703682243824">
        <ele>28.02</ele>
        <time>2022-08-20T13:18:46Z</time>
      </trkpt>
      <trkpt lat="51.155839757993817" lon="5.067107146605849">
        <ele>28.02</ele>
        <time>2022-08-20T13:18:49Z</time>
      </trkpt>
      <trkpt lat="51.155933048576117" lon="5.067307725548744">
        <ele>28.98</ele>
        <time>2022-08-20T13:19:02Z</time>
      </trkpt>
      <trkpt lat="51.156130526214838" lon="5.0674844160676">
        <ele>28.98</ele>
        <time>2022-08-20T13:19:19Z</time>
      </trkpt>
      <trkpt lat="51.156178219243884" lon="5.067614503204823">
        <ele>29.940000000000001</ele>
        <time>2022-08-20T13:19:26Z</time>
      </trkpt>
      <trkpt lat="51.156198754906654" lon="5.06777560338378">
        <ele>30.420000000000002</ele>
        <time>2022-08-20T13:19:34Z</time>
      </trkpt>
      <trkpt lat="51.156223816797137" lon="5.068069892004132">
        <ele>29.460000000000001</ele>
        <time>2022-08-20T13:19:47Z</time>
      </trkpt>
      <trkpt lat="51.15620051510632" lon="5.068101491779089">
        <ele>29.460000000000001</ele>
        <time>2022-08-20T13:19:50Z</time>
      </trkpt>
      <trkpt lat="51.156064979732037" lon="5.068103922531009">
        <ele>28.5</ele>
        <time>2022-08-20T13:21:44Z</time>
      </trkpt>
      <trkpt lat="51.156044276431203" lon="5.068098390474916">
        <ele>28.02</ele>
        <time>2022-08-20T13:21:45Z</time>
      </trkpt>
      <trkpt lat="51.155740516260266" lon="5.068179694935679">
        <ele>28.02</ele>
        <time>2022-08-20T13:22:02Z</time>
      </trkpt>
      <trkpt lat="51.15552082657814" lon="5.068154716864228">
        <ele>27.530000000000001</ele>
        <time>2022-08-20T13:22:17Z</time>
      </trkpt>
      <trkpt lat="51.155426613986492" lon="5.068264352157712">
        <ele>27.530000000000001</ele>
        <time>2022-08-20T13:22:25Z</time>
      </trkpt>
      <trkpt lat="51.155421417206526" lon="5.068443473428488">
        <ele>27.530000000000001</ele>
        <time>2022-08-20T13:22:32Z</time>
      </trkpt>
      <trkpt lat="51.155415214598179" lon="5.068471971899271">
        <ele>27.530000000000001</ele>
        <time>2022-08-20T13:22:33Z</time>
      </trkpt>
      <trkpt lat="51.155417980626225" lon="5.06912131793797">
        <ele>28.5</ele>
        <time>2022-08-20T13:22:44Z</time>
      </trkpt>
      <trkpt lat="51.155402725562453" lon="5.06998423486948">
        <ele>29.460000000000001</ele>
        <time>2022-08-20T13:22:57Z</time>
      </trkpt>
      <trkpt lat="51.155440527945757" lon="5.07017232477665">
        <ele>28.5</ele>
        <time>2022-08-20T13:23:08Z</time>
      </trkpt>
      <trkpt lat="51.155464919283986" lon="5.070184897631407">
        <ele>28.5</ele>
        <time>2022-08-20T13:23:14Z</time>
      </trkpt>
      <trkpt lat="51.155672539025545" lon="5.07019872777164">
        <ele>28.5</ele>
        <time>2022-08-20T13:23:30Z</time>
      </trkpt>
      <trkpt lat="51.155713442713022" lon="5.070184394717217">
        <ele>28.5</ele>
        <time>2022-08-20T13:23:33Z</time>
      </trkpt>
      <trkpt lat="51.155781084671617" lon="5.070178527384996">
        <ele>28.5</ele>
        <time>2022-08-20T13:23:38Z</time>
      </trkpt>
      <trkpt lat="51.155799441039562" lon="5.070177773013711">
        <ele>28.5</ele>
        <time>2022-08-20T13:23:39Z</time>
      </trkpt>
      <trkpt lat="51.155818970873952" lon="5.070174504071474">
        <ele>28.5</ele>
        <time>2022-08-20T13:23:40Z</time>
      </trkpt>
      <trkpt lat="51.156018376350403" lon="5.070136953145266">
        <ele>28.5</ele>
        <time>2022-08-20T13:23:51Z</time>
      </trkpt>
      <trkpt lat="51.156032290309668" lon="5.070122117176652">
        <ele>28.5</ele>
        <time>2022-08-20T13:23:52Z</time>
      </trkpt>
      <trkpt lat="51.156297158449888" lon="5.069936625659466">
        <ele>28.5</ele>
        <time>2022-08-20T13:24:09Z</time>
      </trkpt>
      <trkpt lat="51.156585076823831" lon="5.069922292605043">
        <ele>28.5</ele>
        <time>2022-08-20T13:24:27Z</time>
      </trkpt>
      <trkpt lat="51.156664872542024" lon="5.069921454414725">
        <ele>28.5</ele>
        <time>2022-08-20T13:24:32Z</time>
      </trkpt>
      <trkpt lat="51.156793115660548" lon="5.069893458858132">
        <ele>28.02</ele>
        <time>2022-08-20T13:24:40Z</time>
      </trkpt>
      <trkpt lat="51.157066449522972" lon="5.069888262078166">
        <ele>28.5</ele>
        <time>2022-08-20T13:24:58Z</time>
      </trkpt>
      <trkpt lat="51.157301897183061" lon="5.070112142711878">
        <ele>29.460000000000001</ele>
        <time>2022-08-20T13:25:14Z</time>
      </trkpt>
      <trkpt lat="51.157438270747662" lon="5.070358905941248">
        <ele>32.340000000000003</ele>
        <time>2022-08-20T13:25:27Z</time>
      </trkpt>
      <trkpt lat="51.157635916024446" lon="5.070582116022706">
        <ele>35.710000000000001</ele>
        <time>2022-08-20T13:25:45Z</time>
      </trkpt>
      <trkpt lat="51.157777737826109" lon="5.070627043023706">
        <ele>36.189999999999998</ele>
        <time>2022-08-20T13:25:56Z</time>
      </trkpt>
      <trkpt lat="51.157801207154989" lon="5.070592761039734">
        <ele>36.189999999999998</ele>
        <time>2022-08-20T13:26:08Z</time>
      </trkpt>
      <trkpt lat="51.157889384776354" lon="5.070614721626043">
        <ele>35.229999999999997</ele>
        <time>2022-08-20T13:26:26Z</time>
      </trkpt>
      <trkpt lat="51.158036151900887" lon="5.070713879540563">
        <ele>32.340000000000003</ele>
        <time>2022-08-20T13:26:42Z</time>
      </trkpt>
      <trkpt lat="51.158075295388699" lon="5.070855198428035">
        <ele>30.899999999999999</ele>
        <time>2022-08-20T13:26:50Z</time>
      </trkpt>
      <trkpt lat="51.158106811344624" lon="5.071060219779611">
        <ele>30.420000000000002</ele>
        <time>2022-08-20T13:27:01Z</time>
      </trkpt>
      <trkpt lat="51.158073786646128" lon="5.071473028510809">
        <ele>30.899999999999999</ele>
        <time>2022-08-20T13:27:18Z</time>
      </trkpt>
      <trkpt lat="51.158064482733607" lon="5.071678971871734">
        <ele>31.379999999999999</ele>
        <time>2022-08-20T13:27:31Z</time>
      </trkpt>
      <trkpt lat="51.158085856586695" lon="5.071837473660708">
        <ele>31.859999999999999</ele>
        <time>2022-08-20T13:27:40Z</time>
      </trkpt>
      <trkpt lat="51.158051323145628" lon="5.072168642655015">
        <ele>33.780000000000001</ele>
        <time>2022-08-20T13:27:55Z</time>
      </trkpt>
      <trkpt lat="51.158020980656147" lon="5.072365198284388">
        <ele>33.780000000000001</ele>
        <time>2022-08-20T13:28:05Z</time>
      </trkpt>
      <trkpt lat="51.158013856038451" lon="5.072464942932129">
        <ele>34.259999999999998</ele>
        <time>2022-08-20T13:28:10Z</time>
      </trkpt>
      <trkpt lat="51.158018885180354" lon="5.072625456377864">
        <ele>34.740000000000002</ele>
        <time>2022-08-20T13:28:18Z</time>
      </trkpt>
      <trkpt lat="51.157969683408737" lon="5.072957212105393">
        <ele>33.780000000000001</ele>
        <time>2022-08-20T13:28:33Z</time>
      </trkpt>
      <trkpt lat="51.157973622903228" lon="5.073003564029932">
        <ele>33.780000000000001</ele>
        <time>2022-08-20T13:28:35Z</time>
      </trkpt>
      <trkpt lat="51.158021651208401" lon="5.073330542072654">
        <ele>32.340000000000003</ele>
        <time>2022-08-20T13:28:50Z</time>
      </trkpt>
      <trkpt lat="51.157864239066839" lon="5.073540173470974">
        <ele>32.82</ele>
        <time>2022-08-20T13:29:04Z</time>
      </trkpt>
      <trkpt lat="51.15783448331058" lon="5.07355316542089">
        <ele>33.780000000000001</ele>
        <time>2022-08-20T13:29:06Z</time>
      </trkpt>
      <trkpt lat="51.157744042575359" lon="5.073780314996839">
        <ele>34.259999999999998</ele>
        <time>2022-08-20T13:29:20Z</time>
      </trkpt>
      <trkpt lat="51.157705653458834" lon="5.074111316353083">
        <ele>33.780000000000001</ele>
        <time>2022-08-20T13:29:35Z</time>
      </trkpt>
      <trkpt lat="51.157707329839468" lon="5.074338549748063">
        <ele>32.340000000000003</ele>
        <time>2022-08-20T13:29:49Z</time>
      </trkpt>
      <trkpt lat="51.157755525782704" lon="5.074561424553394">
        <ele>31.379999999999999</ele>
        <time>2022-08-20T13:30:06Z</time>
      </trkpt>
      <trkpt lat="51.157783772796392" lon="5.074765356257558">
        <ele>31.379999999999999</ele>
        <time>2022-08-20T13:30:23Z</time>
      </trkpt>
      <trkpt lat="51.157803134992719" lon="5.075048329308629">
        <ele>30.420000000000002</ele>
        <time>2022-08-20T13:30:39Z</time>
      </trkpt>
      <trkpt lat="51.157817300409079" lon="5.075289225205779">
        <ele>29.940000000000001</ele>
        <time>2022-08-20T13:30:52Z</time>
      </trkpt>
      <trkpt lat="51.157798860222101" lon="5.075505645945668">
        <ele>29.460000000000001</ele>
        <time>2022-08-20T13:31:05Z</time>
      </trkpt>
      <trkpt lat="51.157721495255828" lon="5.075763473287225">
        <ele>28.98</ele>
        <time>2022-08-20T13:31:21Z</time>
      </trkpt>
      <trkpt lat="51.157701713964343" lon="5.075773866847158">
        <ele>29.460000000000001</ele>
        <time>2022-08-20T13:31:23Z</time>
      </trkpt>
      <trkpt lat="51.157466350123286" lon="5.075829774141312">
        <ele>29.460000000000001</ele>
        <time>2022-08-20T13:31:39Z</time>
      </trkpt>
      <trkpt lat="51.157276248559356" lon="5.075874701142311">
        <ele>29.940000000000001</ele>
        <time>2022-08-20T13:31:53Z</time>
      </trkpt>
      <trkpt lat="51.157085811719298" lon="5.075909737497568">
        <ele>30.420000000000002</ele>
        <time>2022-08-20T13:32:07Z</time>
      </trkpt>
      <trkpt lat="51.156873498111963" lon="5.07596111856401">
        <ele>29.940000000000001</ele>
        <time>2022-08-20T13:32:21Z</time>
      </trkpt>
      <trkpt lat="51.156732179224491" lon="5.075975116342306">
        <ele>29.460000000000001</ele>
        <time>2022-08-20T13:32:32Z</time>
      </trkpt>
      <trkpt lat="51.156540736556053" lon="5.07599925622344">
        <ele>29.460000000000001</ele>
        <time>2022-08-20T13:32:45Z</time>
      </trkpt>
      <trkpt lat="51.156309982761741" lon="5.076026162132621">
        <ele>29.460000000000001</ele>
        <time>2022-08-20T13:33:01Z</time>
      </trkpt>
      <trkpt lat="51.156190037727356" lon="5.076025575399399">
        <ele>29.460000000000001</ele>
        <time>2022-08-20T13:33:13Z</time>
      </trkpt>
      <trkpt lat="51.156168496236205" lon="5.076080979779363">
        <ele>28.98</ele>
        <time>2022-08-20T13:33:16Z</time>
      </trkpt>
      <trkpt lat="51.156165478751063" lon="5.076135378330946">
        <ele>29.460000000000001</ele>
        <time>2022-08-20T13:33:17Z</time>
      </trkpt>
      <trkpt lat="51.156169082969427" lon="5.076193884015083">
        <ele>29.460000000000001</ele>
        <time>2022-08-20T13:33:18Z</time>
      </trkpt>
      <trkpt lat="51.156210573390126" lon="5.076574170961976">
        <ele>29.460000000000001</ele>
        <time>2022-08-20T13:33:30Z</time>
      </trkpt>
      <trkpt lat="51.156232031062245" lon="5.076931575313211">
        <ele>29.460000000000001</ele>
        <time>2022-08-20T13:33:45Z</time>
      </trkpt>
      <trkpt lat="51.156251225620508" lon="5.077334074303508">
        <ele>29.940000000000001</ele>
        <time>2022-08-20T13:34:03Z</time>
      </trkpt>
      <trkpt lat="51.15627184510231" lon="5.077587626874447">
        <ele>29.940000000000001</ele>
        <time>2022-08-20T13:34:16Z</time>
      </trkpt>
      <trkpt lat="51.156280310824513" lon="5.0776107609272">
        <ele>28.98</ele>
        <time>2022-08-20T13:34:17Z</time>
      </trkpt>
      <trkpt lat="51.156286094337702" lon="5.077642528340221">
        <ele>29.460000000000001</ele>
        <time>2022-08-20T13:34:18Z</time>
      </trkpt>
      <trkpt lat="51.15629087202251" lon="5.077671948820353">
        <ele>29.460000000000001</ele>
        <time>2022-08-20T13:34:19Z</time>
      </trkpt>
      <trkpt lat="51.156336553394794" lon="5.078003369271755">
        <ele>29.460000000000001</ele>
        <time>2022-08-20T13:34:35Z</time>
      </trkpt>
      <trkpt lat="51.156326411291957" lon="5.078119793906808">
        <ele>29.460000000000001</ele>
        <time>2022-08-20T13:34:40Z</time>
      </trkpt>
      <trkpt lat="51.156134717166424" lon="5.078274523839355">
        <ele>28.98</ele>
        <time>2022-08-20T13:34:55Z</time>
      </trkpt>
      <trkpt lat="51.156088951975107" lon="5.078645423054695">
        <ele>28.98</ele>
        <time>2022-08-20T13:35:09Z</time>
      </trkpt>
      <trkpt lat="51.156119210645556" lon="5.079456875100732">
        <ele>27.050000000000001</ele>
        <time>2022-08-20T13:35:20Z</time>
      </trkpt>
      <trkpt lat="51.156117031350732" lon="5.079879742115736">
        <ele>27.050000000000001</ele>
        <time>2022-08-20T13:35:30Z</time>
      </trkpt>
      <trkpt lat="51.15612817928195" lon="5.080307889729738">
        <ele>27.530000000000001</ele>
        <time>2022-08-20T13:35:46Z</time>
      </trkpt>
      <trkpt lat="51.156178303062916" lon="5.081046000123024">
        <ele>28.02</ele>
        <time>2022-08-20T13:35:56Z</time>
      </trkpt>
      <trkpt lat="51.156158857047558" lon="5.081309946253896">
        <ele>28.5</ele>
        <time>2022-08-20T13:36:00Z</time>
      </trkpt>
      <trkpt lat="51.156117115169764" lon="5.081454617902637">
        <ele>28.02</ele>
        <time>2022-08-20T13:36:06Z</time>
      </trkpt>
      <trkpt lat="51.156118372455239" lon="5.081486972048879">
        <ele>28.5</ele>
        <time>2022-08-20T13:36:07Z</time>
      </trkpt>
      <trkpt lat="51.156124994158745" lon="5.081997765228152">
        <ele>28.5</ele>
        <time>2022-08-20T13:36:23Z</time>
      </trkpt>
      <trkpt lat="51.156075540930033" lon="5.082509061321616">
        <ele>28.02</ele>
        <time>2022-08-20T13:36:42Z</time>
      </trkpt>
      <trkpt lat="51.15605098195374" lon="5.083123119547963">
        <ele>27.530000000000001</ele>
        <time>2022-08-20T13:36:56Z</time>
      </trkpt>
      <trkpt lat="51.155985770747066" lon="5.084367245435715">
        <ele>28.02</ele>
        <time>2022-08-20T13:37:11Z</time>
      </trkpt>
      <trkpt lat="51.155931036919355" lon="5.085460999980569">
        <ele>28.5</ele>
        <time>2022-08-20T13:37:24Z</time>
      </trkpt>
      <trkpt lat="51.155920056626201" lon="5.085539538413286">
        <ele>28.02</ele>
        <time>2022-08-20T13:37:25Z</time>
      </trkpt>
      <trkpt lat="51.155895916745067" lon="5.085694184526801">
        <ele>28.5</ele>
        <time>2022-08-20T13:37:27Z</time>
      </trkpt>
      <trkpt lat="51.155830286443233" lon="5.086643937975168">
        <ele>28.5</ele>
        <time>2022-08-20T13:37:40Z</time>
      </trkpt>
      <trkpt lat="51.155820563435555" lon="5.08696261793375">
        <ele>28.5</ele>
        <time>2022-08-20T13:37:44Z</time>
      </trkpt>
      <trkpt lat="51.155694080516696" lon="5.087967775762081">
        <ele>28.5</ele>
        <time>2022-08-20T13:37:57Z</time>
      </trkpt>
      <trkpt lat="51.155562233179808" lon="5.08929337374866">
        <ele>28.98</ele>
        <time>2022-08-20T13:38:13Z</time>
      </trkpt>
      <trkpt lat="51.155324354767799" lon="5.090111363679171">
        <ele>29.940000000000001</ele>
        <time>2022-08-20T13:38:25Z</time>
      </trkpt>
      <trkpt lat="51.155122434720397" lon="5.0906986836344">
        <ele>29.460000000000001</ele>
        <time>2022-08-20T13:38:34Z</time>
      </trkpt>
      <trkpt lat="51.155098294839263" lon="5.090763391926885">
        <ele>29.460000000000001</ele>
        <time>2022-08-20T13:38:35Z</time>
      </trkpt>
      <trkpt lat="51.154869385063648" lon="5.091398237273097">
        <ele>29.460000000000001</ele>
        <time>2022-08-20T13:38:44Z</time>
      </trkpt>
      <trkpt lat="51.154848681762815" lon="5.091475686058402">
        <ele>29.460000000000001</ele>
        <time>2022-08-20T13:38:45Z</time>
      </trkpt>
      <trkpt lat="51.154712392017245" lon="5.091921938583255">
        <ele>29.940000000000001</ele>
        <time>2022-08-20T13:38:51Z</time>
      </trkpt>
      <trkpt lat="51.154691521078348" lon="5.091994693502784">
        <ele>29.460000000000001</ele>
        <time>2022-08-20T13:38:52Z</time>
      </trkpt>
      <trkpt lat="51.15460803732276" lon="5.092275403439999">
        <ele>29.460000000000001</ele>
        <time>2022-08-20T13:38:56Z</time>
      </trkpt>
      <trkpt lat="51.154592111706734" lon="5.092347823083401">
        <ele>29.460000000000001</ele>
        <time>2022-08-20T13:38:57Z</time>
      </trkpt>
      <trkpt lat="51.154462024569511" lon="5.092916199937463">
        <ele>29.940000000000001</ele>
        <time>2022-08-20T13:39:09Z</time>
      </trkpt>
      <trkpt lat="51.154419276863337" lon="5.093020219355822">
        <ele>29.940000000000001</ele>
        <time>2022-08-20T13:39:13Z</time>
      </trkpt>
      <trkpt lat="51.154392957687378" lon="5.093069672584534">
        <ele>29.940000000000001</ele>
        <time>2022-08-20T13:39:15Z</time>
      </trkpt>
      <trkpt lat="51.15438574925065" lon="5.093097668141127">
        <ele>29.940000000000001</ele>
        <time>2022-08-20T13:39:16Z</time>
      </trkpt>
      <trkpt lat="51.15432221442461" lon="5.093268072232604">
        <ele>29.940000000000001</ele>
        <time>2022-08-20T13:39:31Z</time>
      </trkpt>
      <trkpt lat="51.154302433133125" lon="5.093490947037935">
        <ele>29.940000000000001</ele>
        <time>2022-08-20T13:39:44Z</time>
      </trkpt>
      <trkpt lat="51.154231019318104" lon="5.093834772706032">
        <ele>29.460000000000001</ele>
        <time>2022-08-20T13:40:03Z</time>
      </trkpt>
      <trkpt lat="51.154151139780879" lon="5.094165522605181">
        <ele>28.98</ele>
        <time>2022-08-20T13:40:21Z</time>
      </trkpt>
      <trkpt lat="51.15413554944098" lon="5.094232242554426">
        <ele>29.460000000000001</ele>
        <time>2022-08-20T13:40:34Z</time>
      </trkpt>
      <trkpt lat="51.154122976586223" lon="5.094257723540068">
        <ele>29.460000000000001</ele>
        <time>2022-08-20T13:40:42Z</time>
      </trkpt>
      <trkpt lat="51.154052736237645" lon="5.094471629709005">
        <ele>28.98</ele>
        <time>2022-08-20T13:40:55Z</time>
      </trkpt>
      <trkpt lat="51.153941592201591" lon="5.094769774004817">
        <ele>28.98</ele>
        <time>2022-08-20T13:41:13Z</time>
      </trkpt>
      <trkpt lat="51.153836650773883" lon="5.095040174201131">
        <ele>29.460000000000001</ele>
        <time>2022-08-20T13:41:31Z</time>
      </trkpt>
      <trkpt lat="51.153737744316459" lon="5.095297750085592">
        <ele>29.460000000000001</ele>
        <time>2022-08-20T13:41:48Z</time>
      </trkpt>
      <trkpt lat="51.153627187013626" lon="5.095653897151351">
        <ele>28.98</ele>
        <time>2022-08-20T13:42:08Z</time>
      </trkpt>
      <trkpt lat="51.153572117909789" lon="5.095943575724959">
        <ele>28.98</ele>
        <time>2022-08-20T13:42:23Z</time>
      </trkpt>
      <trkpt lat="51.153540601953864" lon="5.096143400296569">
        <ele>29.940000000000001</ele>
        <time>2022-08-20T13:42:34Z</time>
      </trkpt>
      <trkpt lat="51.153500368818641" lon="5.096435928717256">
        <ele>29.460000000000001</ele>
        <time>2022-08-20T13:42:49Z</time>
      </trkpt>
      <trkpt lat="51.153457202017307" lon="5.096701048314571">
        <ele>29.940000000000001</ele>
        <time>2022-08-20T13:43:03Z</time>
      </trkpt>
      <trkpt lat="51.153457202017307" lon="5.096718147397041">
        <ele>29.460000000000001</ele>
        <time>2022-08-20T13:43:04Z</time>
      </trkpt>
      <trkpt lat="51.153454352170229" lon="5.096739353612065">
        <ele>29.460000000000001</ele>
        <time>2022-08-20T13:43:05Z</time>
      </trkpt>
      <trkpt lat="51.15338210016489" lon="5.097078485414386">
        <ele>29.940000000000001</ele>
        <time>2022-08-20T13:43:21Z</time>
      </trkpt>
      <trkpt lat="51.153318397700787" lon="5.097387190908194">
        <ele>29.460000000000001</ele>
        <time>2022-08-20T13:43:36Z</time>
      </trkpt>
      <trkpt lat="51.15324379876256" lon="5.097792036831379">
        <ele>28.98</ele>
        <time>2022-08-20T13:43:54Z</time>
      </trkpt>
      <trkpt lat="51.153167355805635" lon="5.098207946866751">
        <ele>29.460000000000001</ele>
        <time>2022-08-20T13:44:13Z</time>
      </trkpt>
      <trkpt lat="51.153095103800297" lon="5.098629975691438">
        <ele>29.940000000000001</ele>
        <time>2022-08-20T13:44:30Z</time>
      </trkpt>
      <trkpt lat="51.153086218982935" lon="5.098987631499767">
        <ele>28.98</ele>
        <time>2022-08-20T13:44:48Z</time>
      </trkpt>
      <trkpt lat="51.153097786009312" lon="5.099117970094085">
        <ele>29.460000000000001</ele>
        <time>2022-08-20T13:44:54Z</time>
      </trkpt>
      <trkpt lat="51.153101054951549" lon="5.099272700026631">
        <ele>29.460000000000001</ele>
        <time>2022-08-20T13:45:00Z</time>
      </trkpt>
      <trkpt lat="51.153119159862399" lon="5.099419048056006">
        <ele>28.98</ele>
        <time>2022-08-20T13:45:07Z</time>
      </trkpt>
      <trkpt lat="51.153124021366239" lon="5.099437236785889">
        <ele>29.460000000000001</ele>
        <time>2022-08-20T13:45:08Z</time>
      </trkpt>
      <trkpt lat="51.153175318613648" lon="5.099802184849978">
        <ele>28.98</ele>
        <time>2022-08-20T13:45:25Z</time>
      </trkpt>
      <trkpt lat="51.153214378282428" lon="5.100158164277673">
        <ele>28.98</ele>
        <time>2022-08-20T13:45:42Z</time>
      </trkpt>
      <trkpt lat="51.153225526213646" lon="5.100357569754124">
        <ele>28.98</ele>
        <time>2022-08-20T13:45:52Z</time>
      </trkpt>
      <trkpt lat="51.153222173452377" lon="5.10038229636848">
        <ele>28.98</ele>
        <time>2022-08-20T13:45:53Z</time>
      </trkpt>
      <trkpt lat="51.153222844004631" lon="5.10040869936347">
        <ele>28.98</ele>
        <time>2022-08-20T13:45:54Z</time>
      </trkpt>
      <trkpt lat="51.153283780440688" lon="5.100937513634563">
        <ele>28.98</ele>
        <time>2022-08-20T13:46:15Z</time>
      </trkpt>
      <trkpt lat="51.153328204527497" lon="5.10138887912035">
        <ele>28.98</ele>
        <time>2022-08-20T13:46:33Z</time>
      </trkpt>
      <trkpt lat="51.153393751010299" lon="5.101743433624506">
        <ele>29.460000000000001</ele>
        <time>2022-08-20T13:46:52Z</time>
      </trkpt>
      <trkpt lat="51.153445383533835" lon="5.101998997852206">
        <ele>28.98</ele>
        <time>2022-08-20T13:47:05Z</time>
      </trkpt>
      <trkpt lat="51.153533142060041" lon="5.102363443002105">
        <ele>28.5</ele>
        <time>2022-08-20T13:47:20Z</time>
      </trkpt>
      <trkpt lat="51.153558371588588" lon="5.102688577026129">
        <ele>28.5</ele>
        <time>2022-08-20T13:47:34Z</time>
      </trkpt>
      <trkpt lat="51.153617380186915" lon="5.103044388815761">
        <ele>28.5</ele>
        <time>2022-08-20T13:47:49Z</time>
      </trkpt>
      <trkpt lat="51.153627606108785" lon="5.10327304713428">
        <ele>28.5</ele>
        <time>2022-08-20T13:47:59Z</time>
      </trkpt>
      <trkpt lat="51.15362836048007" lon="5.103292996063829">
        <ele>28.5</ele>
        <time>2022-08-20T13:48:00Z</time>
      </trkpt>
      <trkpt lat="51.153625510632992" lon="5.103358374908567">
        <ele>28.5</ele>
        <time>2022-08-20T13:48:04Z</time>
      </trkpt>
      <trkpt lat="51.153622576966882" lon="5.10337270796299">
        <ele>28.5</ele>
        <time>2022-08-20T13:48:05Z</time>
      </trkpt>
      <trkpt lat="51.153617547824979" lon="5.103396344929934">
        <ele>28.5</ele>
        <time>2022-08-20T13:48:06Z</time>
      </trkpt>
      <trkpt lat="51.153607573360205" lon="5.10341964662075">
        <ele>28.5</ele>
        <time>2022-08-20T13:48:07Z</time>
      </trkpt>
      <trkpt lat="51.15359315648675" lon="5.103444708511233">
        <ele>28.5</ele>
        <time>2022-08-20T13:48:08Z</time>
      </trkpt>
      <trkpt lat="51.153495842590928" lon="5.10385500267148">
        <ele>28.02</ele>
        <time>2022-08-20T13:48:23Z</time>
      </trkpt>
      <trkpt lat="51.153475558385253" lon="5.104195810854435">
        <ele>28.5</ele>
        <time>2022-08-20T13:48:38Z</time>
      </trkpt>
      <trkpt lat="51.153475977480412" lon="5.104290023446083">
        <ele>28.98</ele>
        <time>2022-08-20T13:48:42Z</time>
      </trkpt>
      <trkpt lat="51.153473630547523" lon="5.104316342622042">
        <ele>28.5</ele>
        <time>2022-08-20T13:48:43Z</time>
      </trkpt>
      <trkpt lat="51.153516881167889" lon="5.104716243222356">
        <ele>28.98</ele>
        <time>2022-08-20T13:48:58Z</time>
      </trkpt>
      <trkpt lat="51.153529789298773" lon="5.104753375053406">
        <ele>28.98</ele>
        <time>2022-08-20T13:49:00Z</time>
      </trkpt>
      <trkpt lat="51.153631964698434" lon="5.105049926787615">
        <ele>28.5</ele>
        <time>2022-08-20T13:49:14Z</time>
      </trkpt>
      <trkpt lat="51.153679070994258" lon="5.105343461036682">
        <ele>28.5</ele>
        <time>2022-08-20T13:49:29Z</time>
      </trkpt>
      <trkpt lat="51.153503637760878" lon="5.105276154354215">
        <ele>28.5</ele>
        <time>2022-08-20T13:49:44Z</time>
      </trkpt>
      <trkpt lat="51.153257796540856" lon="5.10519677773118">
        <ele>28.98</ele>
        <time>2022-08-20T13:49:59Z</time>
      </trkpt>
      <trkpt lat="51.152995694428682" lon="5.105085885152221">
        <ele>29.460000000000001</ele>
        <time>2022-08-20T13:50:15Z</time>
      </trkpt>
      <trkpt lat="51.152743482962251" lon="5.104959066957235">
        <ele>29.460000000000001</ele>
        <time>2022-08-20T13:50:30Z</time>
      </trkpt>
      <trkpt lat="51.152491271495819" lon="5.104834595695138">
        <ele>29.460000000000001</ele>
        <time>2022-08-20T13:50:47Z</time>
      </trkpt>
      <trkpt lat="51.152328075841069" lon="5.104755302891135">
        <ele>29.460000000000001</ele>
        <time>2022-08-20T13:50:57Z</time>
      </trkpt>
      <trkpt lat="51.152310976758599" lon="5.104752536863089">
        <ele>28.98</ele>
        <time>2022-08-20T13:50:58Z</time>
      </trkpt>
      <trkpt lat="51.152290692552924" lon="5.104751447215676">
        <ele>29.460000000000001</ele>
        <time>2022-08-20T13:50:59Z</time>
      </trkpt>
      <trkpt lat="51.152269570156932" lon="5.10475211776793">
        <ele>29.940000000000001</ele>
        <time>2022-08-20T13:51:00Z</time>
      </trkpt>
      <trkpt lat="51.15224651992321" lon="5.104753794148564">
        <ele>29.460000000000001</ele>
        <time>2022-08-20T13:51:01Z</time>
      </trkpt>
      <trkpt lat="51.152224475517869" lon="5.104753877967596">
        <ele>29.460000000000001</ele>
        <time>2022-08-20T13:51:02Z</time>
      </trkpt>
      <trkpt lat="51.152203436940908" lon="5.104754464700818">
        <ele>29.460000000000001</ele>
        <time>2022-08-20T13:51:03Z</time>
      </trkpt>
      <trkpt lat="51.15218399092555" lon="5.104747088626027">
        <ele>29.460000000000001</ele>
        <time>2022-08-20T13:51:04Z</time>
      </trkpt>
      <trkpt lat="51.152167059481144" lon="5.104738874360919">
        <ele>29.940000000000001</ele>
        <time>2022-08-20T13:51:05Z</time>
      </trkpt>
      <trkpt lat="51.151945190504193" lon="5.104651618748903">
        <ele>29.460000000000001</ele>
        <time>2022-08-20T13:51:20Z</time>
      </trkpt>
      <trkpt lat="51.151720555499196" lon="5.104532763361931">
        <ele>29.460000000000001</ele>
        <time>2022-08-20T13:51:35Z</time>
      </trkpt>
      <trkpt lat="51.151456357911229" lon="5.104424804449081">
        <ele>29.940000000000001</ele>
        <time>2022-08-20T13:51:53Z</time>
      </trkpt>
      <trkpt lat="51.151220742613077" lon="5.104341907426715">
        <ele>29.940000000000001</ele>
        <time>2022-08-20T13:52:08Z</time>
      </trkpt>
      <trkpt lat="51.151065090671182" lon="5.104302680119872">
        <ele>29.940000000000001</ele>
        <time>2022-08-20T13:52:18Z</time>
      </trkpt>
      <trkpt lat="51.151051260530949" lon="5.104296561330557">
        <ele>29.940000000000001</ele>
        <time>2022-08-20T13:52:19Z</time>
      </trkpt>
      <trkpt lat="51.151038017123938" lon="5.104288179427385">
        <ele>29.940000000000001</ele>
        <time>2022-08-20T13:52:20Z</time>
      </trkpt>
      <trkpt lat="51.150787565857172" lon="5.104137388989329">
        <ele>29.940000000000001</ele>
        <time>2022-08-20T13:52:36Z</time>
      </trkpt>
      <trkpt lat="51.150588328018785" lon="5.104055078700185">
        <ele>30.420000000000002</ele>
        <time>2022-08-20T13:52:51Z</time>
      </trkpt>
      <trkpt lat="51.150367464870214" lon="5.103981485590339">
        <ele>30.899999999999999</ele>
        <time>2022-08-20T13:53:06Z</time>
      </trkpt>
      <trkpt lat="51.150161856785417" lon="5.103915268555284">
        <ele>31.379999999999999</ele>
        <time>2022-08-20T13:53:21Z</time>
      </trkpt>
      <trkpt lat="51.149900509044528" lon="5.103842262178659">
        <ele>31.379999999999999</ele>
        <time>2022-08-20T13:53:37Z</time>
      </trkpt>
      <trkpt lat="51.149852145463228" lon="5.103834215551615">
        <ele>30.899999999999999</ele>
        <time>2022-08-20T13:53:40Z</time>
      </trkpt>
      <trkpt lat="51.14983169361949" lon="5.103827677667141">
        <ele>30.899999999999999</ele>
        <time>2022-08-20T13:53:41Z</time>
      </trkpt>
      <trkpt lat="51.149814007803798" lon="5.103825498372316">
        <ele>31.379999999999999</ele>
        <time>2022-08-20T13:53:42Z</time>
      </trkpt>
      <trkpt lat="51.149795316159725" lon="5.103823486715555">
        <ele>31.379999999999999</ele>
        <time>2022-08-20T13:53:43Z</time>
      </trkpt>
      <trkpt lat="51.149777295067906" lon="5.103819966316223">
        <ele>31.379999999999999</ele>
        <time>2022-08-20T13:53:44Z</time>
      </trkpt>
      <trkpt lat="51.149761704728007" lon="5.103813847526908">
        <ele>31.379999999999999</ele>
        <time>2022-08-20T13:53:45Z</time>
      </trkpt>
      <trkpt lat="51.149532040581107" lon="5.10371477343142">
        <ele>31.379999999999999</ele>
        <time>2022-08-20T13:54:00Z</time>
      </trkpt>
      <trkpt lat="51.149361385032535" lon="5.103649310767651">
        <ele>31.379999999999999</ele>
        <time>2022-08-20T13:54:12Z</time>
      </trkpt>
      <trkpt lat="51.149143455550075" lon="5.103565910831094">
        <ele>30.899999999999999</ele>
        <time>2022-08-20T13:54:28Z</time>
      </trkpt>
      <trkpt lat="51.148950587958097" lon="5.103459795936942">
        <ele>30.899999999999999</ele>
        <time>2022-08-20T13:54:43Z</time>
      </trkpt>
      <trkpt lat="51.148748667910695" lon="5.103392153978348">
        <ele>30.420000000000002</ele>
        <time>2022-08-20T13:54:57Z</time>
      </trkpt>
      <trkpt lat="51.148736849427223" lon="5.103382179513574">
        <ele>29.940000000000001</ele>
        <time>2022-08-20T13:54:58Z</time>
      </trkpt>
      <trkpt lat="51.14856812171638" lon="5.103298863396049">
        <ele>29.940000000000001</ele>
        <time>2022-08-20T13:55:12Z</time>
      </trkpt>
      <trkpt lat="51.148330913856626" lon="5.103238094598055">
        <ele>29.460000000000001</ele>
        <time>2022-08-20T13:55:28Z</time>
      </trkpt>
      <trkpt lat="51.148128071799874" lon="5.103146145120263">
        <ele>29.460000000000001</ele>
        <time>2022-08-20T13:55:43Z</time>
      </trkpt>
      <trkpt lat="51.14803452976048" lon="5.103113455697894">
        <ele>28.98</ele>
        <time>2022-08-20T13:55:49Z</time>
      </trkpt>
      <trkpt lat="51.147983651608229" lon="5.103069953620434">
        <ele>28.98</ele>
        <time>2022-08-20T13:55:53Z</time>
      </trkpt>
      <trkpt lat="51.14793729968369" lon="5.103064673021436">
        <ele>28.98</ele>
        <time>2022-08-20T13:55:56Z</time>
      </trkpt>
      <trkpt lat="51.147893294692039" lon="5.10308395139873">
        <ele>29.460000000000001</ele>
        <time>2022-08-20T13:56:01Z</time>
      </trkpt>
      <trkpt lat="51.147764464840293" lon="5.102999294176698">
        <ele>28.5</ele>
        <time>2022-08-20T13:56:12Z</time>
      </trkpt>
      <trkpt lat="51.147547038272023" lon="5.102901142090559">
        <ele>28.98</ele>
        <time>2022-08-20T13:56:27Z</time>
      </trkpt>
      <trkpt lat="51.147428601980209" lon="5.102879935875535">
        <ele>29.460000000000001</ele>
        <time>2022-08-20T13:56:41Z</time>
      </trkpt>
      <trkpt lat="51.14742424339056" lon="5.102879432961345">
        <ele>28.98</ele>
        <time>2022-08-20T13:56:59Z</time>
      </trkpt>
      <trkpt lat="51.147399013862014" lon="5.102865938097239">
        <ele>29.460000000000001</ele>
        <time>2022-08-20T13:57:20Z</time>
      </trkpt>
      <trkpt lat="51.147386692464352" lon="5.102821430191398">
        <ele>29.460000000000001</ele>
        <time>2022-08-20T13:57:22Z</time>
      </trkpt>
      <trkpt lat="51.147365318611264" lon="5.102761164307594">
        <ele>29.940000000000001</ele>
        <time>2022-08-20T13:57:32Z</time>
      </trkpt>
      <trkpt lat="51.147227771580219" lon="5.102533427998424">
        <ele>29.460000000000001</ele>
        <time>2022-08-20T13:57:44Z</time>
      </trkpt>
      <trkpt lat="51.147087374702096" lon="5.102284820750356">
        <ele>29.460000000000001</ele>
        <time>2022-08-20T13:57:59Z</time>
      </trkpt>
      <trkpt lat="51.146975895389915" lon="5.101985838264227">
        <ele>29.460000000000001</ele>
        <time>2022-08-20T13:58:15Z</time>
      </trkpt>
      <trkpt lat="51.146867265924811" lon="5.101796993985772">
        <ele>29.460000000000001</ele>
        <time>2022-08-20T13:58:28Z</time>
      </trkpt>
      <trkpt lat="51.146757798269391" lon="5.101578393951058">
        <ele>29.940000000000001</ele>
        <time>2022-08-20T13:58:43Z</time>
      </trkpt>
      <trkpt lat="51.146682696416974" lon="5.101424586027861">
        <ele>29.940000000000001</ele>
        <time>2022-08-20T13:58:52Z</time>
      </trkpt>
      <trkpt lat="51.146620754152536" lon="5.101270694285631">
        <ele>29.940000000000001</ele>
        <time>2022-08-20T13:59:06Z</time>
      </trkpt>
      <trkpt lat="51.146470047533512" lon="5.10103952139616">
        <ele>29.940000000000001</ele>
        <time>2022-08-20T13:59:23Z</time>
      </trkpt>
      <trkpt lat="51.146341804414988" lon="5.10079326108098">
        <ele>30.899999999999999</ele>
        <time>2022-08-20T13:59:37Z</time>
      </trkpt>
      <trkpt lat="51.146293859928846" lon="5.100719751790166">
        <ele>30.899999999999999</ele>
        <time>2022-08-20T13:59:41Z</time>
      </trkpt>
      <trkpt lat="51.146132843568921" lon="5.100415907800198">
        <ele>31.379999999999999</ele>
        <time>2022-08-20T13:59:57Z</time>
      </trkpt>
      <trkpt lat="51.146001750603318" lon="5.100156320258975">
        <ele>31.379999999999999</ele>
        <time>2022-08-20T14:00:13Z</time>
      </trkpt>
      <trkpt lat="51.145920613780618" lon="5.099964709952474">
        <ele>31.379999999999999</ele>
        <time>2022-08-20T14:00:24Z</time>
      </trkpt>
      <trkpt lat="51.145817432552576" lon="5.09973831474781">
        <ele>31.859999999999999</ele>
        <time>2022-08-20T14:00:36Z</time>
      </trkpt>
      <trkpt lat="51.145654991269112" lon="5.099470345303416">
        <ele>30.899999999999999</ele>
        <time>2022-08-20T14:00:43Z</time>
      </trkpt>
      <trkpt lat="51.145618949085474" lon="5.099416198208928">
        <ele>31.379999999999999</ele>
        <time>2022-08-20T14:00:44Z</time>
      </trkpt>
      <trkpt lat="51.145555414259434" lon="5.099313938990235">
        <ele>30.899999999999999</ele>
        <time>2022-08-20T14:00:46Z</time>
      </trkpt>
      <trkpt lat="51.145527837797999" lon="5.099261300638318">
        <ele>30.899999999999999</ele>
        <time>2022-08-20T14:00:47Z</time>
      </trkpt>
      <trkpt lat="51.145501183345914" lon="5.099205225706101">
        <ele>30.899999999999999</ele>
        <time>2022-08-20T14:00:48Z</time>
      </trkpt>
      <trkpt lat="51.145420717075467" lon="5.099033648148179">
        <ele>30.899999999999999</ele>
        <time>2022-08-20T14:00:51Z</time>
      </trkpt>
      <trkpt lat="51.145396996289492" lon="5.098978746682406">
        <ele>30.899999999999999</ele>
        <time>2022-08-20T14:00:52Z</time>
      </trkpt>
      <trkpt lat="51.145252743735909" lon="5.098584126681089">
        <ele>30.420000000000002</ele>
        <time>2022-08-20T14:01:03Z</time>
      </trkpt>
      <trkpt lat="51.145147886127234" lon="5.098318587988615">
        <ele>30.899999999999999</ele>
        <time>2022-08-20T14:01:18Z</time>
      </trkpt>
      <trkpt lat="51.145075969398022" lon="5.098163103684783">
        <ele>30.899999999999999</ele>
        <time>2022-08-20T14:01:27Z</time>
      </trkpt>
      <trkpt lat="51.145016122609377" lon="5.098006529733539">
        <ele>31.379999999999999</ele>
        <time>2022-08-20T14:01:35Z</time>
      </trkpt>
      <trkpt lat="51.145004387944937" lon="5.097985491156578">
        <ele>31.379999999999999</ele>
        <time>2022-08-20T14:01:36Z</time>
      </trkpt>
      <trkpt lat="51.144967842847109" lon="5.097891362383962">
        <ele>30.899999999999999</ele>
        <time>2022-08-20T14:01:41Z</time>
      </trkpt>
      <trkpt lat="51.144957868382335" lon="5.097877280786634">
        <ele>30.899999999999999</ele>
        <time>2022-08-20T14:01:42Z</time>
      </trkpt>
      <trkpt lat="51.144888885319233" lon="5.097701596096158">
        <ele>30.899999999999999</ele>
        <time>2022-08-20T14:01:52Z</time>
      </trkpt>
      <trkpt lat="51.14488142542541" lon="5.097685921937227">
        <ele>31.379999999999999</ele>
        <time>2022-08-20T14:01:53Z</time>
      </trkpt>
      <trkpt lat="51.144871953874826" lon="5.097670834511519">
        <ele>30.899999999999999</ele>
        <time>2022-08-20T14:01:54Z</time>
      </trkpt>
      <trkpt lat="51.144622508436441" lon="5.097150653600693">
        <ele>30.899999999999999</ele>
        <time>2022-08-20T14:02:06Z</time>
      </trkpt>
      <trkpt lat="51.14437272772193" lon="5.096545983105898">
        <ele>30.420000000000002</ele>
        <time>2022-08-20T14:02:17Z</time>
      </trkpt>
      <trkpt lat="51.144116409122944" lon="5.095992106944323">
        <ele>30.420000000000002</ele>
        <time>2022-08-20T14:02:29Z</time>
      </trkpt>
      <trkpt lat="51.143896048888564" lon="5.095469327643514">
        <ele>30.899999999999999</ele>
        <time>2022-08-20T14:02:40Z</time>
      </trkpt>
      <trkpt lat="51.143774427473545" lon="5.095220720395446">
        <ele>30.420000000000002</ele>
        <time>2022-08-20T14:02:52Z</time>
      </trkpt>
      <trkpt lat="51.143763698637486" lon="5.095171183347702">
        <ele>30.420000000000002</ele>
        <time>2022-08-20T14:02:54Z</time>
      </trkpt>
      <trkpt lat="51.14376487210393" lon="5.095148887485266">
        <ele>29.940000000000001</ele>
        <time>2022-08-20T14:02:55Z</time>
      </trkpt>
      <trkpt lat="51.14377367310226" lon="5.095132878050208">
        <ele>30.420000000000002</ele>
        <time>2022-08-20T14:02:56Z</time>
      </trkpt>
      <trkpt lat="51.143803847953677" lon="5.095112593844533">
        <ele>29.940000000000001</ele>
        <time>2022-08-20T14:02:58Z</time>
      </trkpt>
      <trkpt lat="51.143984561786056" lon="5.095007484778762">
        <ele>31.379999999999999</ele>
        <time>2022-08-20T14:03:11Z</time>
      </trkpt>
      <trkpt lat="51.143986489623785" lon="5.094977812841535">
        <ele>30.420000000000002</ele>
        <time>2022-08-20T14:03:26Z</time>
      </trkpt>
      <trkpt lat="51.143981544300914" lon="5.094989379867911">
        <ele>30.420000000000002</ele>
        <time>2022-08-20T14:03:27Z</time>
      </trkpt>
      <trkpt lat="51.143780294805765" lon="5.09515835903585">
        <ele>30.420000000000002</ele>
        <time>2022-08-20T14:03:40Z</time>
      </trkpt>
      <trkpt lat="51.143760429695249" lon="5.095167746767402">
        <ele>30.420000000000002</ele>
        <time>2022-08-20T14:03:42Z</time>
      </trkpt>
      <trkpt lat="51.143753975629807" lon="5.095158610492945">
        <ele>30.420000000000002</ele>
        <time>2022-08-20T14:03:47Z</time>
      </trkpt>
      <trkpt lat="51.143692703917623" lon="5.095011843368411">
        <ele>30.420000000000002</ele>
        <time>2022-08-20T14:03:54Z</time>
      </trkpt>
      <trkpt lat="51.143533363938332" lon="5.094646895304322">
        <ele>30.899999999999999</ele>
        <time>2022-08-20T14:04:12Z</time>
      </trkpt>
      <trkpt lat="51.143435463309288" lon="5.094385799020529">
        <ele>30.899999999999999</ele>
        <time>2022-08-20T14:04:27Z</time>
      </trkpt>
      <trkpt lat="51.143298167735338" lon="5.094062089920044">
        <ele>30.420000000000002</ele>
        <time>2022-08-20T14:04:44Z</time>
      </trkpt>
      <trkpt lat="51.143167912960052" lon="5.093740727752447">
        <ele>30.420000000000002</ele>
        <time>2022-08-20T14:05:01Z</time>
      </trkpt>
      <trkpt lat="51.143051404505968" lon="5.093426993116736">
        <ele>29.940000000000001</ele>
        <time>2022-08-20T14:05:18Z</time>
      </trkpt>
      <trkpt lat="51.142943697050214" lon="5.093112755566835">
        <ele>30.420000000000002</ele>
        <time>2022-08-20T14:05:35Z</time>
      </trkpt>
      <trkpt lat="51.142876809462905" lon="5.092852581292391">
        <ele>30.420000000000002</ele>
        <time>2022-08-20T14:05:48Z</time>
      </trkpt>
      <trkpt lat="51.142897177487612" lon="5.092791141942143">
        <ele>30.420000000000002</ele>
        <time>2022-08-20T14:05:52Z</time>
      </trkpt>
      <trkpt lat="51.143181743100286" lon="5.092526525259018">
        <ele>29.460000000000001</ele>
        <time>2022-08-20T14:06:13Z</time>
      </trkpt>
      <trkpt lat="51.143417442217469" lon="5.092255119234324">
        <ele>29.460000000000001</ele>
        <time>2022-08-20T14:06:31Z</time>
      </trkpt>
      <trkpt lat="51.143675772473216" lon="5.092084044590592">
        <ele>29.460000000000001</ele>
        <time>2022-08-20T14:06:48Z</time>
      </trkpt>
      <trkpt lat="51.14398380741477" lon="5.091870808973908">
        <ele>28.98</ele>
        <time>2022-08-20T14:07:08Z</time>
      </trkpt>
      <trkpt lat="51.144271893426776" lon="5.091608287766576">
        <ele>28.02</ele>
        <time>2022-08-20T14:07:24Z</time>
      </trkpt>
      <trkpt lat="51.144517147913575" lon="5.091400081291795">
        <ele>28.02</ele>
        <time>2022-08-20T14:07:39Z</time>
      </trkpt>
      <trkpt lat="51.144749242812395" lon="5.091171255335212">
        <ele>28.5</ele>
        <time>2022-08-20T14:07:55Z</time>
      </trkpt>
      <trkpt lat="51.14496641792357" lon="5.091014346107841">
        <ele>28.5</ele>
        <time>2022-08-20T14:08:11Z</time>
      </trkpt>
      <trkpt lat="51.145101366564631" lon="5.090940920636058">
        <ele>28.5</ele>
        <time>2022-08-20T14:08:20Z</time>
      </trkpt>
      <trkpt lat="51.145111257210374" lon="5.09091954678297">
        <ele>28.5</ele>
        <time>2022-08-20T14:08:21Z</time>
      </trkpt>
      <trkpt lat="51.145122572779655" lon="5.090900519862771">
        <ele>28.5</ele>
        <time>2022-08-20T14:08:22Z</time>
      </trkpt>
      <trkpt lat="51.145137408748269" lon="5.090879816561937">
        <ele>28.5</ele>
        <time>2022-08-20T14:08:23Z</time>
      </trkpt>
      <trkpt lat="51.14515065215528" lon="5.090858526527882">
        <ele>28.5</ele>
        <time>2022-08-20T14:08:24Z</time>
      </trkpt>
      <trkpt lat="51.145160458981991" lon="5.090837320312858">
        <ele>28.5</ele>
        <time>2022-08-20T14:08:25Z</time>
      </trkpt>
      <trkpt lat="51.145171690732241" lon="5.090818461030722">
        <ele>28.02</ele>
        <time>2022-08-20T14:08:26Z</time>
      </trkpt>
      <trkpt lat="51.145183425396681" lon="5.090802703052759">
        <ele>28.5</ele>
        <time>2022-08-20T14:08:27Z</time>
      </trkpt>
      <trkpt lat="51.145223323255777" lon="5.090527776628733">
        <ele>28.5</ele>
        <time>2022-08-20T14:08:40Z</time>
      </trkpt>
      <trkpt lat="51.145128104835749" lon="5.090095438063145">
        <ele>28.98</ele>
        <time>2022-08-20T14:08:58Z</time>
      </trkpt>
      <trkpt lat="51.145058367401361" lon="5.089780194684863">
        <ele>28.98</ele>
        <time>2022-08-20T14:09:13Z</time>
      </trkpt>
      <trkpt lat="51.145018385723233" lon="5.08957039564848">
        <ele>28.98</ele>
        <time>2022-08-20T14:09:23Z</time>
      </trkpt>
      <trkpt lat="51.145013524219394" lon="5.089550949633122">
        <ele>28.98</ele>
        <time>2022-08-20T14:09:24Z</time>
      </trkpt>
      <trkpt lat="51.145008830353618" lon="5.089527983218432">
        <ele>28.98</ele>
        <time>2022-08-20T14:09:25Z</time>
      </trkpt>
      <trkpt lat="51.145003885030746" lon="5.089509543031454">
        <ele>28.98</ele>
        <time>2022-08-20T14:09:26Z</time>
      </trkpt>
      <trkpt lat="51.144951246678829" lon="5.089200250804424">
        <ele>28.5</ele>
        <time>2022-08-20T14:09:42Z</time>
      </trkpt>
      <trkpt lat="51.144883269444108" lon="5.08887997828424">
        <ele>28.02</ele>
        <time>2022-08-20T14:09:59Z</time>
      </trkpt>
      <trkpt lat="51.144776232540607" lon="5.088491812348366">
        <ele>28.02</ele>
        <time>2022-08-20T14:10:18Z</time>
      </trkpt>
      <trkpt lat="51.144714374095201" lon="5.088186208158732">
        <ele>27.530000000000001</ele>
        <time>2022-08-20T14:10:32Z</time>
      </trkpt>
      <trkpt lat="51.144635416567326" lon="5.087869456037879">
        <ele>27.050000000000001</ele>
        <time>2022-08-20T14:10:48Z</time>
      </trkpt>
      <trkpt lat="51.144622089341283" lon="5.087742134928703">
        <ele>27.530000000000001</ele>
        <time>2022-08-20T14:11:05Z</time>
      </trkpt>
      <trkpt lat="51.144604235887527" lon="5.087547255679965">
        <ele>27.530000000000001</ele>
        <time>2022-08-20T14:11:21Z</time>
      </trkpt>
      <trkpt lat="51.144608426839113" lon="5.08752504363656">
        <ele>27.050000000000001</ele>
        <time>2022-08-20T14:11:22Z</time>
      </trkpt>
      <trkpt lat="51.144606499001384" lon="5.087497718632221">
        <ele>27.050000000000001</ele>
        <time>2022-08-20T14:11:23Z</time>
      </trkpt>
      <trkpt lat="51.144590238109231" lon="5.087135871872306">
        <ele>27.530000000000001</ele>
        <time>2022-08-20T14:11:39Z</time>
      </trkpt>
      <trkpt lat="51.144665842875838" lon="5.086452327668667">
        <ele>27.530000000000001</ele>
        <time>2022-08-20T14:12:00Z</time>
      </trkpt>
      <trkpt lat="51.144578671082854" lon="5.086338166147471">
        <ele>27.050000000000001</ele>
        <time>2022-08-20T14:12:35Z</time>
      </trkpt>
      <trkpt lat="51.144393095746636" lon="5.086412681266666">
        <ele>27.050000000000001</ele>
        <time>2022-08-20T14:12:49Z</time>
      </trkpt>
      <trkpt lat="51.144216572865844" lon="5.086379991844297">
        <ele>27.050000000000001</ele>
        <time>2022-08-20T14:13:03Z</time>
      </trkpt>
      <trkpt lat="51.144194360822439" lon="5.086283935233951">
        <ele>27.050000000000001</ele>
        <time>2022-08-20T14:13:08Z</time>
      </trkpt>
      <trkpt lat="51.144185978919268" lon="5.086268847808242">
        <ele>27.050000000000001</ele>
        <time>2022-08-20T14:13:09Z</time>
      </trkpt>
      <trkpt lat="51.144073912873864" lon="5.085942959412932">
        <ele>26.57</ele>
        <time>2022-08-20T14:13:28Z</time>
      </trkpt>
      <trkpt lat="51.143960505723953" lon="5.085602318868041">
        <ele>26.57</ele>
        <time>2022-08-20T14:13:46Z</time>
      </trkpt>
      <trkpt lat="51.143934521824121" lon="5.085519840940833">
        <ele>27.050000000000001</ele>
        <time>2022-08-20T14:13:51Z</time>
      </trkpt>
      <trkpt lat="51.143924128264189" lon="5.085508525371552">
        <ele>26.57</ele>
        <time>2022-08-20T14:13:52Z</time>
      </trkpt>
      <trkpt lat="51.143913483247161" lon="5.085496455430985">
        <ele>27.050000000000001</ele>
        <time>2022-08-20T14:13:53Z</time>
      </trkpt>
      <trkpt lat="51.143703181296587" lon="5.085357567295432">
        <ele>26.09</ele>
        <time>2022-08-20T14:14:12Z</time>
      </trkpt>
      <trkpt lat="51.143673676997423" lon="5.085330661386251">
        <ele>26.09</ele>
        <time>2022-08-20T14:14:15Z</time>
      </trkpt>
      <trkpt lat="51.143666552379727" lon="5.08531347848475">
        <ele>26.57</ele>
        <time>2022-08-20T14:14:16Z</time>
      </trkpt>
      <trkpt lat="51.143661020323634" lon="5.085292020812631">
        <ele>26.09</ele>
        <time>2022-08-20T14:14:17Z</time>
      </trkpt>
      <trkpt lat="51.143679125234485" lon="5.084939561784267">
        <ele>26.09</ele>
        <time>2022-08-20T14:14:33Z</time>
      </trkpt>
      <trkpt lat="51.14374291151762" lon="5.084497416391969">
        <ele>26.09</ele>
        <time>2022-08-20T14:14:54Z</time>
      </trkpt>
      <trkpt lat="51.143798818811774" lon="5.084032053127885">
        <ele>26.09</ele>
        <time>2022-08-20T14:15:16Z</time>
      </trkpt>
      <trkpt lat="51.143835028633475" lon="5.083617148920894">
        <ele>26.09</ele>
        <time>2022-08-20T14:15:34Z</time>
      </trkpt>
      <trkpt lat="51.143876435235143" lon="5.083173075690866">
        <ele>26.09</ele>
        <time>2022-08-20T14:15:52Z</time>
      </trkpt>
      <trkpt lat="51.143919937312603" lon="5.082676531746984">
        <ele>26.09</ele>
        <time>2022-08-20T14:16:11Z</time>
      </trkpt>
      <trkpt lat="51.143975090235472" lon="5.082134557887912">
        <ele>25.609999999999999</ele>
        <time>2022-08-20T14:16:32Z</time>
      </trkpt>
      <trkpt lat="51.144013144075871" lon="5.081689897924662">
        <ele>25.609999999999999</ele>
        <time>2022-08-20T14:16:51Z</time>
      </trkpt>
      <trkpt lat="51.144007360562682" lon="5.081606078892946">
        <ele>25.609999999999999</ele>
        <time>2022-08-20T14:16:56Z</time>
      </trkpt>
      <trkpt lat="51.143946507945657" lon="5.081498203799129">
        <ele>25.609999999999999</ele>
        <time>2022-08-20T14:17:03Z</time>
      </trkpt>
      <trkpt lat="51.143750455230474" lon="5.081174243241549">
        <ele>25.129999999999999</ele>
        <time>2022-08-20T14:17:23Z</time>
      </trkpt>
      <trkpt lat="51.143965283408761" lon="5.080950865522027">
        <ele>25.129999999999999</ele>
        <time>2022-08-20T14:17:38Z</time>
      </trkpt>
      <trkpt lat="51.144262757152319" lon="5.08072916418314">
        <ele>25.129999999999999</ele>
        <time>2022-08-20T14:17:57Z</time>
      </trkpt>
      <trkpt lat="51.144470376893878" lon="5.080559682101011">
        <ele>25.129999999999999</ele>
        <time>2022-08-20T14:18:14Z</time>
      </trkpt>
      <trkpt lat="51.144707920029759" lon="5.080385003238916">
        <ele>25.129999999999999</ele>
        <time>2022-08-20T14:18:30Z</time>
      </trkpt>
      <trkpt lat="51.144968932494521" lon="5.08020143955946">
        <ele>25.129999999999999</ele>
        <time>2022-08-20T14:18:48Z</time>
      </trkpt>
      <trkpt lat="51.145172193646431" lon="5.080043105408549">
        <ele>25.609999999999999</ele>
        <time>2022-08-20T14:19:04Z</time>
      </trkpt>
      <trkpt lat="51.145344190299511" lon="5.079889129847288">
        <ele>25.609999999999999</ele>
        <time>2022-08-20T14:19:19Z</time>
      </trkpt>
      <trkpt lat="51.145609393715858" lon="5.079706823453307">
        <ele>25.609999999999999</ele>
        <time>2022-08-20T14:19:37Z</time>
      </trkpt>
      <trkpt lat="51.145824305713177" lon="5.079551003873348">
        <ele>24.649999999999999</ele>
        <time>2022-08-20T14:19:52Z</time>
      </trkpt>
      <trkpt lat="51.14601113833487" lon="5.079409936442971">
        <ele>25.609999999999999</ele>
        <time>2022-08-20T14:20:05Z</time>
      </trkpt>
      <trkpt lat="51.146183554083109" lon="5.079257218167186">
        <ele>25.129999999999999</ele>
        <time>2022-08-20T14:20:18Z</time>
      </trkpt>
      <trkpt lat="51.146376337856054" lon="5.079066697508097">
        <ele>24.649999999999999</ele>
        <time>2022-08-20T14:20:33Z</time>
      </trkpt>
      <trkpt lat="51.146641792729497" lon="5.078882044181228">
        <ele>25.129999999999999</ele>
        <time>2022-08-20T14:20:51Z</time>
      </trkpt>
      <trkpt lat="51.146896434947848" lon="5.078712310642004">
        <ele>25.129999999999999</ele>
        <time>2022-08-20T14:21:08Z</time>
      </trkpt>
      <trkpt lat="51.147133307531476" lon="5.078544085845351">
        <ele>25.129999999999999</ele>
        <time>2022-08-20T14:21:26Z</time>
      </trkpt>
      <trkpt lat="51.147404797375202" lon="5.078340908512473">
        <ele>25.129999999999999</ele>
        <time>2022-08-20T14:21:46Z</time>
      </trkpt>
      <trkpt lat="51.14761283621192" lon="5.078189196065068">
        <ele>24.649999999999999</ele>
        <time>2022-08-20T14:22:02Z</time>
      </trkpt>
      <trkpt lat="51.14780000410974" lon="5.078070675954223">
        <ele>25.129999999999999</ele>
        <time>2022-08-20T14:22:15Z</time>
      </trkpt>
      <trkpt lat="51.147995721548796" lon="5.077917873859406">
        <ele>24.649999999999999</ele>
        <time>2022-08-20T14:22:30Z</time>
      </trkpt>
      <trkpt lat="51.148223709315062" lon="5.077737662941217">
        <ele>24.649999999999999</ele>
        <time>2022-08-20T14:22:47Z</time>
      </trkpt>
      <trkpt lat="51.148446751758456" lon="5.077583687379956">
        <ele>24.649999999999999</ele>
        <time>2022-08-20T14:23:05Z</time>
      </trkpt>
      <trkpt lat="51.148675158619881" lon="5.077408254146576">
        <ele>25.129999999999999</ele>
        <time>2022-08-20T14:23:24Z</time>
      </trkpt>
      <trkpt lat="51.148943463340402" lon="5.07721982896328">
        <ele>24.649999999999999</ele>
        <time>2022-08-20T14:23:40Z</time>
      </trkpt>
      <trkpt lat="51.149445120245218" lon="5.0768699683249">
        <ele>24.649999999999999</ele>
        <time>2022-08-20T14:23:53Z</time>
      </trkpt>
      <trkpt lat="51.149827251210809" lon="5.076566878706217">
        <ele>24.170000000000002</ele>
        <time>2022-08-20T14:24:03Z</time>
      </trkpt>
      <trkpt lat="51.149868909269571" lon="5.076538296416402">
        <ele>24.649999999999999</ele>
        <time>2022-08-20T14:24:04Z</time>
      </trkpt>
      <trkpt lat="51.150378948077559" lon="5.076161781325936">
        <ele>24.170000000000002</ele>
        <time>2022-08-20T14:24:17Z</time>
      </trkpt>
      <trkpt lat="51.150415744632483" lon="5.076127583160996">
        <ele>24.170000000000002</ele>
        <time>2022-08-20T14:24:18Z</time>
      </trkpt>
      <trkpt lat="51.150899631902575" lon="5.075720893219113">
        <ele>24.170000000000002</ele>
        <time>2022-08-20T14:24:33Z</time>
      </trkpt>
      <trkpt lat="51.151074646040797" lon="5.075626010075212">
        <ele>24.170000000000002</ele>
        <time>2022-08-20T14:24:44Z</time>
      </trkpt>
      <trkpt lat="51.151316966861486" lon="5.075475303456187">
        <ele>24.170000000000002</ele>
        <time>2022-08-20T14:25:00Z</time>
      </trkpt>
      <trkpt lat="51.151507068425417" lon="5.07528830319643">
        <ele>24.170000000000002</ele>
        <time>2022-08-20T14:25:14Z</time>
      </trkpt>
      <trkpt lat="51.151605555787683" lon="5.075240526348352">
        <ele>24.170000000000002</ele>
        <time>2022-08-20T14:25:21Z</time>
      </trkpt>
      <trkpt lat="51.151622738689184" lon="5.075229378417134">
        <ele>24.170000000000002</ele>
        <time>2022-08-20T14:25:22Z</time>
      </trkpt>
      <trkpt lat="51.151842596009374" lon="5.075062327086926">
        <ele>24.170000000000002</ele>
        <time>2022-08-20T14:25:38Z</time>
      </trkpt>
      <trkpt lat="51.152043342590332" lon="5.074877757579088">
        <ele>24.170000000000002</ele>
        <time>2022-08-20T14:25:53Z</time>
      </trkpt>
      <trkpt lat="51.152255656197667" lon="5.074783293530345">
        <ele>24.649999999999999</ele>
        <time>2022-08-20T14:26:05Z</time>
      </trkpt>
      <trkpt lat="51.152351796627045" lon="5.074724704027176">
        <ele>24.170000000000002</ele>
        <time>2022-08-20T14:26:17Z</time>
      </trkpt>
      <trkpt lat="51.152623202651739" lon="5.074474588036537">
        <ele>25.129999999999999</ele>
        <time>2022-08-20T14:26:35Z</time>
      </trkpt>
      <trkpt lat="51.152835600078106" lon="5.074246851727366">
        <ele>25.609999999999999</ele>
        <time>2022-08-20T14:26:51Z</time>
      </trkpt>
      <trkpt lat="51.153111448511481" lon="5.073959603905678">
        <ele>26.57</ele>
        <time>2022-08-20T14:27:11Z</time>
      </trkpt>
      <trkpt lat="51.153279170393944" lon="5.073586860671639">
        <ele>26.57</ele>
        <time>2022-08-20T14:27:29Z</time>
      </trkpt>
      <trkpt lat="51.153421495109797" lon="5.073213446885347">
        <ele>27.050000000000001</ele>
        <time>2022-08-20T14:27:47Z</time>
      </trkpt>
      <trkpt lat="51.15351059474051" lon="5.07292527705431">
        <ele>28.02</ele>
        <time>2022-08-20T14:28:02Z</time>
      </trkpt>
      <trkpt lat="51.153633138164878" lon="5.072627887129784">
        <ele>26.57</ele>
        <time>2022-08-20T14:28:16Z</time>
      </trkpt>
      <trkpt lat="51.153637077659369" lon="5.072606261819601">
        <ele>26.57</ele>
        <time>2022-08-20T14:28:17Z</time>
      </trkpt>
      <trkpt lat="51.153638586401939" lon="5.072584552690387">
        <ele>26.57</ele>
        <time>2022-08-20T14:28:18Z</time>
      </trkpt>
      <trkpt lat="51.153636323288083" lon="5.072561083361507">
        <ele>26.57</ele>
        <time>2022-08-20T14:28:19Z</time>
      </trkpt>
      <trkpt lat="51.153631126508117" lon="5.072537949308753">
        <ele>26.57</ele>
        <time>2022-08-20T14:28:20Z</time>
      </trkpt>
      <trkpt lat="51.153619391843677" lon="5.072518670931459">
        <ele>26.57</ele>
        <time>2022-08-20T14:28:21Z</time>
      </trkpt>
      <trkpt lat="51.153604974970222" lon="5.072502745315433">
        <ele>26.57</ele>
        <time>2022-08-20T14:28:22Z</time>
      </trkpt>
      <trkpt lat="51.1535887978971" lon="5.072489669546485">
        <ele>27.050000000000001</ele>
        <time>2022-08-20T14:28:23Z</time>
      </trkpt>
      <trkpt lat="51.153571531176567" lon="5.072482544928789">
        <ele>27.530000000000001</ele>
        <time>2022-08-20T14:28:24Z</time>
      </trkpt>
      <trkpt lat="51.153288558125496" lon="5.072485730051994">
        <ele>27.530000000000001</ele>
        <time>2022-08-20T14:28:41Z</time>
      </trkpt>
      <trkpt lat="51.152979768812656" lon="5.072508696466684">
        <ele>28.5</ele>
        <time>2022-08-20T14:29:01Z</time>
      </trkpt>
      <trkpt lat="51.15268480964005" lon="5.072523783892393">
        <ele>28.5</ele>
        <time>2022-08-20T14:29:21Z</time>
      </trkpt>
      <trkpt lat="51.152435364201665" lon="5.07243275642395">
        <ele>27.050000000000001</ele>
        <time>2022-08-20T14:29:37Z</time>
      </trkpt>
      <trkpt lat="51.152371829375625" lon="5.072417417541146">
        <ele>27.050000000000001</ele>
        <time>2022-08-20T14:29:41Z</time>
      </trkpt>
      <trkpt lat="51.152174435555935" lon="5.072192614898086">
        <ele>26.57</ele>
        <time>2022-08-20T14:29:58Z</time>
      </trkpt>
      <trkpt lat="51.15203152410686" lon="5.071907797828317">
        <ele>26.57</ele>
        <time>2022-08-20T14:30:13Z</time>
      </trkpt>
      <trkpt lat="51.151872687041759" lon="5.071513596922159">
        <ele>27.050000000000001</ele>
        <time>2022-08-20T14:30:32Z</time>
      </trkpt>
      <trkpt lat="51.151759112253785" lon="5.071265660226345">
        <ele>27.050000000000001</ele>
        <time>2022-08-20T14:30:46Z</time>
      </trkpt>
      <trkpt lat="51.151667581871152" lon="5.071007246151567">
        <ele>25.609999999999999</ele>
        <time>2022-08-20T14:31:03Z</time>
      </trkpt>
      <trkpt lat="51.151607735082507" lon="5.070778084918857">
        <ele>25.609999999999999</ele>
        <time>2022-08-20T14:31:16Z</time>
      </trkpt>
      <trkpt lat="51.151598514989018" lon="5.070754950866103">
        <ele>25.609999999999999</ele>
        <time>2022-08-20T14:31:17Z</time>
      </trkpt>
      <trkpt lat="51.151592815294862" lon="5.070731900632381">
        <ele>25.609999999999999</ele>
        <time>2022-08-20T14:31:18Z</time>
      </trkpt>
      <trkpt lat="51.151542356237769" lon="5.070542385801673">
        <ele>25.129999999999999</ele>
        <time>2022-08-20T14:31:27Z</time>
      </trkpt>
      <trkpt lat="51.151540093123913" lon="5.070522520691156">
        <ele>25.129999999999999</ele>
        <time>2022-08-20T14:31:28Z</time>
      </trkpt>
      <trkpt lat="51.151498099789023" lon="5.070355553179979">
        <ele>25.129999999999999</ele>
        <time>2022-08-20T14:31:37Z</time>
      </trkpt>
      <trkpt lat="51.151491729542613" lon="5.070339543744922">
        <ele>25.129999999999999</ele>
        <time>2022-08-20T14:31:38Z</time>
      </trkpt>
      <trkpt lat="51.151487454771996" lon="5.070323450490832">
        <ele>25.609999999999999</ele>
        <time>2022-08-20T14:31:39Z</time>
      </trkpt>
      <trkpt lat="51.151484437286854" lon="5.070306435227394">
        <ele>25.129999999999999</ele>
        <time>2022-08-20T14:31:40Z</time>
      </trkpt>
      <trkpt lat="51.151481084525585" lon="5.070290006697178">
        <ele>25.129999999999999</ele>
        <time>2022-08-20T14:31:41Z</time>
      </trkpt>
      <trkpt lat="51.151447053998709" lon="5.070178108289838">
        <ele>25.129999999999999</ele>
        <time>2022-08-20T14:31:47Z</time>
      </trkpt>
      <trkpt lat="51.151438839733601" lon="5.070161763578653">
        <ele>25.129999999999999</ele>
        <time>2022-08-20T14:31:48Z</time>
      </trkpt>
      <trkpt lat="51.151381591334939" lon="5.069959592074156">
        <ele>25.129999999999999</ele>
        <time>2022-08-20T14:32:03Z</time>
      </trkpt>
      <trkpt lat="51.151366755366325" lon="5.069910138845444">
        <ele>25.129999999999999</ele>
        <time>2022-08-20T14:32:06Z</time>
      </trkpt>
      <trkpt lat="51.151257539168" lon="5.069584837183356">
        <ele>25.609999999999999</ele>
        <time>2022-08-20T14:32:23Z</time>
      </trkpt>
      <trkpt lat="51.151165338233113" lon="5.069288369268179">
        <ele>25.129999999999999</ele>
        <time>2022-08-20T14:32:39Z</time>
      </trkpt>
      <trkpt lat="51.151153100654483" lon="5.069271186366677">
        <ele>24.649999999999999</ele>
        <time>2022-08-20T14:32:40Z</time>
      </trkpt>
      <trkpt lat="51.151126530021429" lon="5.069232545793057">
        <ele>25.129999999999999</ele>
        <time>2022-08-20T14:32:43Z</time>
      </trkpt>
      <trkpt lat="51.151116471737623" lon="5.069216201081872">
        <ele>24.649999999999999</ele>
        <time>2022-08-20T14:32:44Z</time>
      </trkpt>
      <trkpt lat="51.151056876406074" lon="5.068971868604422">
        <ele>25.129999999999999</ele>
        <time>2022-08-20T14:32:58Z</time>
      </trkpt>
      <trkpt lat="51.150981187820435" lon="5.068732816725969">
        <ele>25.129999999999999</ele>
        <time>2022-08-20T14:33:11Z</time>
      </trkpt>
      <trkpt lat="51.150975320488214" lon="5.068709012120962">
        <ele>25.129999999999999</ele>
        <time>2022-08-20T14:33:12Z</time>
      </trkpt>
      <trkpt lat="51.150928633287549" lon="5.06843039765954">
        <ele>25.129999999999999</ele>
        <time>2022-08-20T14:33:28Z</time>
      </trkpt>
      <trkpt lat="51.150969117879868" lon="5.068383878096938">
        <ele>25.129999999999999</ele>
        <time>2022-08-20T14:33:33Z</time>
      </trkpt>
      <trkpt lat="51.15106157027185" lon="5.068344483152032">
        <ele>25.129999999999999</ele>
        <time>2022-08-20T14:33:40Z</time>
      </trkpt>
      <trkpt lat="51.151077998802066" lon="5.06834632717073">
        <ele>25.129999999999999</ele>
        <time>2022-08-20T14:33:41Z</time>
      </trkpt>
      <trkpt lat="51.15135476924479" lon="5.06834339350462">
        <ele>26.09</ele>
        <time>2022-08-20T14:33:58Z</time>
      </trkpt>
      <trkpt lat="51.151558868587017" lon="5.068324534222484">
        <ele>26.09</ele>
        <time>2022-08-20T14:34:12Z</time>
      </trkpt>
      <trkpt lat="51.151764057576656" lon="5.068303663283587">
        <ele>24.649999999999999</ele>
        <time>2022-08-20T14:34:26Z</time>
      </trkpt>
      <trkpt lat="51.151789370924234" lon="5.068262172862887">
        <ele>25.129999999999999</ele>
        <time>2022-08-20T14:34:28Z</time>
      </trkpt>
      <trkpt lat="51.151797836646438" lon="5.06823836825788">
        <ele>25.129999999999999</ele>
        <time>2022-08-20T14:34:29Z</time>
      </trkpt>
      <trkpt lat="51.151802614331245" lon="5.068214982748032">
        <ele>25.129999999999999</ele>
        <time>2022-08-20T14:34:30Z</time>
      </trkpt>
      <trkpt lat="51.15180479362607" lon="5.068189082667232">
        <ele>25.129999999999999</ele>
        <time>2022-08-20T14:34:31Z</time>
      </trkpt>
      <trkpt lat="51.151809487491846" lon="5.068163936957717">
        <ele>25.129999999999999</ele>
        <time>2022-08-20T14:34:32Z</time>
      </trkpt>
      <trkpt lat="51.151819378137589" lon="5.06813820451498">
        <ele>25.129999999999999</ele>
        <time>2022-08-20T14:34:33Z</time>
      </trkpt>
      <trkpt lat="51.151827927678823" lon="5.068108951672912">
        <ele>24.649999999999999</ele>
        <time>2022-08-20T14:34:34Z</time>
      </trkpt>
      <trkpt lat="51.15183362737298" lon="5.068071149289608">
        <ele>24.649999999999999</ele>
        <time>2022-08-20T14:34:35Z</time>
      </trkpt>
      <trkpt lat="51.151826502755284" lon="5.067609306424856">
        <ele>24.649999999999999</ele>
        <time>2022-08-20T14:34:42Z</time>
      </trkpt>
      <trkpt lat="51.151835471391678" lon="5.067077726125717">
        <ele>24.170000000000002</ele>
        <time>2022-08-20T14:34:49Z</time>
      </trkpt>
      <trkpt lat="51.151831028982997" lon="5.067003211006522">
        <ele>24.649999999999999</ele>
        <time>2022-08-20T14:34:50Z</time>
      </trkpt>
      <trkpt lat="51.15182482637465" lon="5.066930959001184">
        <ele>24.649999999999999</ele>
        <time>2022-08-20T14:34:51Z</time>
      </trkpt>
      <trkpt lat="51.151784174144268" lon="5.066443299874663">
        <ele>23.690000000000001</ele>
        <time>2022-08-20T14:34:57Z</time>
      </trkpt>
      <trkpt lat="51.151775540784001" lon="5.065122563391924">
        <ele>24.170000000000002</ele>
        <time>2022-08-20T14:35:13Z</time>
      </trkpt>
      <trkpt lat="51.151772020384669" lon="5.065048048272729">
        <ele>24.170000000000002</ele>
        <time>2022-08-20T14:35:14Z</time>
      </trkpt>
      <trkpt lat="51.151746204122901" lon="5.063890088349581">
        <ele>23.690000000000001</ele>
        <time>2022-08-20T14:35:29Z</time>
      </trkpt>
      <trkpt lat="51.151745785027742" lon="5.063418941572309">
        <ele>23.690000000000001</ele>
        <time>2022-08-20T14:35:35Z</time>
      </trkpt>
      <trkpt lat="51.151749473065138" lon="5.063346857205033">
        <ele>23.210000000000001</ele>
        <time>2022-08-20T14:35:36Z</time>
      </trkpt>
      <trkpt lat="51.151789119467139" lon="5.062632132321596">
        <ele>23.210000000000001</ele>
        <time>2022-08-20T14:35:49Z</time>
      </trkpt>
      <trkpt lat="51.15176766179502" lon="5.062262825667858">
        <ele>23.690000000000001</ele>
        <time>2022-08-20T14:36:04Z</time>
      </trkpt>
      <trkpt lat="51.151763470843434" lon="5.061814645305276">
        <ele>23.690000000000001</ele>
        <time>2022-08-20T14:36:23Z</time>
      </trkpt>
      <trkpt lat="51.151759866625071" lon="5.061591770499945">
        <ele>23.690000000000001</ele>
        <time>2022-08-20T14:36:38Z</time>
      </trkpt>
      <trkpt lat="51.151742767542601" lon="5.061076283454895">
        <ele>23.210000000000001</ele>
        <time>2022-08-20T14:36:59Z</time>
      </trkpt>
      <trkpt lat="51.151722902432084" lon="5.060768164694309">
        <ele>23.210000000000001</ele>
        <time>2022-08-20T14:37:14Z</time>
      </trkpt>
      <trkpt lat="51.151725668460131" lon="5.06038561463356">
        <ele>22.73</ele>
        <time>2022-08-20T14:37:29Z</time>
      </trkpt>
      <trkpt lat="51.151711838319898" lon="5.059875994920731">
        <ele>22.73</ele>
        <time>2022-08-20T14:37:50Z</time>
      </trkpt>
      <trkpt lat="51.151698175817728" lon="5.059404764324427">
        <ele>22.73</ele>
        <time>2022-08-20T14:38:09Z</time>
      </trkpt>
      <trkpt lat="51.151710245758295" lon="5.059033865109086">
        <ele>22.73</ele>
        <time>2022-08-20T14:38:26Z</time>
      </trkpt>
      <trkpt lat="51.151691554114223" lon="5.058637987822294">
        <ele>22.73</ele>
        <time>2022-08-20T14:38:43Z</time>
      </trkpt>
      <trkpt lat="51.151718460023403" lon="5.058405222371221">
        <ele>22.73</ele>
        <time>2022-08-20T14:38:56Z</time>
      </trkpt>
      <trkpt lat="51.151705384254456" lon="5.057919407263398">
        <ele>22.25</ele>
        <time>2022-08-20T14:39:16Z</time>
      </trkpt>
      <trkpt lat="51.15168510004878" lon="5.05744306370616">
        <ele>22.25</ele>
        <time>2022-08-20T14:39:36Z</time>
      </trkpt>
      <trkpt lat="51.151686357334256" lon="5.056997984647751">
        <ele>22.25</ele>
        <time>2022-08-20T14:39:54Z</time>
      </trkpt>
      <trkpt lat="51.151677304878831" lon="5.056845769286156">
        <ele>22.73</ele>
        <time>2022-08-20T14:40:00Z</time>
      </trkpt>
      <trkpt lat="51.151666408404708" lon="5.056833364069462">
        <ele>22.73</ele>
        <time>2022-08-20T14:40:01Z</time>
      </trkpt>
      <trkpt lat="51.15165526047349" lon="5.056834034621716">
        <ele>22.73</ele>
        <time>2022-08-20T14:40:02Z</time>
      </trkpt>
      <trkpt lat="51.151640927419066" lon="5.056841913610697">
        <ele>22.73</ele>
        <time>2022-08-20T14:40:03Z</time>
      </trkpt>
      <trkpt lat="51.151626342907548" lon="5.056851888075471">
        <ele>22.73</ele>
        <time>2022-08-20T14:40:04Z</time>
      </trkpt>
      <trkpt lat="51.151614272966981" lon="5.056857587769628">
        <ele>22.73</ele>
        <time>2022-08-20T14:40:05Z</time>
      </trkpt>
      <trkpt lat="51.151602705940604" lon="5.056856079027057">
        <ele>22.73</ele>
        <time>2022-08-20T14:40:06Z</time>
      </trkpt>
      <trkpt lat="51.151590468361974" lon="5.056857252493501">
        <ele>22.73</ele>
        <time>2022-08-20T14:40:07Z</time>
      </trkpt>
      <trkpt lat="51.151349907740951" lon="5.056873261928558">
        <ele>22.73</ele>
        <time>2022-08-20T14:40:24Z</time>
      </trkpt>
      <trkpt lat="51.151128876954317" lon="5.056888349354267">
        <ele>22.73</ele>
        <time>2022-08-20T14:40:41Z</time>
      </trkpt>
      <trkpt lat="51.150885298848152" lon="5.05689580924809">
        <ele>22.25</ele>
        <time>2022-08-20T14:40:58Z</time>
      </trkpt>
      <trkpt lat="51.150638954713941" lon="5.056896563619375">
        <ele>22.25</ele>
        <time>2022-08-20T14:41:15Z</time>
      </trkpt>
      <trkpt lat="51.150363106280565" lon="5.056901592761278">
        <ele>22.25</ele>
        <time>2022-08-20T14:41:33Z</time>
      </trkpt>
      <trkpt lat="51.150145679712296" lon="5.056908633559942">
        <ele>22.25</ele>
        <time>2022-08-20T14:41:49Z</time>
      </trkpt>
      <trkpt lat="51.149913836270571" lon="5.056930677965283">
        <ele>22.25</ele>
        <time>2022-08-20T14:42:06Z</time>
      </trkpt>
      <trkpt lat="51.149717448279262" lon="5.056934282183647">
        <ele>22.73</ele>
        <time>2022-08-20T14:42:21Z</time>
      </trkpt>
      <trkpt lat="51.14947160705924" lon="5.056943418458104">
        <ele>22.73</ele>
        <time>2022-08-20T14:42:38Z</time>
      </trkpt>
      <trkpt lat="51.149260383099318" lon="5.056949118152261">
        <ele>22.73</ele>
        <time>2022-08-20T14:42:52Z</time>
      </trkpt>
      <trkpt lat="51.148984115570784" lon="5.056945849210024">
        <ele>22.73</ele>
        <time>2022-08-20T14:43:09Z</time>
      </trkpt>
      <trkpt lat="51.148755289614201" lon="5.056972000747919">
        <ele>22.73</ele>
        <time>2022-08-20T14:43:24Z</time>
      </trkpt>
      <trkpt lat="51.148613383993506" lon="5.056975353509188">
        <ele>22.73</ele>
        <time>2022-08-20T14:43:35Z</time>
      </trkpt>
      <trkpt lat="51.14835849031806" lon="5.056972755119205">
        <ele>23.210000000000001</ele>
        <time>2022-08-20T14:43:51Z</time>
      </trkpt>
      <trkpt lat="51.148282885551453" lon="5.057094627991319">
        <ele>23.210000000000001</ele>
        <time>2022-08-20T14:44:00Z</time>
      </trkpt>
      <trkpt lat="51.14818012341857" lon="5.057450104504824">
        <ele>22.73</ele>
        <time>2022-08-20T14:44:16Z</time>
      </trkpt>
      <trkpt lat="51.148124383762479" lon="5.057501485571265">
        <ele>22.73</ele>
        <time>2022-08-20T14:44:22Z</time>
      </trkpt>
      <trkpt lat="51.148113235831261" lon="5.057496288791299">
        <ele>23.210000000000001</ele>
        <time>2022-08-20T14:44:23Z</time>
      </trkpt>
      <trkpt lat="51.148101668804884" lon="5.057490337640047">
        <ele>22.73</ele>
        <time>2022-08-20T14:44:24Z</time>
      </trkpt>
      <trkpt lat="51.148086665198207" lon="5.0574841350317">
        <ele>23.210000000000001</ele>
        <time>2022-08-20T14:44:25Z</time>
      </trkpt>
      <trkpt lat="51.14807115867734" lon="5.057475417852402">
        <ele>22.73</ele>
        <time>2022-08-20T14:44:26Z</time>
      </trkpt>
      <trkpt lat="51.148057160899043" lon="5.057464186102152">
        <ele>23.210000000000001</ele>
        <time>2022-08-20T14:44:27Z</time>
      </trkpt>
      <trkpt lat="51.14802815951407" lon="5.05744650028646">
        <ele>23.210000000000001</ele>
        <time>2022-08-20T14:44:29Z</time>
      </trkpt>
      <trkpt lat="51.148016592487693" lon="5.057455217465758">
        <ele>23.210000000000001</ele>
        <time>2022-08-20T14:44:30Z</time>
      </trkpt>
      <trkpt lat="51.148006869480014" lon="5.057467371225357">
        <ele>23.210000000000001</ele>
        <time>2022-08-20T14:44:31Z</time>
      </trkpt>
      <trkpt lat="51.147975604981184" lon="5.057443734258413">
        <ele>22.73</ele>
        <time>2022-08-20T14:44:34Z</time>
      </trkpt>
      <trkpt lat="51.147967893630266" lon="5.057427054271102">
        <ele>22.73</ele>
        <time>2022-08-20T14:44:35Z</time>
      </trkpt>
      <trkpt lat="51.147926487028599" lon="5.057382211089134">
        <ele>23.210000000000001</ele>
        <time>2022-08-20T14:44:40Z</time>
      </trkpt>
      <trkpt lat="51.147755077108741" lon="5.057223793119192">
        <ele>22.73</ele>
        <time>2022-08-20T14:44:57Z</time>
      </trkpt>
      <trkpt lat="51.147588947787881" lon="5.057061603292823">
        <ele>22.73</ele>
        <time>2022-08-20T14:45:12Z</time>
      </trkpt>
      <trkpt lat="51.147402031347156" lon="5.056875608861446">
        <ele>22.73</ele>
        <time>2022-08-20T14:45:29Z</time>
      </trkpt>
      <trkpt lat="51.147245457395911" lon="5.056717274710536">
        <ele>22.73</ele>
        <time>2022-08-20T14:45:44Z</time>
      </trkpt>
      <trkpt lat="51.147162644192576" lon="5.056652734056115">
        <ele>22.73</ele>
        <time>2022-08-20T14:45:51Z</time>
      </trkpt>
      <trkpt lat="51.147146802395582" lon="5.056651728227735">
        <ele>22.73</ele>
        <time>2022-08-20T14:45:52Z</time>
      </trkpt>
      <trkpt lat="51.147130457684398" lon="5.056647872552276">
        <ele>22.73</ele>
        <time>2022-08-20T14:45:53Z</time>
      </trkpt>
      <trkpt lat="51.147115202620625" lon="5.056652650237083">
        <ele>22.73</ele>
        <time>2022-08-20T14:45:54Z</time>
      </trkpt>
      <trkpt lat="51.147099109366536" lon="5.056655332446098">
        <ele>22.73</ele>
        <time>2022-08-20T14:45:55Z</time>
      </trkpt>
      <trkpt lat="51.14707974717021" lon="5.056656170636416">
        <ele>22.73</ele>
        <time>2022-08-20T14:45:56Z</time>
      </trkpt>
      <trkpt lat="51.147063653916121" lon="5.056663798168302">
        <ele>22.73</ele>
        <time>2022-08-20T14:45:57Z</time>
      </trkpt>
      <trkpt lat="51.146854693070054" lon="5.056818276643753">
        <ele>23.210000000000001</ele>
        <time>2022-08-20T14:46:13Z</time>
      </trkpt>
      <trkpt lat="51.146574905142188" lon="5.056914668530226">
        <ele>23.210000000000001</ele>
        <time>2022-08-20T14:46:33Z</time>
      </trkpt>
      <trkpt lat="51.14637466147542" lon="5.056969737634063">
        <ele>23.210000000000001</ele>
        <time>2022-08-20T14:46:48Z</time>
      </trkpt>
      <trkpt lat="51.146159498021007" lon="5.056992368772626">
        <ele>22.73</ele>
        <time>2022-08-20T14:47:04Z</time>
      </trkpt>
      <trkpt lat="51.146146925166249" lon="5.056992704048753">
        <ele>23.210000000000001</ele>
        <time>2022-08-20T14:47:05Z</time>
      </trkpt>
      <trkpt lat="51.145957075059414" lon="5.056986501440406">
        <ele>23.210000000000001</ele>
        <time>2022-08-20T14:47:20Z</time>
      </trkpt>
      <trkpt lat="51.145721543580294" lon="5.057030841708183">
        <ele>23.210000000000001</ele>
        <time>2022-08-20T14:47:37Z</time>
      </trkpt>
      <trkpt lat="51.145676197484136" lon="5.057042157277465">
        <ele>23.210000000000001</ele>
        <time>2022-08-20T14:47:41Z</time>
      </trkpt>
      <trkpt lat="51.145662367343903" lon="5.057042827829719">
        <ele>23.210000000000001</ele>
        <time>2022-08-20T14:47:42Z</time>
      </trkpt>
      <trkpt lat="51.145648704841733" lon="5.057047437876463">
        <ele>23.210000000000001</ele>
        <time>2022-08-20T14:47:43Z</time>
      </trkpt>
      <trkpt lat="51.145635042339563" lon="5.057054227218032">
        <ele>23.210000000000001</ele>
        <time>2022-08-20T14:47:44Z</time>
      </trkpt>
      <trkpt lat="51.145619954913855" lon="5.057056993246079">
        <ele>23.690000000000001</ele>
        <time>2022-08-20T14:47:45Z</time>
      </trkpt>
      <trkpt lat="51.145436223596334" lon="5.057097477838397">
        <ele>23.210000000000001</ele>
        <time>2022-08-20T14:47:57Z</time>
      </trkpt>
      <trkpt lat="51.145349387079477" lon="5.057097477838397">
        <ele>23.210000000000001</ele>
        <time>2022-08-20T14:48:03Z</time>
      </trkpt>
      <trkpt lat="51.145180827006698" lon="5.05713033489883">
        <ele>23.210000000000001</ele>
        <time>2022-08-20T14:48:16Z</time>
      </trkpt>
      <trkpt lat="51.145165488123894" lon="5.057131927460432">
        <ele>22.73</ele>
        <time>2022-08-20T14:48:17Z</time>
      </trkpt>
      <trkpt lat="51.145149394869804" lon="5.057133352383971">
        <ele>22.73</ele>
        <time>2022-08-20T14:48:18Z</time>
      </trkpt>
      <trkpt lat="51.144965663552284" lon="5.057173250243068">
        <ele>22.73</ele>
        <time>2022-08-20T14:48:28Z</time>
      </trkpt>
      <trkpt lat="51.144948648288846" lon="5.057175094261766">
        <ele>23.210000000000001</ele>
        <time>2022-08-20T14:48:29Z</time>
      </trkpt>
      <trkpt lat="51.144933979958296" lon="5.057178530842066">
        <ele>22.73</ele>
        <time>2022-08-20T14:48:30Z</time>
      </trkpt>
      <trkpt lat="51.144919814541936" lon="5.057184146717191">
        <ele>22.73</ele>
        <time>2022-08-20T14:48:31Z</time>
      </trkpt>
      <trkpt lat="51.144906068220735" lon="5.057191187515855">
        <ele>22.73</ele>
        <time>2022-08-20T14:48:32Z</time>
      </trkpt>
      <trkpt lat="51.144819231703877" lon="5.057358406484127">
        <ele>23.210000000000001</ele>
        <time>2022-08-20T14:48:46Z</time>
      </trkpt>
      <trkpt lat="51.144804479554296" lon="5.057357484474778">
        <ele>23.690000000000001</ele>
        <time>2022-08-20T14:48:47Z</time>
      </trkpt>
      <trkpt lat="51.144653186202049" lon="5.057243909686804">
        <ele>23.210000000000001</ele>
        <time>2022-08-20T14:49:01Z</time>
      </trkpt>
      <trkpt lat="51.14464052952826" lon="5.057227481156588">
        <ele>22.73</ele>
        <time>2022-08-20T14:49:02Z</time>
      </trkpt>
      <trkpt lat="51.144626950845122" lon="5.057214489206672">
        <ele>22.73</ele>
        <time>2022-08-20T14:49:03Z</time>
      </trkpt>
      <trkpt lat="51.144611109048128" lon="5.057199569419026">
        <ele>23.210000000000001</ele>
        <time>2022-08-20T14:49:04Z</time>
      </trkpt>
      <trkpt lat="51.144600799307227" lon="5.057189511135221">
        <ele>23.210000000000001</ele>
        <time>2022-08-20T14:49:05Z</time>
      </trkpt>
      <trkpt lat="51.144588561728597" lon="5.05717626772821">
        <ele>22.73</ele>
        <time>2022-08-20T14:49:06Z</time>
      </trkpt>
      <trkpt lat="51.144487308338284" lon="5.056930426508188">
        <ele>23.210000000000001</ele>
        <time>2022-08-20T14:49:20Z</time>
      </trkpt>
      <trkpt lat="51.144438358023763" lon="5.056692883372307">
        <ele>22.73</ele>
        <time>2022-08-20T14:49:33Z</time>
      </trkpt>
      <trkpt lat="51.144434669986367" lon="5.056677125394344">
        <ele>22.73</ele>
        <time>2022-08-20T14:49:34Z</time>
      </trkpt>
      <trkpt lat="51.144426204264164" lon="5.05665248259902">
        <ele>22.73</ele>
        <time>2022-08-20T14:49:35Z</time>
      </trkpt>
      <trkpt lat="51.144421342760324" lon="5.056634712964296">
        <ele>22.73</ele>
        <time>2022-08-20T14:49:36Z</time>
      </trkpt>
      <trkpt lat="51.144345235079527" lon="5.056371605023742">
        <ele>22.73</ele>
        <time>2022-08-20T14:49:50Z</time>
      </trkpt>
      <trkpt lat="51.144266193732619" lon="5.056194076314569">
        <ele>23.210000000000001</ele>
        <time>2022-08-20T14:50:03Z</time>
      </trkpt>
      <trkpt lat="51.144170388579369" lon="5.055931219831109">
        <ele>23.210000000000001</ele>
        <time>2022-08-20T14:50:18Z</time>
      </trkpt>
      <trkpt lat="51.14408883266151" lon="5.055635925382376">
        <ele>23.690000000000001</ele>
        <time>2022-08-20T14:50:33Z</time>
      </trkpt>
      <trkpt lat="51.143968217074871" lon="5.055382791906595">
        <ele>23.690000000000001</ele>
        <time>2022-08-20T14:50:46Z</time>
      </trkpt>
      <trkpt lat="51.143937958404422" lon="5.055222781375051">
        <ele>23.690000000000001</ele>
        <time>2022-08-20T14:50:54Z</time>
      </trkpt>
      <trkpt lat="51.143931085243821" lon="5.055208364501596">
        <ele>23.690000000000001</ele>
        <time>2022-08-20T14:50:55Z</time>
      </trkpt>
      <trkpt lat="51.143925469368696" lon="5.055190091952682">
        <ele>23.690000000000001</ele>
        <time>2022-08-20T14:50:56Z</time>
      </trkpt>
      <trkpt lat="51.143835363909602" lon="5.054939892143011">
        <ele>24.170000000000002</ele>
        <time>2022-08-20T14:51:10Z</time>
      </trkpt>
      <trkpt lat="51.143670827150345" lon="5.05467401817441">
        <ele>24.170000000000002</ele>
        <time>2022-08-20T14:51:25Z</time>
      </trkpt>
      <trkpt lat="51.14353277720511" lon="5.054470421746373">
        <ele>24.170000000000002</ele>
        <time>2022-08-20T14:51:39Z</time>
      </trkpt>
      <trkpt lat="51.143433703109622" lon="5.054334467276931">
        <ele>25.129999999999999</ele>
        <time>2022-08-20T14:51:53Z</time>
      </trkpt>
      <trkpt lat="51.143235554918647" lon="5.054125841706991">
        <ele>25.609999999999999</ele>
        <time>2022-08-20T14:52:09Z</time>
      </trkpt>
      <trkpt lat="51.143098343163729" lon="5.054103964939714">
        <ele>25.609999999999999</ele>
        <time>2022-08-20T14:52:20Z</time>
      </trkpt>
      <trkpt lat="51.143085015937686" lon="5.054102204740048">
        <ele>25.609999999999999</ele>
        <time>2022-08-20T14:52:21Z</time>
      </trkpt>
      <trkpt lat="51.14307202398777" lon="5.054098181426525">
        <ele>25.609999999999999</ele>
        <time>2022-08-20T14:52:22Z</time>
      </trkpt>
      <trkpt lat="51.142863733693957" lon="5.054057277739048">
        <ele>26.09</ele>
        <time>2022-08-20T14:52:37Z</time>
      </trkpt>
      <trkpt lat="51.142655778676271" lon="5.054003801196814">
        <ele>26.09</ele>
        <time>2022-08-20T14:52:55Z</time>
      </trkpt>
      <trkpt lat="51.142474226653576" lon="5.053887208923698">
        <ele>26.57</ele>
        <time>2022-08-20T14:53:11Z</time>
      </trkpt>
      <trkpt lat="51.142551843076944" lon="5.053591998293996">
        <ele>26.57</ele>
        <time>2022-08-20T14:53:26Z</time>
      </trkpt>
      <trkpt lat="51.142578832805157" lon="5.053250687196851">
        <ele>26.57</ele>
        <time>2022-08-20T14:53:41Z</time>
      </trkpt>
      <trkpt lat="51.142602888867259" lon="5.052907783538103">
        <ele>26.57</ele>
        <time>2022-08-20T14:53:58Z</time>
      </trkpt>
      <trkpt lat="51.142659885808825" lon="5.052586924284697">
        <ele>26.57</ele>
        <time>2022-08-20T14:54:12Z</time>
      </trkpt>
      <trkpt lat="51.142664244398475" lon="5.052566388621926">
        <ele>26.57</ele>
        <time>2022-08-20T14:54:13Z</time>
      </trkpt>
      <trkpt lat="51.142683774232864" lon="5.052443007007241">
        <ele>26.09</ele>
        <time>2022-08-20T14:54:19Z</time>
      </trkpt>
      <trkpt lat="51.142690982669592" lon="5.052420794963837">
        <ele>26.09</ele>
        <time>2022-08-20T14:54:20Z</time>
      </trkpt>
      <trkpt lat="51.142757870256901" lon="5.052027935162187">
        <ele>26.09</ele>
        <time>2022-08-20T14:54:38Z</time>
      </trkpt>
      <trkpt lat="51.142841270193458" lon="5.051630465313792">
        <ele>26.57</ele>
        <time>2022-08-20T14:54:56Z</time>
      </trkpt>
      <trkpt lat="51.142958449199796" lon="5.051341289654374">
        <ele>26.09</ele>
        <time>2022-08-20T14:55:13Z</time>
      </trkpt>
      <trkpt lat="51.142981583252549" lon="5.05126585252583">
        <ele>26.09</ele>
        <time>2022-08-20T14:55:17Z</time>
      </trkpt>
      <trkpt lat="51.143027683719993" lon="5.051163760945201">
        <ele>26.09</ele>
        <time>2022-08-20T14:55:23Z</time>
      </trkpt>
      <trkpt lat="51.143081495538354" lon="5.051000816747546">
        <ele>26.09</ele>
        <time>2022-08-20T14:55:31Z</time>
      </trkpt>
      <trkpt lat="51.143086943775415" lon="5.050978437066078">
        <ele>26.57</ele>
        <time>2022-08-20T14:55:32Z</time>
      </trkpt>
      <trkpt lat="51.143107144162059" lon="5.050938120111823">
        <ele>26.09</ele>
        <time>2022-08-20T14:55:34Z</time>
      </trkpt>
      <trkpt lat="51.143216108903289" lon="5.050655314698815">
        <ele>26.09</ele>
        <time>2022-08-20T14:55:48Z</time>
      </trkpt>
      <trkpt lat="51.143224742263556" lon="5.050620026886463">
        <ele>26.09</ele>
        <time>2022-08-20T14:55:50Z</time>
      </trkpt>
      <trkpt lat="51.143225580453873" lon="5.050602424889803">
        <ele>26.09</ele>
        <time>2022-08-20T14:55:51Z</time>
      </trkpt>
      <trkpt lat="51.143228933215141" lon="5.050585074350238">
        <ele>26.57</ele>
        <time>2022-08-20T14:55:52Z</time>
      </trkpt>
      <trkpt lat="51.14334468729794" lon="5.05029103718698">
        <ele>26.09</ele>
        <time>2022-08-20T14:56:08Z</time>
      </trkpt>
      <trkpt lat="51.143442085012794" lon="5.050016110762954">
        <ele>26.09</ele>
        <time>2022-08-20T14:56:22Z</time>
      </trkpt>
      <trkpt lat="51.143444767221808" lon="5.04999440163374">
        <ele>26.09</ele>
        <time>2022-08-20T14:56:23Z</time>
      </trkpt>
      <trkpt lat="51.143567226827145" lon="5.049631800502539">
        <ele>25.609999999999999</ele>
        <time>2022-08-20T14:56:37Z</time>
      </trkpt>
      <trkpt lat="51.143651464954019" lon="5.049299793317914">
        <ele>26.09</ele>
        <time>2022-08-20T14:56:42Z</time>
      </trkpt>
      <trkpt lat="51.143818683922291" lon="5.048688165843487">
        <ele>26.09</ele>
        <time>2022-08-20T14:56:51Z</time>
      </trkpt>
      <trkpt lat="51.143837291747332" lon="5.048623206093907">
        <ele>26.57</ele>
        <time>2022-08-20T14:56:52Z</time>
      </trkpt>
      <trkpt lat="51.143884649500251" lon="5.048437211662531">
        <ele>26.09</ele>
        <time>2022-08-20T14:56:55Z</time>
      </trkpt>
      <trkpt lat="51.143904766067863" lon="5.048373425379396">
        <ele>26.09</ele>
        <time>2022-08-20T14:56:56Z</time>
      </trkpt>
      <trkpt lat="51.144101321697235" lon="5.047499109059572">
        <ele>26.57</ele>
        <time>2022-08-20T14:57:09Z</time>
      </trkpt>
      <trkpt lat="51.144329812377691" lon="5.046493448317051">
        <ele>25.609999999999999</ele>
        <time>2022-08-20T14:57:24Z</time>
      </trkpt>
      <trkpt lat="51.144456546753645" lon="5.045919455587864">
        <ele>26.09</ele>
        <time>2022-08-20T14:57:32Z</time>
      </trkpt>
      <trkpt lat="51.144566852599382" lon="5.045556016266346">
        <ele>26.09</ele>
        <time>2022-08-20T14:57:37Z</time>
      </trkpt>
      <trkpt lat="51.14466249011457" lon="5.045088138431311">
        <ele>25.609999999999999</ele>
        <time>2022-08-20T14:57:44Z</time>
      </trkpt>
      <trkpt lat="51.144674560055137" lon="5.045026112347841">
        <ele>25.129999999999999</ele>
        <time>2022-08-20T14:57:45Z</time>
      </trkpt>
      <trkpt lat="51.144937835633755" lon="5.044114328920841">
        <ele>25.129999999999999</ele>
        <time>2022-08-20T14:57:59Z</time>
      </trkpt>
      <trkpt lat="51.145090302452445" lon="5.043513178825378">
        <ele>25.129999999999999</ele>
        <time>2022-08-20T14:58:11Z</time>
      </trkpt>
      <trkpt lat="51.145109832286835" lon="5.043344283476472">
        <ele>25.609999999999999</ele>
        <time>2022-08-20T14:58:20Z</time>
      </trkpt>
      <trkpt lat="51.145120644941926" lon="5.043303882703185">
        <ele>25.129999999999999</ele>
        <time>2022-08-20T14:58:22Z</time>
      </trkpt>
      <trkpt lat="51.145139085128903" lon="5.043234145268798">
        <ele>25.129999999999999</ele>
        <time>2022-08-20T14:58:26Z</time>
      </trkpt>
      <trkpt lat="51.145136738196015" lon="5.043218722566962">
        <ele>25.129999999999999</ele>
        <time>2022-08-20T14:58:27Z</time>
      </trkpt>
      <trkpt lat="51.145134139806032" lon="5.043179579079151">
        <ele>25.129999999999999</ele>
        <time>2022-08-20T14:58:29Z</time>
      </trkpt>
      <trkpt lat="51.145222233608365" lon="5.042710108682513">
        <ele>24.649999999999999</ele>
        <time>2022-08-20T14:58:40Z</time>
      </trkpt>
      <trkpt lat="51.14534854888916" lon="5.042201746255159">
        <ele>24.649999999999999</ele>
        <time>2022-08-20T14:58:47Z</time>
      </trkpt>
      <trkpt lat="51.145369838923216" lon="5.0421201903373">
        <ele>24.649999999999999</ele>
        <time>2022-08-20T14:58:48Z</time>
      </trkpt>
      <trkpt lat="51.145390626043081" lon="5.042043328285217">
        <ele>24.649999999999999</ele>
        <time>2022-08-20T14:58:49Z</time>
      </trkpt>
      <trkpt lat="51.145422644913197" lon="5.041891112923622">
        <ele>24.649999999999999</ele>
        <time>2022-08-20T14:58:51Z</time>
      </trkpt>
      <trkpt lat="51.145466985180974" lon="5.041144536808133">
        <ele>24.170000000000002</ele>
        <time>2022-08-20T14:59:02Z</time>
      </trkpt>
      <trkpt lat="51.145470924675465" lon="5.041071027517319">
        <ele>24.170000000000002</ele>
        <time>2022-08-20T14:59:03Z</time>
      </trkpt>
      <trkpt lat="51.145458268001676" lon="5.040261251851916">
        <ele>24.170000000000002</ele>
        <time>2022-08-20T14:59:15Z</time>
      </trkpt>
      <trkpt lat="51.145322816446424" lon="5.039403615519404">
        <ele>24.170000000000002</ele>
        <time>2022-08-20T14:59:28Z</time>
      </trkpt>
      <trkpt lat="51.145289288833737" lon="5.039193145930767">
        <ele>24.170000000000002</ele>
        <time>2022-08-20T14:59:31Z</time>
      </trkpt>
      <trkpt lat="51.145272944122553" lon="5.039125587791205">
        <ele>24.170000000000002</ele>
        <time>2022-08-20T14:59:32Z</time>
      </trkpt>
      <trkpt lat="51.145252743735909" lon="5.039062723517418">
        <ele>24.170000000000002</ele>
        <time>2022-08-20T14:59:33Z</time>
      </trkpt>
      <trkpt lat="51.145125003531575" lon="5.0387545209378">
        <ele>24.170000000000002</ele>
        <time>2022-08-20T14:59:38Z</time>
      </trkpt>
      <trkpt lat="51.145091727375984" lon="5.038697356358171">
        <ele>24.170000000000002</ele>
        <time>2022-08-20T14:59:39Z</time>
      </trkpt>
      <trkpt lat="51.144773131236434" lon="5.037902668118477">
        <ele>23.690000000000001</ele>
        <time>2022-08-20T14:59:52Z</time>
      </trkpt>
      <trkpt lat="51.144770532846451" lon="5.037781717255712">
        <ele>24.649999999999999</ele>
        <time>2022-08-20T15:00:57Z</time>
      </trkpt>
      <trkpt lat="51.144654108211398" lon="5.03778993152082">
        <ele>23.690000000000001</ele>
        <time>2022-08-20T15:01:35Z</time>
      </trkpt>
      <trkpt lat="51.144641116261482" lon="5.037790518254042">
        <ele>23.690000000000001</ele>
        <time>2022-08-20T15:01:36Z</time>
      </trkpt>
      <trkpt lat="51.144539024680853" lon="5.037789680063725">
        <ele>23.210000000000001</ele>
        <time>2022-08-20T15:01:46Z</time>
      </trkpt>
      <trkpt lat="51.144524775445461" lon="5.037786411121488">
        <ele>23.210000000000001</ele>
        <time>2022-08-20T15:01:47Z</time>
      </trkpt>
      <trkpt lat="51.144509268924594" lon="5.037784399464726">
        <ele>23.210000000000001</ele>
        <time>2022-08-20T15:01:48Z</time>
      </trkpt>
      <trkpt lat="51.144307097420096" lon="5.037792949005961">
        <ele>23.210000000000001</ele>
        <time>2022-08-20T15:02:03Z</time>
      </trkpt>
      <trkpt lat="51.144185476005077" lon="5.037817256525159">
        <ele>22.73</ele>
        <time>2022-08-20T15:02:14Z</time>
      </trkpt>
      <trkpt lat="51.144131999462843" lon="5.037817591801286">
        <ele>22.73</ele>
        <time>2022-08-20T15:02:19Z</time>
      </trkpt>
      <trkpt lat="51.144120683893561" lon="5.037811221554875">
        <ele>22.73</ele>
        <time>2022-08-20T15:02:20Z</time>
      </trkpt>
      <trkpt lat="51.144100818783045" lon="5.037807365879417">
        <ele>22.73</ele>
        <time>2022-08-20T15:02:22Z</time>
      </trkpt>
      <trkpt lat="51.144087994471192" lon="5.037809461355209">
        <ele>22.25</ele>
        <time>2022-08-20T15:02:23Z</time>
      </trkpt>
      <trkpt lat="51.144074834883213" lon="5.037811640650034">
        <ele>22.73</ele>
        <time>2022-08-20T15:02:24Z</time>
      </trkpt>
      <trkpt lat="51.144063854590058" lon="5.037814574316144">
        <ele>22.73</ele>
        <time>2022-08-20T15:02:25Z</time>
      </trkpt>
      <trkpt lat="51.143973832949996" lon="5.037801833823323">
        <ele>22.73</ele>
        <time>2022-08-20T15:02:33Z</time>
      </trkpt>
      <trkpt lat="51.143798315897584" lon="5.037741735577583">
        <ele>23.210000000000001</ele>
        <time>2022-08-20T15:02:47Z</time>
      </trkpt>
      <trkpt lat="51.143694715574384" lon="5.037687253206968">
        <ele>22.73</ele>
        <time>2022-08-20T15:02:56Z</time>
      </trkpt>
      <trkpt lat="51.143478965386748" lon="5.037582647055388">
        <ele>22.73</ele>
        <time>2022-08-20T15:03:14Z</time>
      </trkpt>
      <trkpt lat="51.143313590437174" lon="5.037511317059398">
        <ele>22.25</ele>
        <time>2022-08-20T15:03:29Z</time>
      </trkpt>
      <trkpt lat="51.143284421414137" lon="5.037499498575926">
        <ele>22.25</ele>
        <time>2022-08-20T15:03:32Z</time>
      </trkpt>
      <trkpt lat="51.143190795555711" lon="5.037455493584275">
        <ele>21.77</ele>
        <time>2022-08-20T15:03:39Z</time>
      </trkpt>
      <trkpt lat="51.1431775521487" lon="5.037451470270753">
        <ele>22.25</ele>
        <time>2022-08-20T15:03:40Z</time>
      </trkpt>
      <trkpt lat="51.142994239926338" lon="5.03734091296792">
        <ele>21.289999999999999</ele>
        <time>2022-08-20T15:03:55Z</time>
      </trkpt>
      <trkpt lat="51.142797684296966" lon="5.037247538566589">
        <ele>20.809999999999999</ele>
        <time>2022-08-20T15:04:11Z</time>
      </trkpt>
      <trkpt lat="51.142577575519681" lon="5.037230439484119">
        <ele>21.289999999999999</ele>
        <time>2022-08-20T15:04:26Z</time>
      </trkpt>
      <trkpt lat="51.142367944121361" lon="5.037247790023685">
        <ele>20.809999999999999</ele>
        <time>2022-08-20T15:04:41Z</time>
      </trkpt>
      <trkpt lat="51.14221983589232" lon="5.037309983745217">
        <ele>20.32</ele>
        <time>2022-08-20T15:04:54Z</time>
      </trkpt>
      <trkpt lat="51.142002996057272" lon="5.037373434752226">
        <ele>20.809999999999999</ele>
        <time>2022-08-20T15:05:09Z</time>
      </trkpt>
      <trkpt lat="51.141785820946097" lon="5.037479382008314">
        <ele>20.32</ele>
        <time>2022-08-20T15:05:26Z</time>
      </trkpt>
      <trkpt lat="51.141587756574154" lon="5.03756077028811">
        <ele>20.809999999999999</ele>
        <time>2022-08-20T15:05:41Z</time>
      </trkpt>
      <trkpt lat="51.141530005261302" lon="5.037627490237355">
        <ele>20.809999999999999</ele>
        <time>2022-08-20T15:05:46Z</time>
      </trkpt>
      <trkpt lat="51.141526903957129" lon="5.03764777444303">
        <ele>20.32</ele>
        <time>2022-08-20T15:05:47Z</time>
      </trkpt>
      <trkpt lat="51.141526903957129" lon="5.037669902667403">
        <ele>20.32</ele>
        <time>2022-08-20T15:05:48Z</time>
      </trkpt>
      <trkpt lat="51.141524976119399" lon="5.038037030026317">
        <ele>20.32</ele>
        <time>2022-08-20T15:06:04Z</time>
      </trkpt>
      <trkpt lat="51.141523886471987" lon="5.038064271211624">
        <ele>20.32</ele>
        <time>2022-08-20T15:06:05Z</time>
      </trkpt>
      <trkpt lat="51.141546852886677" lon="5.038463417440653">
        <ele>20.32</ele>
        <time>2022-08-20T15:06:22Z</time>
      </trkpt>
      <trkpt lat="51.141565293073654" lon="5.038802968338132">
        <ele>20.32</ele>
        <time>2022-08-20T15:06:38Z</time>
      </trkpt>
      <trkpt lat="51.141558922827244" lon="5.039091221988201">
        <ele>20.32</ele>
        <time>2022-08-20T15:06:52Z</time>
      </trkpt>
      <trkpt lat="51.141552720218897" lon="5.039109494537115">
        <ele>20.809999999999999</ele>
        <time>2022-08-20T15:06:53Z</time>
      </trkpt>
      <trkpt lat="51.141547691076994" lon="5.039127264171839">
        <ele>20.32</ele>
        <time>2022-08-20T15:06:54Z</time>
      </trkpt>
      <trkpt lat="51.141544254496694" lon="5.039146458730102">
        <ele>20.32</ele>
        <time>2022-08-20T15:06:55Z</time>
      </trkpt>
      <trkpt lat="51.141542159020901" lon="5.039165820926428">
        <ele>20.32</ele>
        <time>2022-08-20T15:06:56Z</time>
      </trkpt>
      <trkpt lat="51.141537884250283" lon="5.039183842018247">
        <ele>20.32</ele>
        <time>2022-08-20T15:06:57Z</time>
      </trkpt>
      <trkpt lat="51.141530089080334" lon="5.039197085425258">
        <ele>20.32</ele>
        <time>2022-08-20T15:06:58Z</time>
      </trkpt>
      <trkpt lat="51.141442498192191" lon="5.039261290803552">
        <ele>20.32</ele>
        <time>2022-08-20T15:07:06Z</time>
      </trkpt>
      <trkpt lat="51.141246445477009" lon="5.039377044886351">
        <ele>20.32</ele>
        <time>2022-08-20T15:07:22Z</time>
      </trkpt>
      <trkpt lat="51.141170421615243" lon="5.039416356012225">
        <ele>20.32</ele>
        <time>2022-08-20T15:07:28Z</time>
      </trkpt>
      <trkpt lat="51.141157178208232" lon="5.039424737915397">
        <ele>20.809999999999999</ele>
        <time>2022-08-20T15:07:29Z</time>
      </trkpt>
      <trkpt lat="51.140937991440296" lon="5.039583155885339">
        <ele>20.809999999999999</ele>
        <time>2022-08-20T15:07:44Z</time>
      </trkpt>
      <trkpt lat="51.140730455517769" lon="5.039772586897016">
        <ele>21.77</ele>
        <time>2022-08-20T15:08:01Z</time>
      </trkpt>
      <trkpt lat="51.140481345355511" lon="5.039908122271299">
        <ele>21.289999999999999</ele>
        <time>2022-08-20T15:08:20Z</time>
      </trkpt>
      <trkpt lat="51.140289902687073" lon="5.040019350126386">
        <ele>21.289999999999999</ele>
        <time>2022-08-20T15:08:35Z</time>
      </trkpt>
      <trkpt lat="51.140105333179235" lon="5.040090177208185">
        <ele>21.289999999999999</ele>
        <time>2022-08-20T15:08:50Z</time>
      </trkpt>
      <trkpt lat="51.139915650710464" lon="5.040226047858596">
        <ele>20.809999999999999</ele>
        <time>2022-08-20T15:09:07Z</time>
      </trkpt>
      <trkpt lat="51.139751197770238" lon="5.040305256843567">
        <ele>21.289999999999999</ele>
        <time>2022-08-20T15:09:22Z</time>
      </trkpt>
      <trkpt lat="51.139500662684441" lon="5.040448000654578">
        <ele>20.809999999999999</ele>
        <time>2022-08-20T15:09:39Z</time>
      </trkpt>
      <trkpt lat="51.139311986044049" lon="5.04057222045958">
        <ele>20.809999999999999</ele>
        <time>2022-08-20T15:09:55Z</time>
      </trkpt>
      <trkpt lat="51.139153065159917" lon="5.040684454143047">
        <ele>20.32</ele>
        <time>2022-08-20T15:10:08Z</time>
      </trkpt>
      <trkpt lat="51.138965142890811" lon="5.040785958990455">
        <ele>20.32</ele>
        <time>2022-08-20T15:10:22Z</time>
      </trkpt>
      <trkpt lat="51.138797588646412" lon="5.040880590677261">
        <ele>20.32</ele>
        <time>2022-08-20T15:10:35Z</time>
      </trkpt>
      <trkpt lat="51.138783674687147" lon="5.040882518514991">
        <ele>20.32</ele>
        <time>2022-08-20T15:10:36Z</time>
      </trkpt>
      <trkpt lat="51.138617293909192" lon="5.041009336709976">
        <ele>20.809999999999999</ele>
        <time>2022-08-20T15:10:49Z</time>
      </trkpt>
      <trkpt lat="51.138434568420053" lon="5.041130622848868">
        <ele>20.809999999999999</ele>
        <time>2022-08-20T15:11:05Z</time>
      </trkpt>
      <trkpt lat="51.138261649757624" lon="5.041299434378743">
        <ele>20.809999999999999</ele>
        <time>2022-08-20T15:11:21Z</time>
      </trkpt>
      <trkpt lat="51.138079343363643" lon="5.041479729115963">
        <ele>20.809999999999999</ele>
        <time>2022-08-20T15:11:34Z</time>
      </trkpt>
      <trkpt lat="51.137908520177007" lon="5.041703106835485">
        <ele>20.809999999999999</ele>
        <time>2022-08-20T15:11:49Z</time>
      </trkpt>
      <trkpt lat="51.137721436098218" lon="5.041889352723956">
        <ele>20.809999999999999</ele>
        <time>2022-08-20T15:12:04Z</time>
      </trkpt>
      <trkpt lat="51.137557737529278" lon="5.042042741551995">
        <ele>21.289999999999999</ele>
        <time>2022-08-20T15:12:19Z</time>
      </trkpt>
      <trkpt lat="51.13740342669189" lon="5.042200153693557">
        <ele>21.289999999999999</ele>
        <time>2022-08-20T15:12:32Z</time>
      </trkpt>
      <trkpt lat="51.137262275442481" lon="5.042332671582699">
        <ele>21.289999999999999</ele>
        <time>2022-08-20T15:12:42Z</time>
      </trkpt>
      <trkpt lat="51.137251546606421" lon="5.042349519208074">
        <ele>21.289999999999999</ele>
        <time>2022-08-20T15:12:43Z</time>
      </trkpt>
      <trkpt lat="51.137038730084896" lon="5.042535848915577">
        <ele>20.809999999999999</ele>
        <time>2022-08-20T15:12:58Z</time>
      </trkpt>
      <trkpt lat="51.136891962960362" lon="5.04270650446415">
        <ele>21.289999999999999</ele>
        <time>2022-08-20T15:13:13Z</time>
      </trkpt>
      <trkpt lat="51.136691132560372" lon="5.042903898283839">
        <ele>21.289999999999999</ele>
        <time>2022-08-20T15:13:30Z</time>
      </trkpt>
      <trkpt lat="51.136553836986423" lon="5.043068937957287">
        <ele>21.77</ele>
        <time>2022-08-20T15:13:43Z</time>
      </trkpt>
      <trkpt lat="51.136541934683919" lon="5.043078577145934">
        <ele>21.77</ele>
        <time>2022-08-20T15:13:44Z</time>
      </trkpt>
      <trkpt lat="51.136465659365058" lon="5.043155942112207">
        <ele>21.77</ele>
        <time>2022-08-20T15:13:52Z</time>
      </trkpt>
      <trkpt lat="51.136455684900284" lon="5.043170610442758">
        <ele>21.289999999999999</ele>
        <time>2022-08-20T15:13:53Z</time>
      </trkpt>
      <trkpt lat="51.136346971616149" lon="5.043544946238399">
        <ele>21.289999999999999</ele>
        <time>2022-08-20T15:14:10Z</time>
      </trkpt>
      <trkpt lat="51.136299027130008" lon="5.043964544311166">
        <ele>21.289999999999999</ele>
        <time>2022-08-20T15:14:25Z</time>
      </trkpt>
      <trkpt lat="51.136236330494285" lon="5.044409204274416">
        <ele>20.809999999999999</ele>
        <time>2022-08-20T15:14:42Z</time>
      </trkpt>
      <trkpt lat="51.136185703799129" lon="5.04485403187573">
        <ele>20.32</ele>
        <time>2022-08-20T15:14:59Z</time>
      </trkpt>
      <trkpt lat="51.136178579181433" lon="5.044895019382238">
        <ele>20.32</ele>
        <time>2022-08-20T15:15:01Z</time>
      </trkpt>
      <trkpt lat="51.136170867830515" lon="5.044911447912455">
        <ele>20.809999999999999</ele>
        <time>2022-08-20T15:15:02Z</time>
      </trkpt>
      <trkpt lat="51.136124348267913" lon="5.045197186991572">
        <ele>20.809999999999999</ele>
        <time>2022-08-20T15:15:16Z</time>
      </trkpt>
      <trkpt lat="51.136045306921005" lon="5.045598093420267">
        <ele>21.289999999999999</ele>
        <time>2022-08-20T15:15:32Z</time>
      </trkpt>
      <trkpt lat="51.136007085442543" lon="5.045912833884358">
        <ele>21.289999999999999</ele>
        <time>2022-08-20T15:15:46Z</time>
      </trkpt>
      <trkpt lat="51.135974312201142" lon="5.046349866315723">
        <ele>20.809999999999999</ele>
        <time>2022-08-20T15:16:04Z</time>
      </trkpt>
      <trkpt lat="51.13594438880682" lon="5.046792179346085">
        <ele>21.77</ele>
        <time>2022-08-20T15:16:22Z</time>
      </trkpt>
      <trkpt lat="51.135918907821178" lon="5.047080432996154">
        <ele>22.73</ele>
        <time>2022-08-20T15:16:40Z</time>
      </trkpt>
      <trkpt lat="51.135925864800811" lon="5.047066519036889">
        <ele>21.77</ele>
        <time>2022-08-20T15:17:02Z</time>
      </trkpt>
      <trkpt lat="51.135864844545722" lon="5.047204066067934">
        <ele>21.289999999999999</ele>
        <time>2022-08-20T15:17:24Z</time>
      </trkpt>
      <trkpt lat="51.135664349421859" lon="5.047520650550723">
        <ele>22.25</ele>
        <time>2022-08-20T15:17:42Z</time>
      </trkpt>
      <trkpt lat="51.135502913966775" lon="5.047737155109644">
        <ele>22.25</ele>
        <time>2022-08-20T15:17:57Z</time>
      </trkpt>
      <trkpt lat="51.135337287560105" lon="5.047960868105292">
        <ele>21.289999999999999</ele>
        <time>2022-08-20T15:18:13Z</time>
      </trkpt>
      <trkpt lat="51.135143917053938" lon="5.048358757048845">
        <ele>20.809999999999999</ele>
        <time>2022-08-20T15:18:34Z</time>
      </trkpt>
      <trkpt lat="51.135054901242256" lon="5.048772571608424">
        <ele>20.809999999999999</ele>
        <time>2022-08-20T15:18:52Z</time>
      </trkpt>
      <trkpt lat="51.135047357529402" lon="5.048930738121271">
        <ele>20.809999999999999</ele>
        <time>2022-08-20T15:18:58Z</time>
      </trkpt>
      <trkpt lat="51.135042496025562" lon="5.048957895487547">
        <ele>20.809999999999999</ele>
        <time>2022-08-20T15:18:59Z</time>
      </trkpt>
      <trkpt lat="51.135033359751105" lon="5.048984466120601">
        <ele>20.809999999999999</ele>
        <time>2022-08-20T15:19:00Z</time>
      </trkpt>
      <trkpt lat="51.134937554597855" lon="5.049397693946958">
        <ele>20.809999999999999</ele>
        <time>2022-08-20T15:19:15Z</time>
      </trkpt>
      <trkpt lat="51.134830182418227" lon="5.050129937008023">
        <ele>20.809999999999999</ele>
        <time>2022-08-20T15:19:29Z</time>
      </trkpt>
      <trkpt lat="51.134690791368484" lon="5.050741732120514">
        <ele>21.77</ele>
        <time>2022-08-20T15:19:41Z</time>
      </trkpt>
      <trkpt lat="51.134760864078999" lon="5.051311533898115">
        <ele>21.77</ele>
        <time>2022-08-20T15:20:04Z</time>
      </trkpt>
      <trkpt lat="51.134876785799861" lon="5.051824254915118">
        <ele>21.77</ele>
        <time>2022-08-20T15:20:27Z</time>
      </trkpt>
      <trkpt lat="51.135043585672975" lon="5.052104126662016">
        <ele>21.289999999999999</ele>
        <time>2022-08-20T15:20:46Z</time>
      </trkpt>
      <trkpt lat="51.135364947840571" lon="5.051946798339486">
        <ele>20.809999999999999</ele>
        <time>2022-08-20T15:21:08Z</time>
      </trkpt>
      <trkpt lat="51.135624283924699" lon="5.051815789192915">
        <ele>21.289999999999999</ele>
        <time>2022-08-20T15:21:28Z</time>
      </trkpt>
      <trkpt lat="51.135888062417507" lon="5.051635829731822">
        <ele>21.289999999999999</ele>
        <time>2022-08-20T15:21:49Z</time>
      </trkpt>
      <trkpt lat="51.136145386844873" lon="5.051489984616637">
        <ele>21.289999999999999</ele>
        <time>2022-08-20T15:22:09Z</time>
      </trkpt>
      <trkpt lat="51.136378822848201" lon="5.051384959369898">
        <ele>21.289999999999999</ele>
        <time>2022-08-20T15:22:27Z</time>
      </trkpt>
      <trkpt lat="51.136588957160711" lon="5.051442291587591">
        <ele>21.77</ele>
        <time>2022-08-20T15:22:43Z</time>
      </trkpt>
      <trkpt lat="51.136820213869214" lon="5.051528876647353">
        <ele>20.809999999999999</ele>
        <time>2022-08-20T15:22:57Z</time>
      </trkpt>
      <trkpt lat="51.137183653190732" lon="5.051583442837">
        <ele>21.289999999999999</ele>
        <time>2022-08-20T15:23:20Z</time>
      </trkpt>
      <trkpt lat="51.137348273769021" lon="5.051488475874066">
        <ele>20.809999999999999</ele>
        <time>2022-08-20T15:23:34Z</time>
      </trkpt>
      <trkpt lat="51.137571735307574" lon="5.051286388188601">
        <ele>20.809999999999999</ele>
        <time>2022-08-20T15:23:47Z</time>
      </trkpt>
      <trkpt lat="51.138012791052461" lon="5.051007270812988">
        <ele>21.289999999999999</ele>
        <time>2022-08-20T15:24:00Z</time>
      </trkpt>
      <trkpt lat="51.138456948101521" lon="5.050917332991958">
        <ele>20.809999999999999</ele>
        <time>2022-08-20T15:24:11Z</time>
      </trkpt>
      <trkpt lat="51.13878233358264" lon="5.050481138750911">
        <ele>21.289999999999999</ele>
        <time>2022-08-20T15:24:23Z</time>
      </trkpt>
      <trkpt lat="51.138899344950914" lon="5.050299083814025">
        <ele>21.289999999999999</ele>
        <time>2022-08-20T15:24:28Z</time>
      </trkpt>
      <trkpt lat="51.138919712975621" lon="5.050254492089152">
        <ele>21.77</ele>
        <time>2022-08-20T15:24:29Z</time>
      </trkpt>
      <trkpt lat="51.138943517580628" lon="5.050211157649756">
        <ele>21.77</ele>
        <time>2022-08-20T15:24:30Z</time>
      </trkpt>
      <trkpt lat="51.138965729624033" lon="5.050168829038739">
        <ele>21.77</ele>
        <time>2022-08-20T15:24:31Z</time>
      </trkpt>
      <trkpt lat="51.13898559473455" lon="5.050128344446421">
        <ele>21.77</ele>
        <time>2022-08-20T15:24:32Z</time>
      </trkpt>
      <trkpt lat="51.139262868091464" lon="5.049618054181337">
        <ele>20.809999999999999</ele>
        <time>2022-08-20T15:24:43Z</time>
      </trkpt>
      <trkpt lat="51.139790341258049" lon="5.049240197986364">
        <ele>20.32</ele>
        <time>2022-08-20T15:24:55Z</time>
      </trkpt>
      <trkpt lat="51.140198791399598" lon="5.049021681770682">
        <ele>20.32</ele>
        <time>2022-08-20T15:25:06Z</time>
      </trkpt>
      <trkpt lat="51.140447733923793" lon="5.048757987096906">
        <ele>21.289999999999999</ele>
        <time>2022-08-20T15:25:16Z</time>
      </trkpt>
      <trkpt lat="51.140591064468026" lon="5.048575345426798">
        <ele>21.289999999999999</ele>
        <time>2022-08-20T15:25:28Z</time>
      </trkpt>
      <trkpt lat="51.140752164646983" lon="5.048370743170381">
        <ele>21.289999999999999</ele>
        <time>2022-08-20T15:25:42Z</time>
      </trkpt>
      <trkpt lat="51.140888370573521" lon="5.048147700726986">
        <ele>21.289999999999999</ele>
        <time>2022-08-20T15:25:57Z</time>
      </trkpt>
      <trkpt lat="51.140966909006238" lon="5.047979643568397">
        <ele>21.289999999999999</ele>
        <time>2022-08-20T15:26:05Z</time>
      </trkpt>
      <trkpt lat="51.140974033623934" lon="5.047960449010134">
        <ele>21.289999999999999</ele>
        <time>2022-08-20T15:26:06Z</time>
      </trkpt>
      <trkpt lat="51.141050895676017" lon="5.047754505649209">
        <ele>21.77</ele>
        <time>2022-08-20T15:26:17Z</time>
      </trkpt>
      <trkpt lat="51.141110071912408" lon="5.047511598095298">
        <ele>22.25</ele>
        <time>2022-08-20T15:26:31Z</time>
      </trkpt>
      <trkpt lat="51.141143767163157" lon="5.047319065779448">
        <ele>22.73</ele>
        <time>2022-08-20T15:26:40Z</time>
      </trkpt>
      <trkpt lat="51.141145778819919" lon="5.047237258404493">
        <ele>22.73</ele>
        <time>2022-08-20T15:26:44Z</time>
      </trkpt>
      <trkpt lat="51.141127673909068" lon="5.046745743602514">
        <ele>21.77</ele>
        <time>2022-08-20T15:26:53Z</time>
      </trkpt>
      <trkpt lat="51.141080902889371" lon="5.046094469726086">
        <ele>21.289999999999999</ele>
        <time>2022-08-20T15:27:06Z</time>
      </trkpt>
      <trkpt lat="51.141091967001557" lon="5.046029174700379">
        <ele>20.809999999999999</ele>
        <time>2022-08-20T15:27:09Z</time>
      </trkpt>
      <trkpt lat="51.141106886789203" lon="5.046009896323085">
        <ele>20.809999999999999</ele>
        <time>2022-08-20T15:27:10Z</time>
      </trkpt>
      <trkpt lat="51.141125913709402" lon="5.045994808897376">
        <ele>20.809999999999999</ele>
        <time>2022-08-20T15:27:11Z</time>
      </trkpt>
      <trkpt lat="51.141144186258316" lon="5.045984415337443">
        <ele>20.809999999999999</ele>
        <time>2022-08-20T15:27:12Z</time>
      </trkpt>
      <trkpt lat="51.14116195589304" lon="5.045985756441951">
        <ele>20.32</ele>
        <time>2022-08-20T15:27:13Z</time>
      </trkpt>
      <trkpt lat="51.141177462413907" lon="5.046000592410564">
        <ele>20.809999999999999</ele>
        <time>2022-08-20T15:27:14Z</time>
      </trkpt>
      <trkpt lat="51.141196908429265" lon="5.046010985970497">
        <ele>20.809999999999999</ele>
        <time>2022-08-20T15:27:15Z</time>
      </trkpt>
      <trkpt lat="51.141604939475656" lon="5.046232268214226">
        <ele>21.289999999999999</ele>
        <time>2022-08-20T15:27:26Z</time>
      </trkpt>
      <trkpt lat="51.141727063804865" lon="5.046297227963805">
        <ele>21.289999999999999</ele>
        <time>2022-08-20T15:27:29Z</time>
      </trkpt>
      <trkpt lat="51.142135094851255" lon="5.046472996473312">
        <ele>21.77</ele>
        <time>2022-08-20T15:27:40Z</time>
      </trkpt>
      <trkpt lat="51.142581012099981" lon="5.046696793287993">
        <ele>22.25</ele>
        <time>2022-08-20T15:27:51Z</time>
      </trkpt>
      <trkpt lat="51.143034473061562" lon="5.046936431899667">
        <ele>22.73</ele>
        <time>2022-08-20T15:28:03Z</time>
      </trkpt>
      <trkpt lat="51.143085770308971" lon="5.046953279525042">
        <ele>22.73</ele>
        <time>2022-08-20T15:28:04Z</time>
      </trkpt>
      <trkpt lat="51.143533866852522" lon="5.047057550400496">
        <ele>22.73</ele>
        <time>2022-08-20T15:28:13Z</time>
      </trkpt>
      <trkpt lat="51.144028399139643" lon="5.047081606462598">
        <ele>23.210000000000001</ele>
        <time>2022-08-20T15:28:24Z</time>
      </trkpt>
      <trkpt lat="51.144349090754986" lon="5.04691606387496">
        <ele>23.210000000000001</ele>
        <time>2022-08-20T15:28:40Z</time>
      </trkpt>
      <trkpt lat="51.144368955865502" lon="5.046908939257264">
        <ele>22.73</ele>
        <time>2022-08-20T15:28:41Z</time>
      </trkpt>
      <trkpt lat="51.144589819014072" lon="5.046889493241906">
        <ele>22.73</ele>
        <time>2022-08-20T15:28:56Z</time>
      </trkpt>
      <trkpt lat="51.144784530624747" lon="5.046914471313357">
        <ele>22.73</ele>
        <time>2022-08-20T15:29:09Z</time>
      </trkpt>
      <trkpt lat="51.145004723221064" lon="5.04691556096077">
        <ele>23.690000000000001</ele>
        <time>2022-08-20T15:29:25Z</time>
      </trkpt>
      <trkpt lat="51.145111760124564" lon="5.046819169074297">
        <ele>23.690000000000001</ele>
        <time>2022-08-20T15:29:34Z</time>
      </trkpt>
      <trkpt lat="51.145193064585328" lon="5.046723950654268">
        <ele>22.73</ele>
        <time>2022-08-20T15:29:40Z</time>
      </trkpt>
      <trkpt lat="51.145278727635741" lon="5.046533681452274">
        <ele>22.73</ele>
        <time>2022-08-20T15:29:52Z</time>
      </trkpt>
      <trkpt lat="51.145282248035073" lon="5.046513816341758">
        <ele>22.25</ele>
        <time>2022-08-20T15:29:53Z</time>
      </trkpt>
      <trkpt lat="51.145287696272135" lon="5.0464943703264">
        <ele>22.25</ele>
        <time>2022-08-20T15:29:54Z</time>
      </trkpt>
      <trkpt lat="51.145360870286822" lon="5.046275267377496">
        <ele>21.77</ele>
        <time>2022-08-20T15:30:04Z</time>
      </trkpt>
      <trkpt lat="51.145373526960611" lon="5.046252049505711">
        <ele>22.25</ele>
        <time>2022-08-20T15:30:05Z</time>
      </trkpt>
      <trkpt lat="51.145540410652757" lon="5.045980894938111">
        <ele>22.25</ele>
        <time>2022-08-20T15:30:21Z</time>
      </trkpt>
      <trkpt lat="51.14565440453589" lon="5.045816861093044">
        <ele>22.73</ele>
        <time>2022-08-20T15:30:34Z</time>
      </trkpt>
      <trkpt lat="51.145832100883126" lon="5.045591471716762">
        <ele>22.25</ele>
        <time>2022-08-20T15:30:49Z</time>
      </trkpt>
      <trkpt lat="51.145931845530868" lon="5.04531042650342">
        <ele>22.73</ele>
        <time>2022-08-20T15:31:06Z</time>
      </trkpt>
      <trkpt lat="51.145939808338881" lon="5.04528796300292">
        <ele>22.25</ele>
        <time>2022-08-20T15:31:07Z</time>
      </trkpt>
      <trkpt lat="51.145980041474104" lon="5.045070284977555">
        <ele>22.25</ele>
        <time>2022-08-20T15:31:20Z</time>
      </trkpt>
      <trkpt lat="51.145986746996641" lon="5.044777086004615">
        <ele>21.77</ele>
        <time>2022-08-20T15:31:34Z</time>
      </trkpt>
      <trkpt lat="51.145991021767259" lon="5.044597964733839">
        <ele>21.289999999999999</ele>
        <time>2022-08-20T15:31:41Z</time>
      </trkpt>
      <trkpt lat="51.145988423377275" lon="5.044577093794942">
        <ele>21.289999999999999</ele>
        <time>2022-08-20T15:31:42Z</time>
      </trkpt>
      <trkpt lat="51.145921787247062" lon="5.044312728568912">
        <ele>21.289999999999999</ele>
        <time>2022-08-20T15:31:56Z</time>
      </trkpt>
      <trkpt lat="51.146004851907492" lon="5.044117011129856">
        <ele>21.289999999999999</ele>
        <time>2022-08-20T15:32:10Z</time>
      </trkpt>
      <trkpt lat="51.146011976525187" lon="5.04409815184772">
        <ele>20.809999999999999</ele>
        <time>2022-08-20T15:32:11Z</time>
      </trkpt>
      <trkpt lat="51.146019604057074" lon="5.044078202918172">
        <ele>20.809999999999999</ele>
        <time>2022-08-20T15:32:12Z</time>
      </trkpt>
      <trkpt lat="51.14602723158896" lon="5.044057164341211">
        <ele>20.809999999999999</ele>
        <time>2022-08-20T15:32:13Z</time>
      </trkpt>
      <trkpt lat="51.146097471937537" lon="5.043737227097154">
        <ele>20.809999999999999</ele>
        <time>2022-08-20T15:32:29Z</time>
      </trkpt>
      <trkpt lat="51.146179614588618" lon="5.043336153030396">
        <ele>19.84</ele>
        <time>2022-08-20T15:32:48Z</time>
      </trkpt>
      <trkpt lat="51.146197719499469" lon="5.043027531355619">
        <ele>19.84</ele>
        <time>2022-08-20T15:33:02Z</time>
      </trkpt>
      <trkpt lat="51.146214483305812" lon="5.042698374018073">
        <ele>20.809999999999999</ele>
        <time>2022-08-20T15:33:18Z</time>
      </trkpt>
      <trkpt lat="51.146279945969582" lon="5.042372401803732">
        <ele>20.32</ele>
        <time>2022-08-20T15:33:32Z</time>
      </trkpt>
      <trkpt lat="51.146309701725841" lon="5.042122201994062">
        <ele>20.809999999999999</ele>
        <time>2022-08-20T15:33:45Z</time>
      </trkpt>
      <trkpt lat="51.146323699504137" lon="5.04191592335701">
        <ele>21.289999999999999</ele>
        <time>2022-08-20T15:33:58Z</time>
      </trkpt>
      <trkpt lat="51.146309031173587" lon="5.041835960000753">
        <ele>20.809999999999999</ele>
        <time>2022-08-20T15:34:05Z</time>
      </trkpt>
      <trkpt lat="51.146323699504137" lon="5.041709896177054">
        <ele>21.289999999999999</ele>
        <time>2022-08-20T15:34:13Z</time>
      </trkpt>
      <trkpt lat="51.146326465532184" lon="5.041690031066537">
        <ele>21.289999999999999</ele>
        <time>2022-08-20T15:34:14Z</time>
      </trkpt>
      <trkpt lat="51.146345576271415" lon="5.041532116010785">
        <ele>21.77</ele>
        <time>2022-08-20T15:34:22Z</time>
      </trkpt>
      <trkpt lat="51.146347001194954" lon="5.041509736329317">
        <ele>21.77</ele>
        <time>2022-08-20T15:34:23Z</time>
      </trkpt>
      <trkpt lat="51.146349934861064" lon="5.041487105190754">
        <ele>21.77</ele>
        <time>2022-08-20T15:34:24Z</time>
      </trkpt>
      <trkpt lat="51.146350773051381" lon="5.041192313656211">
        <ele>21.289999999999999</ele>
        <time>2022-08-20T15:34:38Z</time>
      </trkpt>
      <trkpt lat="51.146327387541533" lon="5.040907161310315">
        <ele>20.809999999999999</ele>
        <time>2022-08-20T15:34:52Z</time>
      </trkpt>
      <trkpt lat="51.146290004253387" lon="5.04054238088429">
        <ele>21.289999999999999</ele>
        <time>2022-08-20T15:35:08Z</time>
      </trkpt>
      <trkpt lat="51.146286316215992" lon="5.040238704532385">
        <ele>20.809999999999999</ele>
        <time>2022-08-20T15:35:23Z</time>
      </trkpt>
      <trkpt lat="51.146281370893121" lon="5.039936704561114">
        <ele>21.289999999999999</ele>
        <time>2022-08-20T15:35:38Z</time>
      </trkpt>
      <trkpt lat="51.146275503560901" lon="5.039601512253285">
        <ele>20.809999999999999</ele>
        <time>2022-08-20T15:35:55Z</time>
      </trkpt>
      <trkpt lat="51.146245077252388" lon="5.039374697953463">
        <ele>21.289999999999999</ele>
        <time>2022-08-20T15:36:06Z</time>
      </trkpt>
      <trkpt lat="51.146238707005978" lon="5.039278976619244">
        <ele>20.809999999999999</ele>
        <time>2022-08-20T15:36:11Z</time>
      </trkpt>
      <trkpt lat="51.146235018968582" lon="5.039253495633602">
        <ele>20.809999999999999</ele>
        <time>2022-08-20T15:36:12Z</time>
      </trkpt>
      <trkpt lat="51.146231833845377" lon="5.039224997162819">
        <ele>20.809999999999999</ele>
        <time>2022-08-20T15:36:13Z</time>
      </trkpt>
      <trkpt lat="51.146231330931187" lon="5.039202030748129">
        <ele>20.809999999999999</ele>
        <time>2022-08-20T15:36:14Z</time>
      </trkpt>
      <trkpt lat="51.146228816360235" lon="5.039180908352137">
        <ele>20.809999999999999</ele>
        <time>2022-08-20T15:36:15Z</time>
      </trkpt>
      <trkpt lat="51.146224625408649" lon="5.039154840633273">
        <ele>20.32</ele>
        <time>2022-08-20T15:36:16Z</time>
      </trkpt>
      <trkpt lat="51.146220769733191" lon="5.039127599447966">
        <ele>20.809999999999999</ele>
        <time>2022-08-20T15:36:17Z</time>
      </trkpt>
      <trkpt lat="51.146207274869084" lon="5.038886200636625">
        <ele>20.809999999999999</ele>
        <time>2022-08-20T15:36:30Z</time>
      </trkpt>
      <trkpt lat="51.146169891580939" lon="5.038519911468029">
        <ele>21.289999999999999</ele>
        <time>2022-08-20T15:36:45Z</time>
      </trkpt>
      <trkpt lat="51.146146841347218" lon="5.038201902061701">
        <ele>20.809999999999999</ele>
        <time>2022-08-20T15:37:00Z</time>
      </trkpt>
      <trkpt lat="51.146127060055733" lon="5.037883808836341">
        <ele>20.809999999999999</ele>
        <time>2022-08-20T15:37:15Z</time>
      </trkpt>
      <trkpt lat="51.14611423574388" lon="5.037691444158554">
        <ele>21.77</ele>
        <time>2022-08-20T15:37:28Z</time>
      </trkpt>
      <trkpt lat="51.146134184673429" lon="5.037606619298458">
        <ele>21.77</ele>
        <time>2022-08-20T15:37:42Z</time>
      </trkpt>
      <trkpt lat="51.146142147481441" lon="5.037571080029011">
        <ele>21.77</ele>
        <time>2022-08-20T15:37:58Z</time>
      </trkpt>
      <trkpt lat="51.146095460280776" lon="5.037531852722168">
        <ele>22.25</ele>
        <time>2022-08-20T15:38:09Z</time>
      </trkpt>
      <trkpt lat="51.146009713411331" lon="5.037549789994955">
        <ele>22.25</ele>
        <time>2022-08-20T15:38:20Z</time>
      </trkpt>
      <trkpt lat="51.145986579358578" lon="5.037556746974587">
        <ele>22.25</ele>
        <time>2022-08-20T15:38:41Z</time>
      </trkpt>
      <trkpt lat="51.145981885492802" lon="5.037491451948881">
        <ele>22.25</ele>
        <time>2022-08-20T15:39:05Z</time>
      </trkpt>
      <trkpt lat="51.145972246304154" lon="5.037428336218">
        <ele>22.25</ele>
        <time>2022-08-20T15:39:26Z</time>
      </trkpt>
      <trkpt lat="51.145960427820683" lon="5.037394557148218">
        <ele>22.25</ele>
        <time>2022-08-20T15:39:27Z</time>
      </trkpt>
      <trkpt lat="51.145942406728864" lon="5.037355665117502">
        <ele>22.25</ele>
        <time>2022-08-20T15:39:28Z</time>
      </trkpt>
      <trkpt lat="51.145920949056745" lon="5.037307972088456">
        <ele>22.73</ele>
        <time>2022-08-20T15:39:29Z</time>
      </trkpt>
      <trkpt lat="51.145902760326862" lon="5.037253908813">
        <ele>22.25</ele>
        <time>2022-08-20T15:39:30Z</time>
      </trkpt>
      <trkpt lat="51.145794130861759" lon="5.036919135600328">
        <ele>22.73</ele>
        <time>2022-08-20T15:39:39Z</time>
      </trkpt>
      <trkpt lat="51.145774349570274" lon="5.036783181130886">
        <ele>22.25</ele>
        <time>2022-08-20T15:39:48Z</time>
      </trkpt>
      <trkpt lat="51.145768733695149" lon="5.036758203059435">
        <ele>22.25</ele>
        <time>2022-08-20T15:39:49Z</time>
      </trkpt>
      <trkpt lat="51.1457643751055" lon="5.03673741593957">
        <ele>22.25</ele>
        <time>2022-08-20T15:39:50Z</time>
      </trkpt>
      <trkpt lat="51.145759178325534" lon="5.036717969924212">
        <ele>22.73</ele>
        <time>2022-08-20T15:39:51Z</time>
      </trkpt>
      <trkpt lat="51.145752724260092" lon="5.036700367927551">
        <ele>22.25</ele>
        <time>2022-08-20T15:39:52Z</time>
      </trkpt>
      <trkpt lat="51.145748449489474" lon="5.036678491160274">
        <ele>22.25</ele>
        <time>2022-08-20T15:39:53Z</time>
      </trkpt>
      <trkpt lat="51.145743671804667" lon="5.036656279116869">
        <ele>22.73</ele>
        <time>2022-08-20T15:39:54Z</time>
      </trkpt>
      <trkpt lat="51.145738139748573" lon="5.036635659635067">
        <ele>22.25</ele>
        <time>2022-08-20T15:39:55Z</time>
      </trkpt>
      <trkpt lat="51.145732691511512" lon="5.036614453420043">
        <ele>22.73</ele>
        <time>2022-08-20T15:39:56Z</time>
      </trkpt>
      <trkpt lat="51.145728332921863" lon="5.036594001576304">
        <ele>22.25</ele>
        <time>2022-08-20T15:39:57Z</time>
      </trkpt>
      <trkpt lat="51.145695224404335" lon="5.036221845075488">
        <ele>22.25</ele>
        <time>2022-08-20T15:40:13Z</time>
      </trkpt>
      <trkpt lat="51.145628588274121" lon="5.035900734364986">
        <ele>21.77</ele>
        <time>2022-08-20T15:40:26Z</time>
      </trkpt>
      <trkpt lat="51.145554995164275" lon="5.035602254793048">
        <ele>22.25</ele>
        <time>2022-08-20T15:40:42Z</time>
      </trkpt>
      <trkpt lat="51.145534040406346" lon="5.035456409677863">
        <ele>22.73</ele>
        <time>2022-08-20T15:40:50Z</time>
      </trkpt>
      <trkpt lat="51.145676113665104" lon="5.035248538479209">
        <ele>22.73</ele>
        <time>2022-08-20T15:41:04Z</time>
      </trkpt>
      <trkpt lat="51.14592656493187" lon="5.035252729430795">
        <ele>22.73</ele>
        <time>2022-08-20T15:41:22Z</time>
      </trkpt>
      <trkpt lat="51.145940227434039" lon="5.035262033343315">
        <ele>22.73</ele>
        <time>2022-08-20T15:41:23Z</time>
      </trkpt>
      <trkpt lat="51.146136280149221" lon="5.03542497754097">
        <ele>21.289999999999999</ele>
        <time>2022-08-20T15:41:36Z</time>
      </trkpt>
      <trkpt lat="51.146364351734519" lon="5.035561518743634">
        <ele>21.289999999999999</ele>
        <time>2022-08-20T15:41:53Z</time>
      </trkpt>
      <trkpt lat="51.146612036973238" lon="5.035643996670842">
        <ele>21.289999999999999</ele>
        <time>2022-08-20T15:42:07Z</time>
      </trkpt>
      <trkpt lat="51.146964328363538" lon="5.035513993352652">
        <ele>21.289999999999999</ele>
        <time>2022-08-20T15:42:18Z</time>
      </trkpt>
      <trkpt lat="51.147362217307091" lon="5.035261111333966">
        <ele>21.77</ele>
        <time>2022-08-20T15:42:33Z</time>
      </trkpt>
      <trkpt lat="51.147849792614579" lon="5.034994231536984">
        <ele>21.77</ele>
        <time>2022-08-20T15:42:45Z</time>
      </trkpt>
      <trkpt lat="51.148401070386171" lon="5.034695416688919">
        <ele>21.77</ele>
        <time>2022-08-20T15:42:57Z</time>
      </trkpt>
      <trkpt lat="51.148950923234224" lon="5.034383861348033">
        <ele>22.25</ele>
        <time>2022-08-20T15:43:10Z</time>
      </trkpt>
      <trkpt lat="51.14924973808229" lon="5.034233154729009">
        <ele>22.25</ele>
        <time>2022-08-20T15:43:22Z</time>
      </trkpt>
      <trkpt lat="51.149432715028524" lon="5.034274896606803">
        <ele>22.25</ele>
        <time>2022-08-20T15:43:36Z</time>
      </trkpt>
      <trkpt lat="51.14968316629529" lon="5.034384448081255">
        <ele>21.289999999999999</ele>
        <time>2022-08-20T15:43:53Z</time>
      </trkpt>
      <trkpt lat="51.149854995310307" lon="5.034453179687262">
        <ele>21.77</ele>
        <time>2022-08-20T15:44:08Z</time>
      </trkpt>
      <trkpt lat="51.149908052757382" lon="5.034428955987096">
        <ele>21.77</ele>
        <time>2022-08-20T15:44:12Z</time>
      </trkpt>
      <trkpt lat="51.150048868730664" lon="5.034367851912975">
        <ele>21.289999999999999</ele>
        <time>2022-08-20T15:44:21Z</time>
      </trkpt>
      <trkpt lat="51.150060603395104" lon="5.034380676224828">
        <ele>21.289999999999999</ele>
        <time>2022-08-20T15:44:22Z</time>
      </trkpt>
      <trkpt lat="51.150071499869227" lon="5.034394674003124">
        <ele>21.289999999999999</ele>
        <time>2022-08-20T15:44:23Z</time>
      </trkpt>
      <trkpt lat="51.150082647800446" lon="5.034408755600452">
        <ele>21.289999999999999</ele>
        <time>2022-08-20T15:44:24Z</time>
      </trkpt>
      <trkpt lat="51.150094885379076" lon="5.034421412274241">
        <ele>21.289999999999999</ele>
        <time>2022-08-20T15:44:25Z</time>
      </trkpt>
      <trkpt lat="51.150105530396104" lon="5.034434068948031">
        <ele>21.289999999999999</ele>
        <time>2022-08-20T15:44:26Z</time>
      </trkpt>
      <trkpt lat="51.150171747431159" lon="5.034524761140347">
        <ele>21.289999999999999</ele>
        <time>2022-08-20T15:44:33Z</time>
      </trkpt>
      <trkpt lat="51.150220781564713" lon="5.034624170511961">
        <ele>21.77</ele>
        <time>2022-08-20T15:44:48Z</time>
      </trkpt>
      <trkpt lat="51.150242909789085" lon="5.03452149219811">
        <ele>21.289999999999999</ele>
        <time>2022-08-20T15:45:03Z</time>
      </trkpt>
      <trkpt lat="51.15031692199409" lon="5.034553511068225">
        <ele>21.77</ele>
        <time>2022-08-20T15:45:10Z</time>
      </trkpt>
      <trkpt lat="51.150559661909938" lon="5.034604975953698">
        <ele>21.77</ele>
        <time>2022-08-20T15:45:26Z</time>
      </trkpt>
      <trkpt lat="51.150788906961679" lon="5.034618386998773">
        <ele>21.77</ele>
        <time>2022-08-20T15:45:43Z</time>
      </trkpt>
      <trkpt lat="51.150931986048818" lon="5.034631965681911">
        <ele>21.77</ele>
        <time>2022-08-20T15:45:56Z</time>
      </trkpt>
      <trkpt lat="51.150978254154325" lon="5.034634899348021">
        <ele>21.77</ele>
        <time>2022-08-20T15:46:10Z</time>
      </trkpt>
      <trkpt lat="51.150990491732955" lon="5.034602964296937">
        <ele>21.77</ele>
        <time>2022-08-20T15:46:28Z</time>
      </trkpt>
      <trkpt lat="51.151097947731614" lon="5.034637833014131">
        <ele>21.77</ele>
        <time>2022-08-20T15:46:45Z</time>
      </trkpt>
      <trkpt lat="51.151263238862157" lon="5.03465929068625">
        <ele>21.77</ele>
        <time>2022-08-20T15:46:56Z</time>
      </trkpt>
      <trkpt lat="51.151276398450136" lon="5.034673791378737">
        <ele>21.289999999999999</ele>
        <time>2022-08-20T15:46:57Z</time>
      </trkpt>
      <trkpt lat="51.151287043467164" lon="5.034689884632826">
        <ele>21.289999999999999</ele>
        <time>2022-08-20T15:46:58Z</time>
      </trkpt>
      <trkpt lat="51.151295425370336" lon="5.034708073362708">
        <ele>21.289999999999999</ele>
        <time>2022-08-20T15:46:59Z</time>
      </trkpt>
      <trkpt lat="51.151301460340619" lon="5.034727016463876">
        <ele>21.289999999999999</ele>
        <time>2022-08-20T15:47:00Z</time>
      </trkpt>
      <trkpt lat="51.151307327672839" lon="5.03474922850728">
        <ele>21.289999999999999</ele>
        <time>2022-08-20T15:47:01Z</time>
      </trkpt>
      <trkpt lat="51.151309674605727" lon="5.034769847989082">
        <ele>21.289999999999999</ele>
        <time>2022-08-20T15:47:02Z</time>
      </trkpt>
      <trkpt lat="51.151398019865155" lon="5.035158265382052">
        <ele>21.289999999999999</ele>
        <time>2022-08-20T15:47:21Z</time>
      </trkpt>
      <trkpt lat="51.151460129767656" lon="5.035453140735626">
        <ele>21.77</ele>
        <time>2022-08-20T15:47:36Z</time>
      </trkpt>
      <trkpt lat="51.151456777006388" lon="5.035487925633788">
        <ele>21.289999999999999</ele>
        <time>2022-08-20T15:47:38Z</time>
      </trkpt>
      <trkpt lat="51.151450574398041" lon="5.035628825426102">
        <ele>21.289999999999999</ele>
        <time>2022-08-20T15:47:45Z</time>
      </trkpt>
      <trkpt lat="51.151453759521246" lon="5.035646175965667">
        <ele>21.77</ele>
        <time>2022-08-20T15:47:46Z</time>
      </trkpt>
      <trkpt lat="51.15147446282208" lon="5.035941135138273">
        <ele>22.25</ele>
        <time>2022-08-20T15:48:02Z</time>
      </trkpt>
      <trkpt lat="51.151465913280845" lon="5.0363230984658">
        <ele>22.73</ele>
        <time>2022-08-20T15:48:18Z</time>
      </trkpt>
      <trkpt lat="51.151464739814401" lon="5.03675015643239">
        <ele>23.210000000000001</ele>
        <time>2022-08-20T15:48:35Z</time>
      </trkpt>
      <trkpt lat="51.151471948251128" lon="5.037049474194646">
        <ele>23.210000000000001</ele>
        <time>2022-08-20T15:48:50Z</time>
      </trkpt>
      <trkpt lat="51.151462476700544" lon="5.03739413805306">
        <ele>22.73</ele>
        <time>2022-08-20T15:49:05Z</time>
      </trkpt>
      <trkpt lat="51.151451915502548" lon="5.037732683122158">
        <ele>23.210000000000001</ele>
        <time>2022-08-20T15:49:19Z</time>
      </trkpt>
      <trkpt lat="51.151459040120244" lon="5.038092182949185">
        <ele>23.690000000000001</ele>
        <time>2022-08-20T15:49:34Z</time>
      </trkpt>
      <trkpt lat="51.15145836956799" lon="5.038350848481059">
        <ele>23.690000000000001</ele>
        <time>2022-08-20T15:49:46Z</time>
      </trkpt>
      <trkpt lat="51.151467673480511" lon="5.038714036345482">
        <ele>23.210000000000001</ele>
        <time>2022-08-20T15:50:03Z</time>
      </trkpt>
      <trkpt lat="51.151478989049792" lon="5.039102537557483">
        <ele>22.73</ele>
        <time>2022-08-20T15:50:21Z</time>
      </trkpt>
      <trkpt lat="51.151482090353966" lon="5.039455499500036">
        <ele>22.73</ele>
        <time>2022-08-20T15:50:37Z</time>
      </trkpt>
      <trkpt lat="51.151474881917238" lon="5.039535630494356">
        <ele>23.210000000000001</ele>
        <time>2022-08-20T15:50:41Z</time>
      </trkpt>
      <trkpt lat="51.151489885523915" lon="5.03991256467998">
        <ele>23.210000000000001</ele>
        <time>2022-08-20T15:50:56Z</time>
      </trkpt>
      <trkpt lat="51.151482257992029" lon="5.04029125906527">
        <ele>23.210000000000001</ele>
        <time>2022-08-20T15:51:12Z</time>
      </trkpt>
      <trkpt lat="51.151493154466152" lon="5.040658973157406">
        <ele>22.73</ele>
        <time>2022-08-20T15:51:29Z</time>
      </trkpt>
      <trkpt lat="51.151470607146621" lon="5.041057281196117">
        <ele>22.73</ele>
        <time>2022-08-20T15:51:46Z</time>
      </trkpt>
      <trkpt lat="51.151479827240109" lon="5.041327513754368">
        <ele>22.73</ele>
        <time>2022-08-20T15:51:59Z</time>
      </trkpt>
      <trkpt lat="51.151471361517906" lon="5.041685001924634">
        <ele>23.210000000000001</ele>
        <time>2022-08-20T15:52:16Z</time>
      </trkpt>
      <trkpt lat="51.151475301012397" lon="5.041909217834473">
        <ele>23.210000000000001</ele>
        <time>2022-08-20T15:52:26Z</time>
      </trkpt>
      <trkpt lat="51.151478905230761" lon="5.041935537010431">
        <ele>23.210000000000001</ele>
        <time>2022-08-20T15:52:27Z</time>
      </trkpt>
      <trkpt lat="51.151493657380342" lon="5.042029246687889">
        <ele>23.210000000000001</ele>
        <time>2022-08-20T15:52:31Z</time>
      </trkpt>
      <trkpt lat="51.151501787826419" lon="5.042083309963346">
        <ele>23.210000000000001</ele>
        <time>2022-08-20T15:52:34Z</time>
      </trkpt>
      <trkpt lat="51.151567669585347" lon="5.042417999356985">
        <ele>22.73</ele>
        <time>2022-08-20T15:52:49Z</time>
      </trkpt>
      <trkpt lat="51.151570184156299" lon="5.042905490845442">
        <ele>23.210000000000001</ele>
        <time>2022-08-20T15:53:04Z</time>
      </trkpt>
      <trkpt lat="51.151583846658468" lon="5.043770670890808">
        <ele>22.73</ele>
        <time>2022-08-20T15:53:14Z</time>
      </trkpt>
      <trkpt lat="51.151590887457132" lon="5.044552367180586">
        <ele>22.73</ele>
        <time>2022-08-20T15:53:28Z</time>
      </trkpt>
      <trkpt lat="51.151588121429086" lon="5.045036254450679">
        <ele>22.25</ele>
        <time>2022-08-20T15:53:41Z</time>
      </trkpt>
      <trkpt lat="51.1515804938972" lon="5.045227697119117">
        <ele>22.73</ele>
        <time>2022-08-20T15:53:59Z</time>
      </trkpt>
      <trkpt lat="51.151579404249787" lon="5.045417798683047">
        <ele>22.73</ele>
        <time>2022-08-20T15:54:14Z</time>
      </trkpt>
      <trkpt lat="51.151548894122243" lon="5.045774700120091">
        <ele>22.73</ele>
        <time>2022-08-20T15:54:32Z</time>
      </trkpt>
      <trkpt lat="51.151559706777334" lon="5.046163788065314">
        <ele>22.25</ele>
        <time>2022-08-20T15:54:50Z</time>
      </trkpt>
      <trkpt lat="51.15155509673059" lon="5.046463189646602">
        <ele>22.25</ele>
        <time>2022-08-20T15:55:04Z</time>
      </trkpt>
      <trkpt lat="51.151563981547952" lon="5.046806260943413">
        <ele>22.73</ele>
        <time>2022-08-20T15:55:20Z</time>
      </trkpt>
      <trkpt lat="51.151560293510556" lon="5.047212867066264">
        <ele>22.25</ele>
        <time>2022-08-20T15:55:38Z</time>
      </trkpt>
      <trkpt lat="51.151565490290523" lon="5.047582006081939">
        <ele>22.25</ele>
        <time>2022-08-20T15:55:55Z</time>
      </trkpt>
      <trkpt lat="51.15156440064311" lon="5.047899764031172">
        <ele>22.73</ele>
        <time>2022-08-20T15:56:11Z</time>
      </trkpt>
      <trkpt lat="51.15156440064311" lon="5.048188185319305">
        <ele>22.25</ele>
        <time>2022-08-20T15:56:26Z</time>
      </trkpt>
      <trkpt lat="51.151565322652459" lon="5.048566879704595">
        <ele>22.73</ele>
        <time>2022-08-20T15:56:43Z</time>
      </trkpt>
      <trkpt lat="51.151559203863144" lon="5.048947334289551">
        <ele>22.73</ele>
        <time>2022-08-20T15:57:00Z</time>
      </trkpt>
      <trkpt lat="51.151561634615064" lon="5.049002738669515">
        <ele>23.210000000000001</ele>
        <time>2022-08-20T15:57:03Z</time>
      </trkpt>
      <trkpt lat="51.151569094508886" lon="5.049086222425103">
        <ele>22.73</ele>
        <time>2022-08-20T15:57:08Z</time>
      </trkpt>
      <trkpt lat="51.151574961841106" lon="5.049580503255129">
        <ele>22.73</ele>
        <time>2022-08-20T15:57:27Z</time>
      </trkpt>
      <trkpt lat="51.151572111994028" lon="5.049921814352274">
        <ele>22.73</ele>
        <time>2022-08-20T15:57:41Z</time>
      </trkpt>
      <trkpt lat="51.151583092287183" lon="5.050308723002672">
        <ele>22.73</ele>
        <time>2022-08-20T15:57:57Z</time>
      </trkpt>
      <trkpt lat="51.151596503332257" lon="5.050811553373933">
        <ele>23.210000000000001</ele>
        <time>2022-08-20T15:58:18Z</time>
      </trkpt>
      <trkpt lat="51.151595497503877" lon="5.050841560587287">
        <ele>22.73</ele>
        <time>2022-08-20T15:58:19Z</time>
      </trkpt>
      <trkpt lat="51.151595832780004" lon="5.050942981615663">
        <ele>22.73</ele>
        <time>2022-08-20T15:58:23Z</time>
      </trkpt>
      <trkpt lat="51.151600275188684" lon="5.050969636067748">
        <ele>22.73</ele>
        <time>2022-08-20T15:58:24Z</time>
      </trkpt>
      <trkpt lat="51.151603208854795" lon="5.050994111225009">
        <ele>22.73</ele>
        <time>2022-08-20T15:58:25Z</time>
      </trkpt>
      <trkpt lat="51.151771266013384" lon="5.051163341850042">
        <ele>22.73</ele>
        <time>2022-08-20T15:58:39Z</time>
      </trkpt>
      <trkpt lat="51.151983831077814" lon="5.051182871684432">
        <ele>22.73</ele>
        <time>2022-08-20T15:58:55Z</time>
      </trkpt>
      <trkpt lat="51.152231432497501" lon="5.051169963553548">
        <ele>22.73</ele>
        <time>2022-08-20T15:59:13Z</time>
      </trkpt>
      <trkpt lat="51.152479536831379" lon="5.051154792308807">
        <ele>23.210000000000001</ele>
        <time>2022-08-20T15:59:30Z</time>
      </trkpt>
      <trkpt lat="51.152680283412337" lon="5.051152277737856">
        <ele>23.210000000000001</ele>
        <time>2022-08-20T15:59:46Z</time>
      </trkpt>
      <trkpt lat="51.15297649987042" lon="5.051147248595953">
        <ele>23.210000000000001</ele>
        <time>2022-08-20T16:00:06Z</time>
      </trkpt>
      <trkpt lat="51.153244469314814" lon="5.051132999360561">
        <ele>23.690000000000001</ele>
        <time>2022-08-20T16:00:24Z</time>
      </trkpt>
      <trkpt lat="51.15351838991046" lon="5.051113050431013">
        <ele>23.690000000000001</ele>
        <time>2022-08-20T16:00:43Z</time>
      </trkpt>
      <trkpt lat="51.153828017413616" lon="5.051110200583935">
        <ele>23.690000000000001</ele>
        <time>2022-08-20T16:01:04Z</time>
      </trkpt>
      <trkpt lat="51.154169160872698" lon="5.051096454262734">
        <ele>23.690000000000001</ele>
        <time>2022-08-20T16:01:28Z</time>
      </trkpt>
      <trkpt lat="51.154359681531787" lon="5.051077762618661">
        <ele>24.170000000000002</ele>
        <time>2022-08-20T16:01:42Z</time>
      </trkpt>
      <trkpt lat="51.154571827501059" lon="5.051045492291451">
        <ele>24.170000000000002</ele>
        <time>2022-08-20T16:01:59Z</time>
      </trkpt>
      <trkpt lat="51.154819261282682" lon="5.05109335295856">
        <ele>24.170000000000002</ele>
        <time>2022-08-20T16:02:17Z</time>
      </trkpt>
      <trkpt lat="51.154967369511724" lon="5.051087653264403">
        <ele>24.649999999999999</ele>
        <time>2022-08-20T16:02:31Z</time>
      </trkpt>
      <trkpt lat="51.155201811343431" lon="5.050948597490788">
        <ele>25.609999999999999</ele>
        <time>2022-08-20T16:02:47Z</time>
      </trkpt>
      <trkpt lat="51.155209522694349" lon="5.05062036216259">
        <ele>25.609999999999999</ele>
        <time>2022-08-20T16:03:02Z</time>
      </trkpt>
      <trkpt lat="51.155206337571144" lon="5.050596473738551">
        <ele>25.609999999999999</ele>
        <time>2022-08-20T16:03:03Z</time>
      </trkpt>
      <trkpt lat="51.155206002295017" lon="5.050569651648402">
        <ele>25.609999999999999</ele>
        <time>2022-08-20T16:03:04Z</time>
      </trkpt>
      <trkpt lat="51.155204996466637" lon="5.050546266138554">
        <ele>25.609999999999999</ele>
        <time>2022-08-20T16:03:05Z</time>
      </trkpt>
      <trkpt lat="51.155204577371478" lon="5.050524640828371">
        <ele>25.609999999999999</ele>
        <time>2022-08-20T16:03:06Z</time>
      </trkpt>
      <trkpt lat="51.15523005835712" lon="5.050519946962595">
        <ele>26.09</ele>
        <time>2022-08-20T16:03:20Z</time>
      </trkpt>
      <trkpt lat="51.155285714194179" lon="5.05052556283772">
        <ele>26.57</ele>
        <time>2022-08-20T16:03:34Z</time>
      </trkpt>
      <trkpt lat="51.155348746106029" lon="5.050560599192977">
        <ele>26.57</ele>
        <time>2022-08-20T16:03:39Z</time>
      </trkpt>
      <trkpt lat="51.155538260936737" lon="5.050440486520529">
        <ele>27.530000000000001</ele>
        <time>2022-08-20T16:03:53Z</time>
      </trkpt>
      <trkpt lat="51.155696008354425" lon="5.050330935046077">
        <ele>27.530000000000001</ele>
        <time>2022-08-20T16:04:09Z</time>
      </trkpt>
      <trkpt lat="51.155796088278294" lon="5.050298413261771">
        <ele>27.530000000000001</ele>
        <time>2022-08-20T16:04:28Z</time>
      </trkpt>
      <trkpt lat="51.155909663066268" lon="5.050218785181642">
        <ele>27.530000000000001</ele>
        <time>2022-08-20T16:04:43Z</time>
      </trkpt>
      <trkpt lat="51.156138405203819" lon="5.050101773813367">
        <ele>27.530000000000001</ele>
        <time>2022-08-20T16:04:59Z</time>
      </trkpt>
      <trkpt lat="51.156330350786448" lon="5.049997586756945">
        <ele>28.02</ele>
        <time>2022-08-20T16:05:14Z</time>
      </trkpt>
      <trkpt lat="51.156409475952387" lon="5.049857022240758">
        <ele>28.02</ele>
        <time>2022-08-20T16:05:27Z</time>
      </trkpt>
      <trkpt lat="51.156389359384775" lon="5.049839587882161">
        <ele>27.530000000000001</ele>
        <time>2022-08-20T16:05:36Z</time>
      </trkpt>
      <trkpt lat="51.156309731304646" lon="5.049583436921239">
        <ele>28.5</ele>
        <time>2022-08-20T16:05:51Z</time>
      </trkpt>
      <trkpt lat="51.156192803755403" lon="5.049321753904223">
        <ele>29.460000000000001</ele>
        <time>2022-08-20T16:06:07Z</time>
      </trkpt>
      <trkpt lat="51.15611108019948" lon="5.049075828865171">
        <ele>29.460000000000001</ele>
        <time>2022-08-20T16:06:22Z</time>
      </trkpt>
      <trkpt lat="51.156070176512003" lon="5.048968205228448">
        <ele>28.98</ele>
        <time>2022-08-20T16:06:28Z</time>
      </trkpt>
      <trkpt lat="51.155961630865932" lon="5.048604682087898">
        <ele>28.5</ele>
        <time>2022-08-20T16:06:45Z</time>
      </trkpt>
      <trkpt lat="51.15589558146894" lon="5.048301760107279">
        <ele>27.050000000000001</ele>
        <time>2022-08-20T16:06:59Z</time>
      </trkpt>
      <trkpt lat="51.155931958928704" lon="5.04823001101613">
        <ele>26.57</ele>
        <time>2022-08-20T16:07:04Z</time>
      </trkpt>
      <trkpt lat="51.156120719388127" lon="5.048180306330323">
        <ele>26.09</ele>
        <time>2022-08-20T16:07:18Z</time>
      </trkpt>
      <trkpt lat="51.156309647485614" lon="5.048149712383747">
        <ele>25.609999999999999</ele>
        <time>2022-08-20T16:07:33Z</time>
      </trkpt>
      <trkpt lat="51.156593877822161" lon="5.048208804801107">
        <ele>25.609999999999999</ele>
        <time>2022-08-20T16:07:48Z</time>
      </trkpt>
      <trkpt lat="51.156686497852206" lon="5.048192040994763">
        <ele>26.09</ele>
        <time>2022-08-20T16:07:53Z</time>
      </trkpt>
      <trkpt lat="51.156725557520986" lon="5.048167230561376">
        <ele>25.609999999999999</ele>
        <time>2022-08-20T16:07:56Z</time>
      </trkpt>
      <trkpt lat="51.1569285672158" lon="5.048193801194429">
        <ele>26.09</ele>
        <time>2022-08-20T16:08:12Z</time>
      </trkpt>
      <trkpt lat="51.157160913571715" lon="5.04823436960578">
        <ele>25.609999999999999</ele>
        <time>2022-08-20T16:08:26Z</time>
      </trkpt>
      <trkpt lat="51.157366773113608" lon="5.048239314928651">
        <ele>26.09</ele>
        <time>2022-08-20T16:08:39Z</time>
      </trkpt>
      <trkpt lat="51.157468697056174" lon="5.048242835327983">
        <ele>26.57</ele>
        <time>2022-08-20T16:08:46Z</time>
      </trkpt>
      <trkpt lat="51.157707497477531" lon="5.04813957028091">
        <ele>27.050000000000001</ele>
        <time>2022-08-20T16:09:03Z</time>
      </trkpt>
      <trkpt lat="51.157886534929276" lon="5.048066731542349">
        <ele>27.530000000000001</ele>
        <time>2022-08-20T16:09:17Z</time>
      </trkpt>
      <trkpt lat="51.158055597916245" lon="5.048032198101282">
        <ele>27.050000000000001</ele>
        <time>2022-08-20T16:09:29Z</time>
      </trkpt>
      <trkpt lat="51.158196413889527" lon="5.048024738207459">
        <ele>27.530000000000001</ele>
        <time>2022-08-20T16:09:39Z</time>
      </trkpt>
      <trkpt lat="51.158449128270149" lon="5.048038065433502">
        <ele>27.050000000000001</ele>
        <time>2022-08-20T16:09:57Z</time>
      </trkpt>
      <trkpt lat="51.158662363886833" lon="5.047977045178413">
        <ele>26.57</ele>
        <time>2022-08-20T16:10:13Z</time>
      </trkpt>
      <trkpt lat="51.158848106861115" lon="5.047894734889269">
        <ele>25.609999999999999</ele>
        <time>2022-08-20T16:10:28Z</time>
      </trkpt>
      <trkpt lat="51.159046506509185" lon="5.047842934727669">
        <ele>25.129999999999999</ele>
        <time>2022-08-20T16:10:42Z</time>
      </trkpt>
      <trkpt lat="51.159189166501164" lon="5.047807060182095">
        <ele>24.649999999999999</ele>
        <time>2022-08-20T16:10:54Z</time>
      </trkpt>
      <trkpt lat="51.159225208684802" lon="5.047655683010817">
        <ele>24.649999999999999</ele>
        <time>2022-08-20T16:11:02Z</time>
      </trkpt>
      <trkpt lat="51.159158321097493" lon="5.047334991395474">
        <ele>25.129999999999999</ele>
        <time>2022-08-20T16:11:17Z</time>
      </trkpt>
      <trkpt lat="51.159043237566948" lon="5.046843476593494">
        <ele>26.09</ele>
        <time>2022-08-20T16:11:28Z</time>
      </trkpt>
      <trkpt lat="51.15882346406579" lon="5.04606245085597">
        <ele>27.530000000000001</ele>
        <time>2022-08-20T16:11:40Z</time>
      </trkpt>
      <trkpt lat="51.158800078555942" lon="5.045994641259313">
        <ele>27.530000000000001</ele>
        <time>2022-08-20T16:11:41Z</time>
      </trkpt>
      <trkpt lat="51.158779291436076" lon="5.045931357890368">
        <ele>27.530000000000001</ele>
        <time>2022-08-20T16:11:42Z</time>
      </trkpt>
      <trkpt lat="51.158760180696845" lon="5.045870672911406">
        <ele>27.050000000000001</ele>
        <time>2022-08-20T16:11:43Z</time>
      </trkpt>
      <trkpt lat="51.15873939357698" lon="5.04580445587635">
        <ele>27.050000000000001</ele>
        <time>2022-08-20T16:11:44Z</time>
      </trkpt>
      <trkpt lat="51.158571252599359" lon="5.045266589149833">
        <ele>28.5</ele>
        <time>2022-08-20T16:11:54Z</time>
      </trkpt>
      <trkpt lat="51.158574186265469" lon="5.045219231396914">
        <ele>28.5</ele>
        <time>2022-08-20T16:11:55Z</time>
      </trkpt>
      <trkpt lat="51.158581729978323" lon="5.045180339366198">
        <ele>28.5</ele>
        <time>2022-08-20T16:11:56Z</time>
      </trkpt>
      <trkpt lat="51.158593045547605" lon="5.045153349637985">
        <ele>28.5</ele>
        <time>2022-08-20T16:11:57Z</time>
      </trkpt>
      <trkpt lat="51.158614503219724" lon="5.04513205960393">
        <ele>28.98</ele>
        <time>2022-08-20T16:11:58Z</time>
      </trkpt>
      <trkpt lat="51.158640738576651" lon="5.045111188665032">
        <ele>28.5</ele>
        <time>2022-08-20T16:11:59Z</time>
      </trkpt>
      <trkpt lat="51.158829834312201" lon="5.044975988566876">
        <ele>28.5</ele>
        <time>2022-08-20T16:12:12Z</time>
      </trkpt>
      <trkpt lat="51.159014906734228" lon="5.044852690771222">
        <ele>27.050000000000001</ele>
        <time>2022-08-20T16:12:27Z</time>
      </trkpt>
      <trkpt lat="51.159203164279461" lon="5.044716903939843">
        <ele>25.609999999999999</ele>
        <time>2022-08-20T16:12:44Z</time>
      </trkpt>
      <trkpt lat="51.159410532563925" lon="5.044563347473741">
        <ele>25.129999999999999</ele>
        <time>2022-08-20T16:13:00Z</time>
      </trkpt>
      <trkpt lat="51.159557634964585" lon="5.04443820565939">
        <ele>24.649999999999999</ele>
        <time>2022-08-20T16:13:15Z</time>
      </trkpt>
      <trkpt lat="51.159725105389953" lon="5.044300574809313">
        <ele>24.170000000000002</ele>
        <time>2022-08-20T16:13:30Z</time>
      </trkpt>
      <trkpt lat="51.159858545288444" lon="5.044161435216665">
        <ele>24.649999999999999</ele>
        <time>2022-08-20T16:13:45Z</time>
      </trkpt>
      <trkpt lat="51.160066248849034" lon="5.044024474918842">
        <ele>23.690000000000001</ele>
        <time>2022-08-20T16:14:01Z</time>
      </trkpt>
      <trkpt lat="51.160298259928823" lon="5.043855747207999">
        <ele>23.690000000000001</ele>
        <time>2022-08-20T16:14:16Z</time>
      </trkpt>
      <trkpt lat="51.160381743684411" lon="5.043862871825695">
        <ele>24.649999999999999</ele>
        <time>2022-08-20T16:14:22Z</time>
      </trkpt>
      <trkpt lat="51.160396663472056" lon="5.0438626203686">
        <ele>24.170000000000002</ele>
        <time>2022-08-20T16:14:23Z</time>
      </trkpt>
      <trkpt lat="51.160410242155194" lon="5.043859938159585">
        <ele>24.170000000000002</ele>
        <time>2022-08-20T16:14:24Z</time>
      </trkpt>
      <trkpt lat="51.160572683438659" lon="5.043780812993646">
        <ele>24.170000000000002</ele>
        <time>2022-08-20T16:14:36Z</time>
      </trkpt>
      <trkpt lat="51.160773849114776" lon="5.04361828789115">
        <ele>24.649999999999999</ele>
        <time>2022-08-20T16:14:53Z</time>
      </trkpt>
      <trkpt lat="51.16080142557621" lon="5.043614851310849">
        <ele>24.649999999999999</ele>
        <time>2022-08-20T16:14:55Z</time>
      </trkpt>
      <trkpt lat="51.16081852465868" lon="5.04362465813756">
        <ele>24.649999999999999</ele>
        <time>2022-08-20T16:14:56Z</time>
      </trkpt>
      <trkpt lat="51.160831181332469" lon="5.043639494106174">
        <ele>24.649999999999999</ele>
        <time>2022-08-20T16:14:57Z</time>
      </trkpt>
      <trkpt lat="51.160909803584218" lon="5.043905535712838">
        <ele>25.129999999999999</ele>
        <time>2022-08-20T16:15:09Z</time>
      </trkpt>
      <trkpt lat="51.160920280963182" lon="5.043953228741884">
        <ele>25.129999999999999</ele>
        <time>2022-08-20T16:15:11Z</time>
      </trkpt>
      <trkpt lat="51.160922376438975" lon="5.043974686414003">
        <ele>25.129999999999999</ele>
        <time>2022-08-20T16:15:12Z</time>
      </trkpt>
      <trkpt lat="51.160977277904749" lon="5.044230250641704">
        <ele>25.129999999999999</ele>
        <time>2022-08-20T16:15:26Z</time>
      </trkpt>
      <trkpt lat="51.161043159663677" lon="5.044459830969572">
        <ele>24.649999999999999</ele>
        <time>2022-08-20T16:15:40Z</time>
      </trkpt>
      <trkpt lat="51.161051960662007" lon="5.044486317783594">
        <ele>24.170000000000002</ele>
        <time>2022-08-20T16:15:41Z</time>
      </trkpt>
      <trkpt lat="51.161060091108084" lon="5.044509870931506">
        <ele>24.170000000000002</ele>
        <time>2022-08-20T16:15:42Z</time>
      </trkpt>
      <trkpt lat="51.16109361872077" lon="5.044624367728829">
        <ele>24.170000000000002</ele>
        <time>2022-08-20T16:15:47Z</time>
      </trkpt>
      <trkpt lat="51.161206606775522" lon="5.044993339106441">
        <ele>25.129999999999999</ele>
        <time>2022-08-20T16:16:02Z</time>
      </trkpt>
      <trkpt lat="51.16132085211575" lon="5.045397849753499">
        <ele>26.09</ele>
        <time>2022-08-20T16:16:20Z</time>
      </trkpt>
      <trkpt lat="51.161406012251973" lon="5.045702615752816">
        <ele>25.129999999999999</ele>
        <time>2022-08-20T16:16:35Z</time>
      </trkpt>
      <trkpt lat="51.161421602591872" lon="5.04576874896884">
        <ele>25.129999999999999</ele>
        <time>2022-08-20T16:16:40Z</time>
      </trkpt>
      <trkpt lat="51.161432499065995" lon="5.045800181105733">
        <ele>25.129999999999999</ele>
        <time>2022-08-20T16:16:42Z</time>
      </trkpt>
      <trkpt lat="51.161524280905724" lon="5.046135289594531">
        <ele>24.649999999999999</ele>
        <time>2022-08-20T16:16:57Z</time>
      </trkpt>
      <trkpt lat="51.16157834418118" lon="5.046275435015559">
        <ele>25.129999999999999</ele>
        <time>2022-08-20T16:17:12Z</time>
      </trkpt>
      <trkpt lat="51.16162377409637" lon="5.046387333422899">
        <ele>24.649999999999999</ele>
        <time>2022-08-20T16:17:26Z</time>
      </trkpt>
      <trkpt lat="51.161713376641273" lon="5.046673323959112">
        <ele>26.09</ele>
        <time>2022-08-20T16:17:40Z</time>
      </trkpt>
      <trkpt lat="51.161730475723743" lon="5.04696149379015">
        <ele>24.649999999999999</ele>
        <time>2022-08-20T16:17:51Z</time>
      </trkpt>
      <trkpt lat="51.161728799343109" lon="5.046985801309347">
        <ele>24.649999999999999</ele>
        <time>2022-08-20T16:17:52Z</time>
      </trkpt>
      <trkpt lat="51.161730056628585" lon="5.047012539580464">
        <ele>24.649999999999999</ele>
        <time>2022-08-20T16:17:53Z</time>
      </trkpt>
      <trkpt lat="51.161751262843609" lon="5.047389725223184">
        <ele>24.649999999999999</ele>
        <time>2022-08-20T16:18:08Z</time>
      </trkpt>
      <trkpt lat="51.161761404946446" lon="5.047435909509659">
        <ele>24.649999999999999</ele>
        <time>2022-08-20T16:18:10Z</time>
      </trkpt>
      <trkpt lat="51.161763165146112" lon="5.04746281541884">
        <ele>25.129999999999999</ele>
        <time>2022-08-20T16:18:11Z</time>
      </trkpt>
      <trkpt lat="51.161763919517398" lon="5.047489386051893">
        <ele>25.129999999999999</ele>
        <time>2022-08-20T16:18:12Z</time>
      </trkpt>
      <trkpt lat="51.161718741059303" lon="5.047600865364075">
        <ele>25.609999999999999</ele>
        <time>2022-08-20T16:18:19Z</time>
      </trkpt>
      <trkpt lat="51.161703569814563" lon="5.04759332165122">
        <ele>25.129999999999999</ele>
        <time>2022-08-20T16:18:20Z</time>
      </trkpt>
      <trkpt lat="51.161689572036266" lon="5.047581419348717">
        <ele>25.129999999999999</ele>
        <time>2022-08-20T16:18:21Z</time>
      </trkpt>
      <trkpt lat="51.16167800500989" lon="5.047568259760737">
        <ele>25.129999999999999</ele>
        <time>2022-08-20T16:18:22Z</time>
      </trkpt>
      <trkpt lat="51.161664677783847" lon="5.047554261982441">
        <ele>25.129999999999999</ele>
        <time>2022-08-20T16:18:23Z</time>
      </trkpt>
      <trkpt lat="51.161650763824582" lon="5.047547305002809">
        <ele>25.129999999999999</ele>
        <time>2022-08-20T16:18:24Z</time>
      </trkpt>
      <trkpt lat="51.161637855693698" lon="5.047544790431857">
        <ele>25.129999999999999</ele>
        <time>2022-08-20T16:18:25Z</time>
      </trkpt>
      <trkpt lat="51.161631317809224" lon="5.047529451549053">
        <ele>25.129999999999999</ele>
        <time>2022-08-20T16:18:26Z</time>
      </trkpt>
      <trkpt lat="51.161627462133765" lon="5.0475063174963">
        <ele>25.129999999999999</ele>
        <time>2022-08-20T16:18:27Z</time>
      </trkpt>
      <trkpt lat="51.161623941734433" lon="5.047479411587119">
        <ele>25.129999999999999</ele>
        <time>2022-08-20T16:18:28Z</time>
      </trkpt>
      <trkpt lat="51.161617487668991" lon="5.047455942258239">
        <ele>25.129999999999999</ele>
        <time>2022-08-20T16:18:29Z</time>
      </trkpt>
      <trkpt lat="51.161609692499042" lon="5.047433143481612">
        <ele>25.129999999999999</ele>
        <time>2022-08-20T16:18:30Z</time>
      </trkpt>
      <trkpt lat="51.161600640043616" lon="5.047413781285286">
        <ele>25.129999999999999</ele>
        <time>2022-08-20T16:18:31Z</time>
      </trkpt>
      <trkpt lat="51.161593934521079" lon="5.047392910346389">
        <ele>25.129999999999999</ele>
        <time>2022-08-20T16:18:32Z</time>
      </trkpt>
      <trkpt lat="51.161569794639945" lon="5.047351084649563">
        <ele>25.129999999999999</ele>
        <time>2022-08-20T16:18:35Z</time>
      </trkpt>
      <trkpt lat="51.1615548748523" lon="5.047348653897643">
        <ele>25.129999999999999</ele>
        <time>2022-08-20T16:18:36Z</time>
      </trkpt>
      <trkpt lat="51.161541799083352" lon="5.04734898917377">
        <ele>24.649999999999999</ele>
        <time>2022-08-20T16:18:37Z</time>
      </trkpt>
      <trkpt lat="51.161529561504722" lon="5.047355024144054">
        <ele>25.129999999999999</ele>
        <time>2022-08-20T16:18:38Z</time>
      </trkpt>
      <trkpt lat="51.161516401916742" lon="5.04735971800983">
        <ele>25.129999999999999</ele>
        <time>2022-08-20T16:18:39Z</time>
      </trkpt>
      <trkpt lat="51.161502990871668" lon="5.047362148761749">
        <ele>24.649999999999999</ele>
        <time>2022-08-20T16:18:40Z</time>
      </trkpt>
      <trkpt lat="51.161491088569164" lon="5.047361394390464">
        <ele>25.129999999999999</ele>
        <time>2022-08-20T16:18:41Z</time>
      </trkpt>
      <trkpt lat="51.161483461037278" lon="5.047400537878275">
        <ele>25.129999999999999</ele>
        <time>2022-08-20T16:18:51Z</time>
      </trkpt>
      <trkpt lat="51.16148354485631" lon="5.047391569241881">
        <ele>25.129999999999999</ele>
        <time>2022-08-20T16:19:12Z</time>
      </trkpt>
      <trkpt lat="51.161494860425591" lon="5.047427779063582">
        <ele>25.129999999999999</ele>
        <time>2022-08-20T16:19:25Z</time>
      </trkpt>
      <trkpt lat="51.16148161701858" lon="5.047423504292965">
        <ele>25.129999999999999</ele>
        <time>2022-08-20T16:19:59Z</time>
      </trkpt>
      <trkpt lat="51.161492094397545" lon="5.047383941709995">
        <ele>25.609999999999999</ele>
        <time>2022-08-20T16:20:29Z</time>
      </trkpt>
      <trkpt lat="51.161537943407893" lon="5.047442866489291">
        <ele>25.609999999999999</ele>
        <time>2022-08-20T16:20:48Z</time>
      </trkpt>
      <trkpt lat="51.161573817953467" lon="5.047487877309322">
        <ele>25.609999999999999</ele>
        <time>2022-08-20T16:21:01Z</time>
      </trkpt>
      <trkpt lat="51.161572728306055" lon="5.047449488192797">
        <ele>25.609999999999999</ele>
        <time>2022-08-20T16:21:32Z</time>
      </trkpt>
      <trkpt lat="51.161604328081012" lon="5.047498773783445">
        <ele>25.609999999999999</ele>
        <time>2022-08-20T16:21:55Z</time>
      </trkpt>
      <trkpt lat="51.161610530689359" lon="5.047462731599808">
        <ele>26.09</ele>
        <time>2022-08-20T16:22:24Z</time>
      </trkpt>
    </trkseg>
  </trk>

</gpx>